<?xml version="1.0" encoding="UTF-8" standalone="no" ?>
<gpx xmlns="http://www.topografix.com/GPX/1/1" xmlns:xsi="http://www.w3.org/2001/XMLSchema-instance" xsi:schemaLocation="http://www.topografix.com/GPX/1/1 http://www.topografix.com/GPX/1/1/gpx.xsd" version="1.1" creator="VisuGPX - https://www.visugpx.com">
  <metadata>
    <name>Le Suchet depuis Entre-les-Fourgs</name>
    <desc><![CDATA[Randonnée pédestre effectuée le 26 juin 2019]]></desc>
  </metadata>
  <trk>
    <name><![CDATA[26 juin 2019 à 09:57:56]]></name>
    <trkseg>
      <trkpt lat="46.76251" lon="6.40879">
        <ele>1068</ele>
        <time>2019-06-26T07:57:56Z</time>
      </trkpt>
      <trkpt lat="46.76251" lon="6.40879">
        <ele>1070</ele>
        <time>2019-06-26T07:57:57Z</time>
      </trkpt>
      <trkpt lat="46.76246" lon="6.40885">
        <ele>1073</ele>
        <time>2019-06-26T07:58:02Z</time>
      </trkpt>
      <trkpt lat="46.76243" lon="6.4088">
        <ele>1069</ele>
        <time>2019-06-26T07:59:04Z</time>
      </trkpt>
      <trkpt lat="46.76239" lon="6.40886">
        <ele>1073</ele>
        <time>2019-06-26T08:01:14Z</time>
      </trkpt>
      <trkpt lat="46.76241" lon="6.40894">
        <ele>1075</ele>
        <time>2019-06-26T08:01:24Z</time>
      </trkpt>
      <trkpt lat="46.76244" lon="6.40908">
        <ele>1075</ele>
        <time>2019-06-26T08:01:32Z</time>
      </trkpt>
      <trkpt lat="46.76245" lon="6.40914">
        <ele>1075</ele>
        <time>2019-06-26T08:01:36Z</time>
      </trkpt>
      <trkpt lat="46.76247" lon="6.40921">
        <ele>1074</ele>
        <time>2019-06-26T08:01:41Z</time>
      </trkpt>
      <trkpt lat="46.76249" lon="6.40928">
        <ele>1074</ele>
        <time>2019-06-26T08:01:46Z</time>
      </trkpt>
      <trkpt lat="46.76252" lon="6.40935">
        <ele>1074</ele>
        <time>2019-06-26T08:01:51Z</time>
      </trkpt>
      <trkpt lat="46.76253" lon="6.40942">
        <ele>1074</ele>
        <time>2019-06-26T08:01:55Z</time>
      </trkpt>
      <trkpt lat="46.76252" lon="6.4095">
        <ele>1074</ele>
        <time>2019-06-26T08:02:00Z</time>
      </trkpt>
      <trkpt lat="46.76244" lon="6.40965">
        <ele>1074</ele>
        <time>2019-06-26T08:02:14Z</time>
      </trkpt>
      <trkpt lat="46.7624" lon="6.40969">
        <ele>1073</ele>
        <time>2019-06-26T08:02:21Z</time>
      </trkpt>
      <trkpt lat="46.76235" lon="6.40971">
        <ele>1073</ele>
        <time>2019-06-26T08:02:41Z</time>
      </trkpt>
      <trkpt lat="46.76231" lon="6.40974">
        <ele>1072</ele>
        <time>2019-06-26T08:02:45Z</time>
      </trkpt>
      <trkpt lat="46.76227" lon="6.40977">
        <ele>1072</ele>
        <time>2019-06-26T08:02:49Z</time>
      </trkpt>
      <trkpt lat="46.76223" lon="6.4098">
        <ele>1072</ele>
        <time>2019-06-26T08:02:53Z</time>
      </trkpt>
      <trkpt lat="46.76218" lon="6.40983">
        <ele>1071</ele>
        <time>2019-06-26T08:02:58Z</time>
      </trkpt>
      <trkpt lat="46.76208" lon="6.40987">
        <ele>1071</ele>
        <time>2019-06-26T08:03:08Z</time>
      </trkpt>
      <trkpt lat="46.76196" lon="6.40982">
        <ele>1072</ele>
        <time>2019-06-26T08:03:23Z</time>
      </trkpt>
      <trkpt lat="46.76191" lon="6.4098">
        <ele>1072</ele>
        <time>2019-06-26T08:03:28Z</time>
      </trkpt>
      <trkpt lat="46.76186" lon="6.40979">
        <ele>1072</ele>
        <time>2019-06-26T08:03:33Z</time>
      </trkpt>
      <trkpt lat="46.76182" lon="6.40977">
        <ele>1071</ele>
        <time>2019-06-26T08:03:37Z</time>
      </trkpt>
      <trkpt lat="46.76177" lon="6.40977">
        <ele>1071</ele>
        <time>2019-06-26T08:03:42Z</time>
      </trkpt>
      <trkpt lat="46.76172" lon="6.40978">
        <ele>1071</ele>
        <time>2019-06-26T08:03:47Z</time>
      </trkpt>
      <trkpt lat="46.76167" lon="6.40982">
        <ele>1072</ele>
        <time>2019-06-26T08:03:52Z</time>
      </trkpt>
      <trkpt lat="46.76158" lon="6.40983">
        <ele>1075</ele>
        <time>2019-06-26T08:04:02Z</time>
      </trkpt>
      <trkpt lat="46.76148" lon="6.40982">
        <ele>1076</ele>
        <time>2019-06-26T08:04:12Z</time>
      </trkpt>
      <trkpt lat="46.76143" lon="6.40985">
        <ele>1076</ele>
        <time>2019-06-26T08:04:17Z</time>
      </trkpt>
      <trkpt lat="46.76139" lon="6.40989">
        <ele>1076</ele>
        <time>2019-06-26T08:04:21Z</time>
      </trkpt>
      <trkpt lat="46.76134" lon="6.40993">
        <ele>1076</ele>
        <time>2019-06-26T08:04:26Z</time>
      </trkpt>
      <trkpt lat="46.7613" lon="6.40997">
        <ele>1077</ele>
        <time>2019-06-26T08:04:31Z</time>
      </trkpt>
      <trkpt lat="46.76126" lon="6.41001">
        <ele>1077</ele>
        <time>2019-06-26T08:04:36Z</time>
      </trkpt>
      <trkpt lat="46.76121" lon="6.41">
        <ele>1078</ele>
        <time>2019-06-26T08:04:43Z</time>
      </trkpt>
      <trkpt lat="46.76116" lon="6.41007">
        <ele>1078</ele>
        <time>2019-06-26T08:04:53Z</time>
      </trkpt>
      <trkpt lat="46.76096" lon="6.41021">
        <ele>1080</ele>
        <time>2019-06-26T08:05:23Z</time>
      </trkpt>
      <trkpt lat="46.76092" lon="6.41024">
        <ele>1081</ele>
        <time>2019-06-26T08:05:28Z</time>
      </trkpt>
      <trkpt lat="46.76083" lon="6.41028">
        <ele>1079</ele>
        <time>2019-06-26T08:05:37Z</time>
      </trkpt>
      <trkpt lat="46.76074" lon="6.41035">
        <ele>1081</ele>
        <time>2019-06-26T08:05:47Z</time>
      </trkpt>
      <trkpt lat="46.76059" lon="6.41039">
        <ele>1084</ele>
        <time>2019-06-26T08:06:04Z</time>
      </trkpt>
      <trkpt lat="46.76054" lon="6.41038">
        <ele>1084</ele>
        <time>2019-06-26T08:06:09Z</time>
      </trkpt>
      <trkpt lat="46.76044" lon="6.41037">
        <ele>1085</ele>
        <time>2019-06-26T08:06:19Z</time>
      </trkpt>
      <trkpt lat="46.76039" lon="6.41034">
        <ele>1086</ele>
        <time>2019-06-26T08:06:28Z</time>
      </trkpt>
      <trkpt lat="46.76034" lon="6.41033">
        <ele>1086</ele>
        <time>2019-06-26T08:06:33Z</time>
      </trkpt>
      <trkpt lat="46.76029" lon="6.41031">
        <ele>1086</ele>
        <time>2019-06-26T08:06:38Z</time>
      </trkpt>
      <trkpt lat="46.76004" lon="6.41021">
        <ele>1091</ele>
        <time>2019-06-26T08:07:10Z</time>
      </trkpt>
      <trkpt lat="46.75999" lon="6.41019">
        <ele>1092</ele>
        <time>2019-06-26T08:07:15Z</time>
      </trkpt>
      <trkpt lat="46.75981" lon="6.41018">
        <ele>1095</ele>
        <time>2019-06-26T08:07:34Z</time>
      </trkpt>
      <trkpt lat="46.75973" lon="6.41017">
        <ele>1092</ele>
        <time>2019-06-26T08:07:44Z</time>
      </trkpt>
      <trkpt lat="46.75968" lon="6.41017">
        <ele>1092</ele>
        <time>2019-06-26T08:07:49Z</time>
      </trkpt>
      <trkpt lat="46.75963" lon="6.41016">
        <ele>1093</ele>
        <time>2019-06-26T08:07:54Z</time>
      </trkpt>
      <trkpt lat="46.75959" lon="6.41015">
        <ele>1093</ele>
        <time>2019-06-26T08:07:58Z</time>
      </trkpt>
      <trkpt lat="46.75954" lon="6.41013">
        <ele>1094</ele>
        <time>2019-06-26T08:08:02Z</time>
      </trkpt>
      <trkpt lat="46.75949" lon="6.41012">
        <ele>1093</ele>
        <time>2019-06-26T08:08:07Z</time>
      </trkpt>
      <trkpt lat="46.75944" lon="6.4101">
        <ele>1094</ele>
        <time>2019-06-26T08:08:12Z</time>
      </trkpt>
      <trkpt lat="46.75939" lon="6.41008">
        <ele>1093</ele>
        <time>2019-06-26T08:08:17Z</time>
      </trkpt>
      <trkpt lat="46.75935" lon="6.41005">
        <ele>1094</ele>
        <time>2019-06-26T08:08:22Z</time>
      </trkpt>
      <trkpt lat="46.75914" lon="6.41">
        <ele>1099</ele>
        <time>2019-06-26T08:08:46Z</time>
      </trkpt>
      <trkpt lat="46.75906" lon="6.40996">
        <ele>1101</ele>
        <time>2019-06-26T08:08:57Z</time>
      </trkpt>
      <trkpt lat="46.75901" lon="6.40993">
        <ele>1101</ele>
        <time>2019-06-26T08:09:03Z</time>
      </trkpt>
      <trkpt lat="46.75896" lon="6.40992">
        <ele>1101</ele>
        <time>2019-06-26T08:09:08Z</time>
      </trkpt>
      <trkpt lat="46.75892" lon="6.40989">
        <ele>1102</ele>
        <time>2019-06-26T08:09:13Z</time>
      </trkpt>
      <trkpt lat="46.75884" lon="6.40989">
        <ele>1103</ele>
        <time>2019-06-26T08:09:22Z</time>
      </trkpt>
      <trkpt lat="46.75879" lon="6.40988">
        <ele>1103</ele>
        <time>2019-06-26T08:09:28Z</time>
      </trkpt>
      <trkpt lat="46.75875" lon="6.40986">
        <ele>1103</ele>
        <time>2019-06-26T08:09:33Z</time>
      </trkpt>
      <trkpt lat="46.75863" lon="6.40982">
        <ele>1106</ele>
        <time>2019-06-26T08:09:46Z</time>
      </trkpt>
      <trkpt lat="46.75848" lon="6.4098">
        <ele>1110</ele>
        <time>2019-06-26T08:10:06Z</time>
      </trkpt>
      <trkpt lat="46.7584" lon="6.4098">
        <ele>1111</ele>
        <time>2019-06-26T08:10:17Z</time>
      </trkpt>
      <trkpt lat="46.75836" lon="6.40982">
        <ele>1112</ele>
        <time>2019-06-26T08:10:23Z</time>
      </trkpt>
      <trkpt lat="46.75829" lon="6.40989">
        <ele>1116</ele>
        <time>2019-06-26T08:10:35Z</time>
      </trkpt>
      <trkpt lat="46.75826" lon="6.41001">
        <ele>1118</ele>
        <time>2019-06-26T08:10:46Z</time>
      </trkpt>
      <trkpt lat="46.75826" lon="6.41008">
        <ele>1119</ele>
        <time>2019-06-26T08:10:52Z</time>
      </trkpt>
      <trkpt lat="46.75826" lon="6.41017">
        <ele>1120</ele>
        <time>2019-06-26T08:10:59Z</time>
      </trkpt>
      <trkpt lat="46.75828" lon="6.41033">
        <ele>1122</ele>
        <time>2019-06-26T08:11:12Z</time>
      </trkpt>
      <trkpt lat="46.75827" lon="6.41047">
        <ele>1122</ele>
        <time>2019-06-26T08:11:22Z</time>
      </trkpt>
      <trkpt lat="46.75829" lon="6.41055">
        <ele>1122</ele>
        <time>2019-06-26T08:11:29Z</time>
      </trkpt>
      <trkpt lat="46.75828" lon="6.41063">
        <ele>1122</ele>
        <time>2019-06-26T08:11:34Z</time>
      </trkpt>
      <trkpt lat="46.75827" lon="6.41069">
        <ele>1123</ele>
        <time>2019-06-26T08:11:39Z</time>
      </trkpt>
      <trkpt lat="46.75827" lon="6.41079">
        <ele>1122</ele>
        <time>2019-06-26T08:11:48Z</time>
      </trkpt>
      <trkpt lat="46.75826" lon="6.41091">
        <ele>1123</ele>
        <time>2019-06-26T08:11:57Z</time>
      </trkpt>
      <trkpt lat="46.75825" lon="6.41097">
        <ele>1123</ele>
        <time>2019-06-26T08:12:01Z</time>
      </trkpt>
      <trkpt lat="46.75824" lon="6.41107">
        <ele>1122</ele>
        <time>2019-06-26T08:12:08Z</time>
      </trkpt>
      <trkpt lat="46.75829" lon="6.41119">
        <ele>1123</ele>
        <time>2019-06-26T08:12:19Z</time>
      </trkpt>
      <trkpt lat="46.7583" lon="6.41127">
        <ele>1123</ele>
        <time>2019-06-26T08:12:27Z</time>
      </trkpt>
      <trkpt lat="46.75828" lon="6.41144">
        <ele>1126</ele>
        <time>2019-06-26T08:12:39Z</time>
      </trkpt>
      <trkpt lat="46.75829" lon="6.41152">
        <ele>1129</ele>
        <time>2019-06-26T08:12:47Z</time>
      </trkpt>
      <trkpt lat="46.75831" lon="6.41159">
        <ele>1129</ele>
        <time>2019-06-26T08:12:52Z</time>
      </trkpt>
      <trkpt lat="46.75832" lon="6.41166">
        <ele>1131</ele>
        <time>2019-06-26T08:12:57Z</time>
      </trkpt>
      <trkpt lat="46.75836" lon="6.41182">
        <ele>1137</ele>
        <time>2019-06-26T08:13:22Z</time>
      </trkpt>
      <trkpt lat="46.75836" lon="6.41193">
        <ele>1137</ele>
        <time>2019-06-26T08:13:45Z</time>
      </trkpt>
      <trkpt lat="46.75838" lon="6.41201">
        <ele>1139</ele>
        <time>2019-06-26T08:13:53Z</time>
      </trkpt>
      <trkpt lat="46.7584" lon="6.41213">
        <ele>1140</ele>
        <time>2019-06-26T08:14:04Z</time>
      </trkpt>
      <trkpt lat="46.75844" lon="6.41223">
        <ele>1140</ele>
        <time>2019-06-26T08:14:14Z</time>
      </trkpt>
      <trkpt lat="46.75843" lon="6.41238">
        <ele>1140</ele>
        <time>2019-06-26T08:14:22Z</time>
      </trkpt>
      <trkpt lat="46.7584" lon="6.41254">
        <ele>1141</ele>
        <time>2019-06-26T08:14:30Z</time>
      </trkpt>
      <trkpt lat="46.75842" lon="6.41274">
        <ele>1140</ele>
        <time>2019-06-26T08:14:45Z</time>
      </trkpt>
      <trkpt lat="46.75843" lon="6.41281">
        <ele>1141</ele>
        <time>2019-06-26T08:14:50Z</time>
      </trkpt>
      <trkpt lat="46.75844" lon="6.41288">
        <ele>1140</ele>
        <time>2019-06-26T08:14:55Z</time>
      </trkpt>
      <trkpt lat="46.75845" lon="6.41305">
        <ele>1147</ele>
        <time>2019-06-26T08:15:30Z</time>
      </trkpt>
      <trkpt lat="46.75839" lon="6.41313">
        <ele>1145</ele>
        <time>2019-06-26T08:15:48Z</time>
      </trkpt>
      <trkpt lat="46.75837" lon="6.41319">
        <ele>1150</ele>
        <time>2019-06-26T08:15:54Z</time>
      </trkpt>
      <trkpt lat="46.7583" lon="6.41329">
        <ele>1144</ele>
        <time>2019-06-26T08:16:06Z</time>
      </trkpt>
      <trkpt lat="46.75826" lon="6.41335">
        <ele>1146</ele>
        <time>2019-06-26T08:16:14Z</time>
      </trkpt>
      <trkpt lat="46.75821" lon="6.41344">
        <ele>1147</ele>
        <time>2019-06-26T08:16:26Z</time>
      </trkpt>
      <trkpt lat="46.75816" lon="6.41359">
        <ele>1149</ele>
        <time>2019-06-26T08:16:43Z</time>
      </trkpt>
      <trkpt lat="46.75816" lon="6.41372">
        <ele>1150</ele>
        <time>2019-06-26T08:16:53Z</time>
      </trkpt>
      <trkpt lat="46.75813" lon="6.41384">
        <ele>1152</ele>
        <time>2019-06-26T08:17:07Z</time>
      </trkpt>
      <trkpt lat="46.75811" lon="6.41404">
        <ele>1154</ele>
        <time>2019-06-26T08:17:25Z</time>
      </trkpt>
      <trkpt lat="46.75811" lon="6.4143">
        <ele>1158</ele>
        <time>2019-06-26T08:17:47Z</time>
      </trkpt>
      <trkpt lat="46.75797" lon="6.41465">
        <ele>1166</ele>
        <time>2019-06-26T08:18:20Z</time>
      </trkpt>
      <trkpt lat="46.75791" lon="6.41478">
        <ele>1168</ele>
        <time>2019-06-26T08:18:33Z</time>
      </trkpt>
      <trkpt lat="46.75789" lon="6.41484">
        <ele>1167</ele>
        <time>2019-06-26T08:18:38Z</time>
      </trkpt>
      <trkpt lat="46.75786" lon="6.41493">
        <ele>1167</ele>
        <time>2019-06-26T08:18:46Z</time>
      </trkpt>
      <trkpt lat="46.7578" lon="6.415">
        <ele>1168</ele>
        <time>2019-06-26T08:18:58Z</time>
      </trkpt>
      <trkpt lat="46.75778" lon="6.41512">
        <ele>1169</ele>
        <time>2019-06-26T08:19:10Z</time>
      </trkpt>
      <trkpt lat="46.75772" lon="6.41521">
        <ele>1170</ele>
        <time>2019-06-26T08:19:24Z</time>
      </trkpt>
      <trkpt lat="46.7577" lon="6.41532">
        <ele>1173</ele>
        <time>2019-06-26T08:19:36Z</time>
      </trkpt>
      <trkpt lat="46.75767" lon="6.41552">
        <ele>1173</ele>
        <time>2019-06-26T08:19:54Z</time>
      </trkpt>
      <trkpt lat="46.75765" lon="6.41571">
        <ele>1176</ele>
        <time>2019-06-26T08:20:12Z</time>
      </trkpt>
      <trkpt lat="46.75761" lon="6.41583">
        <ele>1176</ele>
        <time>2019-06-26T08:20:25Z</time>
      </trkpt>
      <trkpt lat="46.75752" lon="6.41603">
        <ele>1179</ele>
        <time>2019-06-26T08:20:46Z</time>
      </trkpt>
      <trkpt lat="46.75746" lon="6.41614">
        <ele>1181</ele>
        <time>2019-06-26T08:20:56Z</time>
      </trkpt>
      <trkpt lat="46.75739" lon="6.41622">
        <ele>1187</ele>
        <time>2019-06-26T08:21:12Z</time>
      </trkpt>
      <trkpt lat="46.75733" lon="6.41633">
        <ele>1188</ele>
        <time>2019-06-26T08:21:26Z</time>
      </trkpt>
      <trkpt lat="46.75729" lon="6.41648">
        <ele>1191</ele>
        <time>2019-06-26T08:21:46Z</time>
      </trkpt>
      <trkpt lat="46.75723" lon="6.41662">
        <ele>1191</ele>
        <time>2019-06-26T08:22:00Z</time>
      </trkpt>
      <trkpt lat="46.75717" lon="6.41675">
        <ele>1194</ele>
        <time>2019-06-26T08:22:16Z</time>
      </trkpt>
      <trkpt lat="46.7571" lon="6.41683">
        <ele>1197</ele>
        <time>2019-06-26T08:22:31Z</time>
      </trkpt>
      <trkpt lat="46.75698" lon="6.41691">
        <ele>1202</ele>
        <time>2019-06-26T08:22:50Z</time>
      </trkpt>
      <trkpt lat="46.75685" lon="6.41718">
        <ele>1209</ele>
        <time>2019-06-26T08:23:25Z</time>
      </trkpt>
      <trkpt lat="46.75678" lon="6.41727">
        <ele>1210</ele>
        <time>2019-06-26T08:23:36Z</time>
      </trkpt>
      <trkpt lat="46.75673" lon="6.41738">
        <ele>1210</ele>
        <time>2019-06-26T08:23:51Z</time>
      </trkpt>
      <trkpt lat="46.75666" lon="6.41748">
        <ele>1204</ele>
        <time>2019-06-26T08:24:00Z</time>
      </trkpt>
      <trkpt lat="46.7566" lon="6.41763">
        <ele>1208</ele>
        <time>2019-06-26T08:24:17Z</time>
      </trkpt>
      <trkpt lat="46.75649" lon="6.41766">
        <ele>1214</ele>
        <time>2019-06-26T08:25:03Z</time>
      </trkpt>
      <trkpt lat="46.7564" lon="6.41789">
        <ele>1219</ele>
        <time>2019-06-26T08:27:24Z</time>
      </trkpt>
      <trkpt lat="46.75634" lon="6.41801">
        <ele>1221</ele>
        <time>2019-06-26T08:27:42Z</time>
      </trkpt>
      <trkpt lat="46.75626" lon="6.41808">
        <ele>1224</ele>
        <time>2019-06-26T08:27:52Z</time>
      </trkpt>
      <trkpt lat="46.75609" lon="6.41832">
        <ele>1228</ele>
        <time>2019-06-26T08:28:23Z</time>
      </trkpt>
      <trkpt lat="46.75597" lon="6.41856">
        <ele>1227</ele>
        <time>2019-06-26T08:28:42Z</time>
      </trkpt>
      <trkpt lat="46.7559" lon="6.41887">
        <ele>1231</ele>
        <time>2019-06-26T08:29:04Z</time>
      </trkpt>
      <trkpt lat="46.75582" lon="6.41896">
        <ele>1229</ele>
        <time>2019-06-26T08:29:12Z</time>
      </trkpt>
      <trkpt lat="46.75586" lon="6.41928">
        <ele>1231</ele>
        <time>2019-06-26T08:29:39Z</time>
      </trkpt>
      <trkpt lat="46.75588" lon="6.41941">
        <ele>1232</ele>
        <time>2019-06-26T08:29:48Z</time>
      </trkpt>
      <trkpt lat="46.75585" lon="6.41954">
        <ele>1233</ele>
        <time>2019-06-26T08:29:56Z</time>
      </trkpt>
      <trkpt lat="46.75587" lon="6.4197">
        <ele>1236</ele>
        <time>2019-06-26T08:30:11Z</time>
      </trkpt>
      <trkpt lat="46.75591" lon="6.41994">
        <ele>1241</ele>
        <time>2019-06-26T08:30:58Z</time>
      </trkpt>
      <trkpt lat="46.75588" lon="6.42016">
        <ele>1246</ele>
        <time>2019-06-26T08:31:12Z</time>
      </trkpt>
      <trkpt lat="46.75587" lon="6.42023">
        <ele>1246</ele>
        <time>2019-06-26T08:31:19Z</time>
      </trkpt>
      <trkpt lat="46.75586" lon="6.42031">
        <ele>1247</ele>
        <time>2019-06-26T08:31:24Z</time>
      </trkpt>
      <trkpt lat="46.75587" lon="6.42041">
        <ele>1245</ele>
        <time>2019-06-26T08:31:32Z</time>
      </trkpt>
      <trkpt lat="46.75585" lon="6.42056">
        <ele>1243</ele>
        <time>2019-06-26T08:31:41Z</time>
      </trkpt>
      <trkpt lat="46.75584" lon="6.42063">
        <ele>1244</ele>
        <time>2019-06-26T08:31:45Z</time>
      </trkpt>
      <trkpt lat="46.75592" lon="6.42095">
        <ele>1247</ele>
        <time>2019-06-26T08:32:07Z</time>
      </trkpt>
      <trkpt lat="46.75592" lon="6.42104">
        <ele>1247</ele>
        <time>2019-06-26T08:32:14Z</time>
      </trkpt>
      <trkpt lat="46.75592" lon="6.42112">
        <ele>1250</ele>
        <time>2019-06-26T08:32:56Z</time>
      </trkpt>
      <trkpt lat="46.75586" lon="6.42122">
        <ele>1249</ele>
        <time>2019-06-26T08:33:06Z</time>
      </trkpt>
      <trkpt lat="46.75585" lon="6.42129">
        <ele>1249</ele>
        <time>2019-06-26T08:33:11Z</time>
      </trkpt>
      <trkpt lat="46.75581" lon="6.42165">
        <ele>1252</ele>
        <time>2019-06-26T08:33:38Z</time>
      </trkpt>
      <trkpt lat="46.75578" lon="6.42177">
        <ele>1251</ele>
        <time>2019-06-26T08:33:48Z</time>
      </trkpt>
      <trkpt lat="46.75579" lon="6.42184">
        <ele>1251</ele>
        <time>2019-06-26T08:33:53Z</time>
      </trkpt>
      <trkpt lat="46.75577" lon="6.42191">
        <ele>1251</ele>
        <time>2019-06-26T08:33:58Z</time>
      </trkpt>
      <trkpt lat="46.75578" lon="6.42198">
        <ele>1252</ele>
        <time>2019-06-26T08:34:03Z</time>
      </trkpt>
      <trkpt lat="46.75578" lon="6.42205">
        <ele>1252</ele>
        <time>2019-06-26T08:34:08Z</time>
      </trkpt>
      <trkpt lat="46.75575" lon="6.42226">
        <ele>1255</ele>
        <time>2019-06-26T08:34:23Z</time>
      </trkpt>
      <trkpt lat="46.75573" lon="6.42233">
        <ele>1254</ele>
        <time>2019-06-26T08:34:28Z</time>
      </trkpt>
      <trkpt lat="46.75571" lon="6.42248">
        <ele>1256</ele>
        <time>2019-06-26T08:34:38Z</time>
      </trkpt>
      <trkpt lat="46.75571" lon="6.42256">
        <ele>1257</ele>
        <time>2019-06-26T08:34:43Z</time>
      </trkpt>
      <trkpt lat="46.75571" lon="6.42263">
        <ele>1256</ele>
        <time>2019-06-26T08:34:48Z</time>
      </trkpt>
      <trkpt lat="46.75571" lon="6.4227">
        <ele>1258</ele>
        <time>2019-06-26T08:34:52Z</time>
      </trkpt>
      <trkpt lat="46.75571" lon="6.42277">
        <ele>1258</ele>
        <time>2019-06-26T08:34:56Z</time>
      </trkpt>
      <trkpt lat="46.75569" lon="6.42291">
        <ele>1259</ele>
        <time>2019-06-26T08:35:04Z</time>
      </trkpt>
      <trkpt lat="46.7557" lon="6.42299">
        <ele>1259</ele>
        <time>2019-06-26T08:35:08Z</time>
      </trkpt>
      <trkpt lat="46.75572" lon="6.42307">
        <ele>1259</ele>
        <time>2019-06-26T08:35:16Z</time>
      </trkpt>
      <trkpt lat="46.75575" lon="6.42313">
        <ele>1259</ele>
        <time>2019-06-26T08:35:20Z</time>
      </trkpt>
      <trkpt lat="46.75577" lon="6.42318">
        <ele>1259</ele>
        <time>2019-06-26T08:35:25Z</time>
      </trkpt>
      <trkpt lat="46.75579" lon="6.42327">
        <ele>1260</ele>
        <time>2019-06-26T08:35:32Z</time>
      </trkpt>
      <trkpt lat="46.7558" lon="6.42343">
        <ele>1261</ele>
        <time>2019-06-26T08:35:44Z</time>
      </trkpt>
      <trkpt lat="46.75576" lon="6.42361">
        <ele>1264</ele>
        <time>2019-06-26T08:35:56Z</time>
      </trkpt>
      <trkpt lat="46.75566" lon="6.42377">
        <ele>1267</ele>
        <time>2019-06-26T08:36:11Z</time>
      </trkpt>
      <trkpt lat="46.75561" lon="6.42389">
        <ele>1267</ele>
        <time>2019-06-26T08:36:22Z</time>
      </trkpt>
      <trkpt lat="46.75558" lon="6.424">
        <ele>1268</ele>
        <time>2019-06-26T08:36:32Z</time>
      </trkpt>
      <trkpt lat="46.75555" lon="6.42406">
        <ele>1269</ele>
        <time>2019-06-26T08:36:37Z</time>
      </trkpt>
      <trkpt lat="46.75552" lon="6.42411">
        <ele>1268</ele>
        <time>2019-06-26T08:36:42Z</time>
      </trkpt>
      <trkpt lat="46.75547" lon="6.42417">
        <ele>1268</ele>
        <time>2019-06-26T08:36:47Z</time>
      </trkpt>
      <trkpt lat="46.75543" lon="6.42423">
        <ele>1270</ele>
        <time>2019-06-26T08:36:52Z</time>
      </trkpt>
      <trkpt lat="46.75536" lon="6.42432">
        <ele>1271</ele>
        <time>2019-06-26T08:37:02Z</time>
      </trkpt>
      <trkpt lat="46.75523" lon="6.42448">
        <ele>1271</ele>
        <time>2019-06-26T08:37:20Z</time>
      </trkpt>
      <trkpt lat="46.75518" lon="6.42451">
        <ele>1272</ele>
        <time>2019-06-26T08:37:25Z</time>
      </trkpt>
      <trkpt lat="46.75513" lon="6.42451">
        <ele>1273</ele>
        <time>2019-06-26T08:37:29Z</time>
      </trkpt>
      <trkpt lat="46.7551" lon="6.42446">
        <ele>1272</ele>
        <time>2019-06-26T08:37:33Z</time>
      </trkpt>
      <trkpt lat="46.75508" lon="6.42438">
        <ele>1273</ele>
        <time>2019-06-26T08:37:38Z</time>
      </trkpt>
      <trkpt lat="46.75508" lon="6.4243">
        <ele>1274</ele>
        <time>2019-06-26T08:37:45Z</time>
      </trkpt>
      <trkpt lat="46.7551" lon="6.42419">
        <ele>1274</ele>
        <time>2019-06-26T08:37:55Z</time>
      </trkpt>
      <trkpt lat="46.7551" lon="6.42406">
        <ele>1275</ele>
        <time>2019-06-26T08:38:05Z</time>
      </trkpt>
      <trkpt lat="46.75506" lon="6.42367">
        <ele>1274</ele>
        <time>2019-06-26T08:38:38Z</time>
      </trkpt>
      <trkpt lat="46.75504" lon="6.42356">
        <ele>1273</ele>
        <time>2019-06-26T08:38:46Z</time>
      </trkpt>
      <trkpt lat="46.75501" lon="6.42349">
        <ele>1273</ele>
        <time>2019-06-26T08:38:53Z</time>
      </trkpt>
      <trkpt lat="46.75496" lon="6.42359">
        <ele>1272</ele>
        <time>2019-06-26T08:39:08Z</time>
      </trkpt>
      <trkpt lat="46.75489" lon="6.42369">
        <ele>1274</ele>
        <time>2019-06-26T08:39:21Z</time>
      </trkpt>
      <trkpt lat="46.75484" lon="6.42377">
        <ele>1274</ele>
        <time>2019-06-26T08:39:31Z</time>
      </trkpt>
      <trkpt lat="46.75484" lon="6.42384">
        <ele>1273</ele>
        <time>2019-06-26T08:39:41Z</time>
      </trkpt>
      <trkpt lat="46.7548" lon="6.42394">
        <ele>1274</ele>
        <time>2019-06-26T08:39:56Z</time>
      </trkpt>
      <trkpt lat="46.75478" lon="6.42401">
        <ele>1274</ele>
        <time>2019-06-26T08:40:01Z</time>
      </trkpt>
      <trkpt lat="46.75475" lon="6.42406">
        <ele>1274</ele>
        <time>2019-06-26T08:40:06Z</time>
      </trkpt>
      <trkpt lat="46.7547" lon="6.42428">
        <ele>1276</ele>
        <time>2019-06-26T08:40:26Z</time>
      </trkpt>
      <trkpt lat="46.75463" lon="6.42433">
        <ele>1276</ele>
        <time>2019-06-26T08:40:36Z</time>
      </trkpt>
      <trkpt lat="46.75458" lon="6.42433">
        <ele>1275</ele>
        <time>2019-06-26T08:40:41Z</time>
      </trkpt>
      <trkpt lat="46.75454" lon="6.42429">
        <ele>1275</ele>
        <time>2019-06-26T08:40:46Z</time>
      </trkpt>
      <trkpt lat="46.75447" lon="6.42422">
        <ele>1274</ele>
        <time>2019-06-26T08:40:56Z</time>
      </trkpt>
      <trkpt lat="46.75442" lon="6.42417">
        <ele>1274</ele>
        <time>2019-06-26T08:41:02Z</time>
      </trkpt>
      <trkpt lat="46.75434" lon="6.42415">
        <ele>1275</ele>
        <time>2019-06-26T08:41:13Z</time>
      </trkpt>
      <trkpt lat="46.75431" lon="6.42419">
        <ele>1277</ele>
        <time>2019-06-26T08:41:43Z</time>
      </trkpt>
      <trkpt lat="46.75432" lon="6.42427">
        <ele>1277</ele>
        <time>2019-06-26T08:41:48Z</time>
      </trkpt>
      <trkpt lat="46.75434" lon="6.42433">
        <ele>1277</ele>
        <time>2019-06-26T08:41:53Z</time>
      </trkpt>
      <trkpt lat="46.75439" lon="6.4244">
        <ele>1278</ele>
        <time>2019-06-26T08:42:02Z</time>
      </trkpt>
      <trkpt lat="46.75438" lon="6.42447">
        <ele>1279</ele>
        <time>2019-06-26T08:42:14Z</time>
      </trkpt>
      <trkpt lat="46.75434" lon="6.42443">
        <ele>1282</ele>
        <time>2019-06-26T08:44:29Z</time>
      </trkpt>
      <trkpt lat="46.75425" lon="6.42448">
        <ele>1281</ele>
        <time>2019-06-26T08:45:04Z</time>
      </trkpt>
      <trkpt lat="46.75421" lon="6.42451">
        <ele>1282</ele>
        <time>2019-06-26T08:45:11Z</time>
      </trkpt>
      <trkpt lat="46.75414" lon="6.42449">
        <ele>1280</ele>
        <time>2019-06-26T08:45:21Z</time>
      </trkpt>
      <trkpt lat="46.75409" lon="6.42449">
        <ele>1279</ele>
        <time>2019-06-26T08:45:28Z</time>
      </trkpt>
      <trkpt lat="46.75404" lon="6.4245">
        <ele>1281</ele>
        <time>2019-06-26T08:45:33Z</time>
      </trkpt>
      <trkpt lat="46.75395" lon="6.42452">
        <ele>1281</ele>
        <time>2019-06-26T08:45:43Z</time>
      </trkpt>
      <trkpt lat="46.7539" lon="6.4245">
        <ele>1281</ele>
        <time>2019-06-26T08:45:53Z</time>
      </trkpt>
      <trkpt lat="46.75379" lon="6.42449">
        <ele>1282</ele>
        <time>2019-06-26T08:46:08Z</time>
      </trkpt>
      <trkpt lat="46.75347" lon="6.42446">
        <ele>1283</ele>
        <time>2019-06-26T08:46:42Z</time>
      </trkpt>
      <trkpt lat="46.75339" lon="6.42446">
        <ele>1282</ele>
        <time>2019-06-26T08:46:54Z</time>
      </trkpt>
      <trkpt lat="46.75332" lon="6.4245">
        <ele>1282</ele>
        <time>2019-06-26T08:47:02Z</time>
      </trkpt>
      <trkpt lat="46.75327" lon="6.42453">
        <ele>1282</ele>
        <time>2019-06-26T08:47:07Z</time>
      </trkpt>
      <trkpt lat="46.75322" lon="6.42457">
        <ele>1282</ele>
        <time>2019-06-26T08:47:12Z</time>
      </trkpt>
      <trkpt lat="46.75318" lon="6.4246">
        <ele>1284</ele>
        <time>2019-06-26T08:47:16Z</time>
      </trkpt>
      <trkpt lat="46.75314" lon="6.42462">
        <ele>1283</ele>
        <time>2019-06-26T08:47:21Z</time>
      </trkpt>
      <trkpt lat="46.75309" lon="6.42463">
        <ele>1283</ele>
        <time>2019-06-26T08:47:26Z</time>
      </trkpt>
      <trkpt lat="46.75303" lon="6.42466">
        <ele>1282</ele>
        <time>2019-06-26T08:47:33Z</time>
      </trkpt>
      <trkpt lat="46.75294" lon="6.42475">
        <ele>1283</ele>
        <time>2019-06-26T08:47:47Z</time>
      </trkpt>
      <trkpt lat="46.75287" lon="6.42481">
        <ele>1284</ele>
        <time>2019-06-26T08:47:57Z</time>
      </trkpt>
      <trkpt lat="46.75281" lon="6.42495">
        <ele>1285</ele>
        <time>2019-06-26T08:48:12Z</time>
      </trkpt>
      <trkpt lat="46.75278" lon="6.42508">
        <ele>1285</ele>
        <time>2019-06-26T08:48:21Z</time>
      </trkpt>
      <trkpt lat="46.75276" lon="6.42516">
        <ele>1285</ele>
        <time>2019-06-26T08:48:26Z</time>
      </trkpt>
      <trkpt lat="46.75275" lon="6.42525">
        <ele>1283</ele>
        <time>2019-06-26T08:48:33Z</time>
      </trkpt>
      <trkpt lat="46.75274" lon="6.4254">
        <ele>1283</ele>
        <time>2019-06-26T08:48:43Z</time>
      </trkpt>
      <trkpt lat="46.75275" lon="6.4255">
        <ele>1281</ele>
        <time>2019-06-26T08:48:51Z</time>
      </trkpt>
      <trkpt lat="46.75275" lon="6.42565">
        <ele>1281</ele>
        <time>2019-06-26T08:49:01Z</time>
      </trkpt>
      <trkpt lat="46.75274" lon="6.42572">
        <ele>1281</ele>
        <time>2019-06-26T08:49:06Z</time>
      </trkpt>
      <trkpt lat="46.75273" lon="6.42579">
        <ele>1282</ele>
        <time>2019-06-26T08:49:11Z</time>
      </trkpt>
      <trkpt lat="46.7527" lon="6.42594">
        <ele>1283</ele>
        <time>2019-06-26T08:49:21Z</time>
      </trkpt>
      <trkpt lat="46.75269" lon="6.42602">
        <ele>1285</ele>
        <time>2019-06-26T08:49:26Z</time>
      </trkpt>
      <trkpt lat="46.7527" lon="6.4262">
        <ele>1286</ele>
        <time>2019-06-26T08:49:39Z</time>
      </trkpt>
      <trkpt lat="46.7527" lon="6.42633">
        <ele>1287</ele>
        <time>2019-06-26T08:49:49Z</time>
      </trkpt>
      <trkpt lat="46.75271" lon="6.42642">
        <ele>1289</ele>
        <time>2019-06-26T08:49:54Z</time>
      </trkpt>
      <trkpt lat="46.75272" lon="6.42649">
        <ele>1289</ele>
        <time>2019-06-26T08:49:58Z</time>
      </trkpt>
      <trkpt lat="46.75273" lon="6.42656">
        <ele>1289</ele>
        <time>2019-06-26T08:50:05Z</time>
      </trkpt>
      <trkpt lat="46.75275" lon="6.42662">
        <ele>1292</ele>
        <time>2019-06-26T08:50:20Z</time>
      </trkpt>
      <trkpt lat="46.75276" lon="6.42673">
        <ele>1290</ele>
        <time>2019-06-26T08:50:30Z</time>
      </trkpt>
      <trkpt lat="46.7528" lon="6.42683">
        <ele>1293</ele>
        <time>2019-06-26T08:50:40Z</time>
      </trkpt>
      <trkpt lat="46.75282" lon="6.42689">
        <ele>1292</ele>
        <time>2019-06-26T08:50:45Z</time>
      </trkpt>
      <trkpt lat="46.75284" lon="6.42695">
        <ele>1293</ele>
        <time>2019-06-26T08:50:50Z</time>
      </trkpt>
      <trkpt lat="46.7529" lon="6.42708">
        <ele>1293</ele>
        <time>2019-06-26T08:51:00Z</time>
      </trkpt>
      <trkpt lat="46.75294" lon="6.42716">
        <ele>1295</ele>
        <time>2019-06-26T08:51:08Z</time>
      </trkpt>
      <trkpt lat="46.75299" lon="6.42726">
        <ele>1295</ele>
        <time>2019-06-26T08:51:16Z</time>
      </trkpt>
      <trkpt lat="46.75312" lon="6.42737">
        <ele>1298</ele>
        <time>2019-06-26T08:51:27Z</time>
      </trkpt>
      <trkpt lat="46.75318" lon="6.42747">
        <ele>1300</ele>
        <time>2019-06-26T08:51:34Z</time>
      </trkpt>
      <trkpt lat="46.75322" lon="6.4276">
        <ele>1299</ele>
        <time>2019-06-26T08:51:47Z</time>
      </trkpt>
      <trkpt lat="46.75347" lon="6.42795">
        <ele>1303</ele>
        <time>2019-06-26T08:52:22Z</time>
      </trkpt>
      <trkpt lat="46.75353" lon="6.42806">
        <ele>1305</ele>
        <time>2019-06-26T08:52:31Z</time>
      </trkpt>
      <trkpt lat="46.7536" lon="6.42819">
        <ele>1304</ele>
        <time>2019-06-26T08:52:44Z</time>
      </trkpt>
      <trkpt lat="46.75366" lon="6.42831">
        <ele>1306</ele>
        <time>2019-06-26T08:52:53Z</time>
      </trkpt>
      <trkpt lat="46.75378" lon="6.42848">
        <ele>1306</ele>
        <time>2019-06-26T08:53:09Z</time>
      </trkpt>
      <trkpt lat="46.75402" lon="6.42887">
        <ele>1310</ele>
        <time>2019-06-26T08:53:48Z</time>
      </trkpt>
      <trkpt lat="46.75403" lon="6.42905">
        <ele>1312</ele>
        <time>2019-06-26T08:54:00Z</time>
      </trkpt>
      <trkpt lat="46.75405" lon="6.42927">
        <ele>1311</ele>
        <time>2019-06-26T08:54:18Z</time>
      </trkpt>
      <trkpt lat="46.7541" lon="6.42938">
        <ele>1312</ele>
        <time>2019-06-26T08:54:24Z</time>
      </trkpt>
      <trkpt lat="46.75409" lon="6.42957">
        <ele>1313</ele>
        <time>2019-06-26T08:54:37Z</time>
      </trkpt>
      <trkpt lat="46.75411" lon="6.42992">
        <ele>1318</ele>
        <time>2019-06-26T08:55:03Z</time>
      </trkpt>
      <trkpt lat="46.75413" lon="6.43007">
        <ele>1317</ele>
        <time>2019-06-26T08:55:13Z</time>
      </trkpt>
      <trkpt lat="46.75412" lon="6.4302">
        <ele>1319</ele>
        <time>2019-06-26T08:55:22Z</time>
      </trkpt>
      <trkpt lat="46.75421" lon="6.43029">
        <ele>1320</ele>
        <time>2019-06-26T08:55:34Z</time>
      </trkpt>
      <trkpt lat="46.75444" lon="6.4304">
        <ele>1325</ele>
        <time>2019-06-26T08:55:57Z</time>
      </trkpt>
      <trkpt lat="46.75447" lon="6.43044">
        <ele>1324</ele>
        <time>2019-06-26T08:56:02Z</time>
      </trkpt>
      <trkpt lat="46.75451" lon="6.43068">
        <ele>1326</ele>
        <time>2019-06-26T08:56:20Z</time>
      </trkpt>
      <trkpt lat="46.75456" lon="6.43074">
        <ele>1327</ele>
        <time>2019-06-26T08:56:24Z</time>
      </trkpt>
      <trkpt lat="46.75456" lon="6.4308">
        <ele>1328</ele>
        <time>2019-06-26T08:56:28Z</time>
      </trkpt>
      <trkpt lat="46.75457" lon="6.43097">
        <ele>1328</ele>
        <time>2019-06-26T08:56:41Z</time>
      </trkpt>
      <trkpt lat="46.75459" lon="6.43112">
        <ele>1331</ele>
        <time>2019-06-26T08:56:52Z</time>
      </trkpt>
      <trkpt lat="46.75459" lon="6.43126">
        <ele>1332</ele>
        <time>2019-06-26T08:57:02Z</time>
      </trkpt>
      <trkpt lat="46.75462" lon="6.4314">
        <ele>1334</ele>
        <time>2019-06-26T08:57:11Z</time>
      </trkpt>
      <trkpt lat="46.75466" lon="6.43152">
        <ele>1334</ele>
        <time>2019-06-26T08:57:19Z</time>
      </trkpt>
      <trkpt lat="46.75469" lon="6.43171">
        <ele>1335</ele>
        <time>2019-06-26T08:57:36Z</time>
      </trkpt>
      <trkpt lat="46.75474" lon="6.43183">
        <ele>1336</ele>
        <time>2019-06-26T08:57:46Z</time>
      </trkpt>
      <trkpt lat="46.75479" lon="6.43194">
        <ele>1338</ele>
        <time>2019-06-26T08:57:56Z</time>
      </trkpt>
      <trkpt lat="46.75485" lon="6.43204">
        <ele>1339</ele>
        <time>2019-06-26T08:58:05Z</time>
      </trkpt>
      <trkpt lat="46.75495" lon="6.43215">
        <ele>1341</ele>
        <time>2019-06-26T08:58:21Z</time>
      </trkpt>
      <trkpt lat="46.75504" lon="6.43218">
        <ele>1343</ele>
        <time>2019-06-26T08:58:30Z</time>
      </trkpt>
      <trkpt lat="46.75516" lon="6.43216">
        <ele>1345</ele>
        <time>2019-06-26T08:58:42Z</time>
      </trkpt>
      <trkpt lat="46.7553" lon="6.43224">
        <ele>1346</ele>
        <time>2019-06-26T08:58:58Z</time>
      </trkpt>
      <trkpt lat="46.75541" lon="6.43232">
        <ele>1348</ele>
        <time>2019-06-26T08:59:10Z</time>
      </trkpt>
      <trkpt lat="46.75548" lon="6.43242">
        <ele>1348</ele>
        <time>2019-06-26T08:59:20Z</time>
      </trkpt>
      <trkpt lat="46.75558" lon="6.43262">
        <ele>1349</ele>
        <time>2019-06-26T08:59:39Z</time>
      </trkpt>
      <trkpt lat="46.75567" lon="6.43271">
        <ele>1352</ele>
        <time>2019-06-26T08:59:49Z</time>
      </trkpt>
      <trkpt lat="46.75579" lon="6.43285">
        <ele>1351</ele>
        <time>2019-06-26T09:00:07Z</time>
      </trkpt>
      <trkpt lat="46.75585" lon="6.43311">
        <ele>1353</ele>
        <time>2019-06-26T09:00:24Z</time>
      </trkpt>
      <trkpt lat="46.75585" lon="6.43325">
        <ele>1354</ele>
        <time>2019-06-26T09:00:33Z</time>
      </trkpt>
      <trkpt lat="46.75585" lon="6.43339">
        <ele>1354</ele>
        <time>2019-06-26T09:00:43Z</time>
      </trkpt>
      <trkpt lat="46.75593" lon="6.43404">
        <ele>1361</ele>
        <time>2019-06-26T09:01:28Z</time>
      </trkpt>
      <trkpt lat="46.756" lon="6.4343">
        <ele>1365</ele>
        <time>2019-06-26T09:01:47Z</time>
      </trkpt>
      <trkpt lat="46.75602" lon="6.43443">
        <ele>1367</ele>
        <time>2019-06-26T09:01:59Z</time>
      </trkpt>
      <trkpt lat="46.75603" lon="6.43449">
        <ele>1367</ele>
        <time>2019-06-26T09:04:11Z</time>
      </trkpt>
      <trkpt lat="46.75611" lon="6.43443">
        <ele>1373</ele>
        <time>2019-06-26T09:05:14Z</time>
      </trkpt>
      <trkpt lat="46.75614" lon="6.43453">
        <ele>1373</ele>
        <time>2019-06-26T09:06:46Z</time>
      </trkpt>
      <trkpt lat="46.75617" lon="6.43462">
        <ele>1372</ele>
        <time>2019-06-26T09:06:53Z</time>
      </trkpt>
      <trkpt lat="46.75617" lon="6.4347">
        <ele>1372</ele>
        <time>2019-06-26T09:06:57Z</time>
      </trkpt>
      <trkpt lat="46.75621" lon="6.43474">
        <ele>1372</ele>
        <time>2019-06-26T09:07:01Z</time>
      </trkpt>
      <trkpt lat="46.7562" lon="6.43487">
        <ele>1371</ele>
        <time>2019-06-26T09:07:14Z</time>
      </trkpt>
      <trkpt lat="46.75622" lon="6.43497">
        <ele>1373</ele>
        <time>2019-06-26T09:07:22Z</time>
      </trkpt>
      <trkpt lat="46.75622" lon="6.43512">
        <ele>1373</ele>
        <time>2019-06-26T09:07:31Z</time>
      </trkpt>
      <trkpt lat="46.75624" lon="6.43522">
        <ele>1374</ele>
        <time>2019-06-26T09:07:37Z</time>
      </trkpt>
      <trkpt lat="46.75628" lon="6.43535">
        <ele>1375</ele>
        <time>2019-06-26T09:07:46Z</time>
      </trkpt>
      <trkpt lat="46.75635" lon="6.43549">
        <ele>1374</ele>
        <time>2019-06-26T09:08:01Z</time>
      </trkpt>
      <trkpt lat="46.75646" lon="6.43563">
        <ele>1377</ele>
        <time>2019-06-26T09:08:27Z</time>
      </trkpt>
      <trkpt lat="46.75652" lon="6.43568">
        <ele>1377</ele>
        <time>2019-06-26T09:08:34Z</time>
      </trkpt>
      <trkpt lat="46.75655" lon="6.43573">
        <ele>1380</ele>
        <time>2019-06-26T09:08:45Z</time>
      </trkpt>
      <trkpt lat="46.75659" lon="6.43578">
        <ele>1387</ele>
        <time>2019-06-26T09:09:03Z</time>
      </trkpt>
      <trkpt lat="46.75664" lon="6.43578">
        <ele>1385</ele>
        <time>2019-06-26T09:09:21Z</time>
      </trkpt>
      <trkpt lat="46.75675" lon="6.43581">
        <ele>1386</ele>
        <time>2019-06-26T09:09:30Z</time>
      </trkpt>
      <trkpt lat="46.7568" lon="6.43579">
        <ele>1388</ele>
        <time>2019-06-26T09:09:34Z</time>
      </trkpt>
      <trkpt lat="46.7569" lon="6.43582">
        <ele>1386</ele>
        <time>2019-06-26T09:09:45Z</time>
      </trkpt>
      <trkpt lat="46.75695" lon="6.43583">
        <ele>1387</ele>
        <time>2019-06-26T09:09:50Z</time>
      </trkpt>
      <trkpt lat="46.757" lon="6.43585">
        <ele>1388</ele>
        <time>2019-06-26T09:09:55Z</time>
      </trkpt>
      <trkpt lat="46.75705" lon="6.43586">
        <ele>1388</ele>
        <time>2019-06-26T09:10:00Z</time>
      </trkpt>
      <trkpt lat="46.75711" lon="6.4359">
        <ele>1389</ele>
        <time>2019-06-26T09:10:07Z</time>
      </trkpt>
      <trkpt lat="46.7572" lon="6.43601">
        <ele>1390</ele>
        <time>2019-06-26T09:10:18Z</time>
      </trkpt>
      <trkpt lat="46.75724" lon="6.43605">
        <ele>1390</ele>
        <time>2019-06-26T09:10:22Z</time>
      </trkpt>
      <trkpt lat="46.75728" lon="6.4361">
        <ele>1390</ele>
        <time>2019-06-26T09:10:26Z</time>
      </trkpt>
      <trkpt lat="46.75732" lon="6.43614">
        <ele>1390</ele>
        <time>2019-06-26T09:10:30Z</time>
      </trkpt>
      <trkpt lat="46.7574" lon="6.43622">
        <ele>1392</ele>
        <time>2019-06-26T09:10:39Z</time>
      </trkpt>
      <trkpt lat="46.75743" lon="6.43627">
        <ele>1392</ele>
        <time>2019-06-26T09:10:44Z</time>
      </trkpt>
      <trkpt lat="46.7575" lon="6.43626">
        <ele>1392</ele>
        <time>2019-06-26T09:10:52Z</time>
      </trkpt>
      <trkpt lat="46.75754" lon="6.43612">
        <ele>1395</ele>
        <time>2019-06-26T09:11:04Z</time>
      </trkpt>
      <trkpt lat="46.7576" lon="6.43603">
        <ele>1397</ele>
        <time>2019-06-26T09:11:16Z</time>
      </trkpt>
      <trkpt lat="46.75765" lon="6.436">
        <ele>1397</ele>
        <time>2019-06-26T09:11:28Z</time>
      </trkpt>
      <trkpt lat="46.75769" lon="6.43598">
        <ele>1399</ele>
        <time>2019-06-26T09:11:40Z</time>
      </trkpt>
      <trkpt lat="46.75775" lon="6.43599">
        <ele>1404</ele>
        <time>2019-06-26T09:13:22Z</time>
      </trkpt>
      <trkpt lat="46.75774" lon="6.43596">
        <ele>1406</ele>
        <time>2019-06-26T09:15:07Z</time>
      </trkpt>
      <trkpt lat="46.75768" lon="6.43602">
        <ele>1407</ele>
        <time>2019-06-26T09:16:07Z</time>
      </trkpt>
      <trkpt lat="46.75768" lon="6.43611">
        <ele>1404</ele>
        <time>2019-06-26T09:16:25Z</time>
      </trkpt>
      <trkpt lat="46.75774" lon="6.43616">
        <ele>1402</ele>
        <time>2019-06-26T09:16:37Z</time>
      </trkpt>
      <trkpt lat="46.7577" lon="6.43626">
        <ele>1399</ele>
        <time>2019-06-26T09:16:50Z</time>
      </trkpt>
      <trkpt lat="46.75769" lon="6.43633">
        <ele>1399</ele>
        <time>2019-06-26T09:16:54Z</time>
      </trkpt>
      <trkpt lat="46.7577" lon="6.4364">
        <ele>1398</ele>
        <time>2019-06-26T09:16:59Z</time>
      </trkpt>
      <trkpt lat="46.75768" lon="6.43648">
        <ele>1398</ele>
        <time>2019-06-26T09:17:04Z</time>
      </trkpt>
      <trkpt lat="46.75768" lon="6.43657">
        <ele>1399</ele>
        <time>2019-06-26T09:17:09Z</time>
      </trkpt>
      <trkpt lat="46.75769" lon="6.4367">
        <ele>1398</ele>
        <time>2019-06-26T09:17:17Z</time>
      </trkpt>
      <trkpt lat="46.75768" lon="6.43678">
        <ele>1398</ele>
        <time>2019-06-26T09:17:22Z</time>
      </trkpt>
      <trkpt lat="46.75766" lon="6.43684">
        <ele>1398</ele>
        <time>2019-06-26T09:17:26Z</time>
      </trkpt>
      <trkpt lat="46.75761" lon="6.43696">
        <ele>1399</ele>
        <time>2019-06-26T09:17:35Z</time>
      </trkpt>
      <trkpt lat="46.75757" lon="6.4371">
        <ele>1398</ele>
        <time>2019-06-26T09:17:45Z</time>
      </trkpt>
      <trkpt lat="46.75756" lon="6.43718">
        <ele>1398</ele>
        <time>2019-06-26T09:17:50Z</time>
      </trkpt>
      <trkpt lat="46.75756" lon="6.43733">
        <ele>1397</ele>
        <time>2019-06-26T09:17:59Z</time>
      </trkpt>
      <trkpt lat="46.75755" lon="6.4374">
        <ele>1398</ele>
        <time>2019-06-26T09:18:04Z</time>
      </trkpt>
      <trkpt lat="46.75753" lon="6.43747">
        <ele>1398</ele>
        <time>2019-06-26T09:18:08Z</time>
      </trkpt>
      <trkpt lat="46.75749" lon="6.43761">
        <ele>1398</ele>
        <time>2019-06-26T09:18:16Z</time>
      </trkpt>
      <trkpt lat="46.75745" lon="6.43774">
        <ele>1399</ele>
        <time>2019-06-26T09:18:23Z</time>
      </trkpt>
      <trkpt lat="46.75742" lon="6.4378">
        <ele>1398</ele>
        <time>2019-06-26T09:18:27Z</time>
      </trkpt>
      <trkpt lat="46.75738" lon="6.43785">
        <ele>1397</ele>
        <time>2019-06-26T09:18:32Z</time>
      </trkpt>
      <trkpt lat="46.75735" lon="6.43789">
        <ele>1397</ele>
        <time>2019-06-26T09:18:36Z</time>
      </trkpt>
      <trkpt lat="46.7573" lon="6.43793">
        <ele>1397</ele>
        <time>2019-06-26T09:18:41Z</time>
      </trkpt>
      <trkpt lat="46.75725" lon="6.43797">
        <ele>1397</ele>
        <time>2019-06-26T09:18:46Z</time>
      </trkpt>
      <trkpt lat="46.75721" lon="6.43801">
        <ele>1397</ele>
        <time>2019-06-26T09:18:51Z</time>
      </trkpt>
      <trkpt lat="46.75716" lon="6.43809">
        <ele>1396</ele>
        <time>2019-06-26T09:18:58Z</time>
      </trkpt>
      <trkpt lat="46.75713" lon="6.43814">
        <ele>1396</ele>
        <time>2019-06-26T09:19:01Z</time>
      </trkpt>
      <trkpt lat="46.7571" lon="6.43821">
        <ele>1396</ele>
        <time>2019-06-26T09:19:05Z</time>
      </trkpt>
      <trkpt lat="46.75709" lon="6.43827">
        <ele>1396</ele>
        <time>2019-06-26T09:19:08Z</time>
      </trkpt>
      <trkpt lat="46.75708" lon="6.43834">
        <ele>1396</ele>
        <time>2019-06-26T09:19:12Z</time>
      </trkpt>
      <trkpt lat="46.75707" lon="6.43841">
        <ele>1396</ele>
        <time>2019-06-26T09:19:16Z</time>
      </trkpt>
      <trkpt lat="46.75708" lon="6.43849">
        <ele>1396</ele>
        <time>2019-06-26T09:19:20Z</time>
      </trkpt>
      <trkpt lat="46.75709" lon="6.43864">
        <ele>1396</ele>
        <time>2019-06-26T09:19:28Z</time>
      </trkpt>
      <trkpt lat="46.7571" lon="6.43894">
        <ele>1394</ele>
        <time>2019-06-26T09:19:46Z</time>
      </trkpt>
      <trkpt lat="46.75714" lon="6.43916">
        <ele>1395</ele>
        <time>2019-06-26T09:19:58Z</time>
      </trkpt>
      <trkpt lat="46.75714" lon="6.43924">
        <ele>1395</ele>
        <time>2019-06-26T09:20:02Z</time>
      </trkpt>
      <trkpt lat="46.75714" lon="6.43932">
        <ele>1395</ele>
        <time>2019-06-26T09:20:06Z</time>
      </trkpt>
      <trkpt lat="46.75713" lon="6.43939">
        <ele>1394</ele>
        <time>2019-06-26T09:20:10Z</time>
      </trkpt>
      <trkpt lat="46.757" lon="6.43977">
        <ele>1393</ele>
        <time>2019-06-26T09:20:34Z</time>
      </trkpt>
      <trkpt lat="46.75694" lon="6.43989">
        <ele>1395</ele>
        <time>2019-06-26T09:20:42Z</time>
      </trkpt>
      <trkpt lat="46.75691" lon="6.43994">
        <ele>1394</ele>
        <time>2019-06-26T09:20:46Z</time>
      </trkpt>
      <trkpt lat="46.75689" lon="6.44001">
        <ele>1393</ele>
        <time>2019-06-26T09:20:51Z</time>
      </trkpt>
      <trkpt lat="46.75688" lon="6.44016">
        <ele>1394</ele>
        <time>2019-06-26T09:21:00Z</time>
      </trkpt>
      <trkpt lat="46.75688" lon="6.44024">
        <ele>1393</ele>
        <time>2019-06-26T09:21:05Z</time>
      </trkpt>
      <trkpt lat="46.75689" lon="6.44031">
        <ele>1393</ele>
        <time>2019-06-26T09:21:09Z</time>
      </trkpt>
      <trkpt lat="46.7569" lon="6.44045">
        <ele>1391</ele>
        <time>2019-06-26T09:21:17Z</time>
      </trkpt>
      <trkpt lat="46.75691" lon="6.44052">
        <ele>1391</ele>
        <time>2019-06-26T09:21:21Z</time>
      </trkpt>
      <trkpt lat="46.75693" lon="6.44066">
        <ele>1392</ele>
        <time>2019-06-26T09:21:30Z</time>
      </trkpt>
      <trkpt lat="46.75694" lon="6.4408">
        <ele>1391</ele>
        <time>2019-06-26T09:21:39Z</time>
      </trkpt>
      <trkpt lat="46.75697" lon="6.4409">
        <ele>1391</ele>
        <time>2019-06-26T09:21:46Z</time>
      </trkpt>
      <trkpt lat="46.757" lon="6.44102">
        <ele>1390</ele>
        <time>2019-06-26T09:21:55Z</time>
      </trkpt>
      <trkpt lat="46.75701" lon="6.4411">
        <ele>1390</ele>
        <time>2019-06-26T09:21:59Z</time>
      </trkpt>
      <trkpt lat="46.75704" lon="6.44117">
        <ele>1389</ele>
        <time>2019-06-26T09:22:02Z</time>
      </trkpt>
      <trkpt lat="46.75706" lon="6.44123">
        <ele>1389</ele>
        <time>2019-06-26T09:22:07Z</time>
      </trkpt>
      <trkpt lat="46.75709" lon="6.44128">
        <ele>1389</ele>
        <time>2019-06-26T09:22:11Z</time>
      </trkpt>
      <trkpt lat="46.7571" lon="6.44135">
        <ele>1389</ele>
        <time>2019-06-26T09:22:15Z</time>
      </trkpt>
      <trkpt lat="46.75712" lon="6.44142">
        <ele>1389</ele>
        <time>2019-06-26T09:22:20Z</time>
      </trkpt>
      <trkpt lat="46.7572" lon="6.4416">
        <ele>1387</ele>
        <time>2019-06-26T09:22:33Z</time>
      </trkpt>
      <trkpt lat="46.75725" lon="6.44168">
        <ele>1391</ele>
        <time>2019-06-26T09:23:49Z</time>
      </trkpt>
      <trkpt lat="46.75729" lon="6.44173">
        <ele>1390</ele>
        <time>2019-06-26T09:23:53Z</time>
      </trkpt>
      <trkpt lat="46.75733" lon="6.44176">
        <ele>1389</ele>
        <time>2019-06-26T09:23:58Z</time>
      </trkpt>
      <trkpt lat="46.7574" lon="6.44178">
        <ele>1388</ele>
        <time>2019-06-26T09:24:05Z</time>
      </trkpt>
      <trkpt lat="46.75748" lon="6.44186">
        <ele>1387</ele>
        <time>2019-06-26T09:24:14Z</time>
      </trkpt>
      <trkpt lat="46.75757" lon="6.44196">
        <ele>1388</ele>
        <time>2019-06-26T09:24:22Z</time>
      </trkpt>
      <trkpt lat="46.75761" lon="6.44201">
        <ele>1388</ele>
        <time>2019-06-26T09:24:26Z</time>
      </trkpt>
      <trkpt lat="46.75765" lon="6.44207">
        <ele>1387</ele>
        <time>2019-06-26T09:24:30Z</time>
      </trkpt>
      <trkpt lat="46.7577" lon="6.44217">
        <ele>1386</ele>
        <time>2019-06-26T09:24:38Z</time>
      </trkpt>
      <trkpt lat="46.75772" lon="6.44224">
        <ele>1386</ele>
        <time>2019-06-26T09:24:42Z</time>
      </trkpt>
      <trkpt lat="46.75772" lon="6.44231">
        <ele>1386</ele>
        <time>2019-06-26T09:24:46Z</time>
      </trkpt>
      <trkpt lat="46.75773" lon="6.44247">
        <ele>1384</ele>
        <time>2019-06-26T09:24:55Z</time>
      </trkpt>
      <trkpt lat="46.75773" lon="6.44262">
        <ele>1384</ele>
        <time>2019-06-26T09:25:03Z</time>
      </trkpt>
      <trkpt lat="46.75773" lon="6.4427">
        <ele>1384</ele>
        <time>2019-06-26T09:25:07Z</time>
      </trkpt>
      <trkpt lat="46.75773" lon="6.44299">
        <ele>1382</ele>
        <time>2019-06-26T09:25:23Z</time>
      </trkpt>
      <trkpt lat="46.75776" lon="6.4432">
        <ele>1381</ele>
        <time>2019-06-26T09:25:35Z</time>
      </trkpt>
      <trkpt lat="46.75781" lon="6.44333">
        <ele>1379</ele>
        <time>2019-06-26T09:25:43Z</time>
      </trkpt>
      <trkpt lat="46.75785" lon="6.44338">
        <ele>1379</ele>
        <time>2019-06-26T09:25:47Z</time>
      </trkpt>
      <trkpt lat="46.75791" lon="6.4434">
        <ele>1378</ele>
        <time>2019-06-26T09:25:52Z</time>
      </trkpt>
      <trkpt lat="46.75796" lon="6.44341">
        <ele>1377</ele>
        <time>2019-06-26T09:25:57Z</time>
      </trkpt>
      <trkpt lat="46.75801" lon="6.44339">
        <ele>1376</ele>
        <time>2019-06-26T09:26:01Z</time>
      </trkpt>
      <trkpt lat="46.75806" lon="6.44337">
        <ele>1376</ele>
        <time>2019-06-26T09:26:05Z</time>
      </trkpt>
      <trkpt lat="46.7582" lon="6.44329">
        <ele>1375</ele>
        <time>2019-06-26T09:26:19Z</time>
      </trkpt>
      <trkpt lat="46.75825" lon="6.44329">
        <ele>1374</ele>
        <time>2019-06-26T09:26:24Z</time>
      </trkpt>
      <trkpt lat="46.75827" lon="6.44336">
        <ele>1374</ele>
        <time>2019-06-26T09:26:29Z</time>
      </trkpt>
      <trkpt lat="46.75835" lon="6.44372">
        <ele>1369</ele>
        <time>2019-06-26T09:26:53Z</time>
      </trkpt>
      <trkpt lat="46.75836" lon="6.44386">
        <ele>1367</ele>
        <time>2019-06-26T09:27:03Z</time>
      </trkpt>
      <trkpt lat="46.75837" lon="6.44393">
        <ele>1367</ele>
        <time>2019-06-26T09:27:07Z</time>
      </trkpt>
      <trkpt lat="46.75842" lon="6.44407">
        <ele>1365</ele>
        <time>2019-06-26T09:27:28Z</time>
      </trkpt>
      <trkpt lat="46.75846" lon="6.44434">
        <ele>1363</ele>
        <time>2019-06-26T09:27:45Z</time>
      </trkpt>
      <trkpt lat="46.75846" lon="6.44442">
        <ele>1364</ele>
        <time>2019-06-26T09:27:49Z</time>
      </trkpt>
      <trkpt lat="46.75846" lon="6.4445">
        <ele>1364</ele>
        <time>2019-06-26T09:27:54Z</time>
      </trkpt>
      <trkpt lat="46.75844" lon="6.44456">
        <ele>1364</ele>
        <time>2019-06-26T09:27:59Z</time>
      </trkpt>
      <trkpt lat="46.75841" lon="6.44462">
        <ele>1364</ele>
        <time>2019-06-26T09:28:04Z</time>
      </trkpt>
      <trkpt lat="46.75836" lon="6.44475">
        <ele>1364</ele>
        <time>2019-06-26T09:28:12Z</time>
      </trkpt>
      <trkpt lat="46.75835" lon="6.44483">
        <ele>1365</ele>
        <time>2019-06-26T09:28:16Z</time>
      </trkpt>
      <trkpt lat="46.7584" lon="6.44506">
        <ele>1361</ele>
        <time>2019-06-26T09:28:32Z</time>
      </trkpt>
      <trkpt lat="46.75843" lon="6.44511">
        <ele>1361</ele>
        <time>2019-06-26T09:28:36Z</time>
      </trkpt>
      <trkpt lat="46.75856" lon="6.44528">
        <ele>1360</ele>
        <time>2019-06-26T09:28:48Z</time>
      </trkpt>
      <trkpt lat="46.75859" lon="6.44533">
        <ele>1361</ele>
        <time>2019-06-26T09:28:51Z</time>
      </trkpt>
      <trkpt lat="46.7587" lon="6.44548">
        <ele>1360</ele>
        <time>2019-06-26T09:29:02Z</time>
      </trkpt>
      <trkpt lat="46.75885" lon="6.44567">
        <ele>1357</ele>
        <time>2019-06-26T09:29:20Z</time>
      </trkpt>
      <trkpt lat="46.75892" lon="6.4458">
        <ele>1357</ele>
        <time>2019-06-26T09:29:29Z</time>
      </trkpt>
      <trkpt lat="46.75899" lon="6.44588">
        <ele>1356</ele>
        <time>2019-06-26T09:29:36Z</time>
      </trkpt>
      <trkpt lat="46.75903" lon="6.44598">
        <ele>1359</ele>
        <time>2019-06-26T09:30:01Z</time>
      </trkpt>
      <trkpt lat="46.75903" lon="6.44605">
        <ele>1356</ele>
        <time>2019-06-26T09:30:05Z</time>
      </trkpt>
      <trkpt lat="46.75909" lon="6.4461">
        <ele>1355</ele>
        <time>2019-06-26T09:30:12Z</time>
      </trkpt>
      <trkpt lat="46.75917" lon="6.44619">
        <ele>1357</ele>
        <time>2019-06-26T09:30:44Z</time>
      </trkpt>
      <trkpt lat="46.75927" lon="6.44624">
        <ele>1354</ele>
        <time>2019-06-26T09:30:50Z</time>
      </trkpt>
      <trkpt lat="46.75931" lon="6.44627">
        <ele>1354</ele>
        <time>2019-06-26T09:30:53Z</time>
      </trkpt>
      <trkpt lat="46.75937" lon="6.44628">
        <ele>1352</ele>
        <time>2019-06-26T09:31:01Z</time>
      </trkpt>
      <trkpt lat="46.75943" lon="6.44627">
        <ele>1352</ele>
        <time>2019-06-26T09:31:08Z</time>
      </trkpt>
      <trkpt lat="46.75948" lon="6.44628">
        <ele>1352</ele>
        <time>2019-06-26T09:31:13Z</time>
      </trkpt>
      <trkpt lat="46.75952" lon="6.44634">
        <ele>1351</ele>
        <time>2019-06-26T09:31:21Z</time>
      </trkpt>
      <trkpt lat="46.75956" lon="6.44644">
        <ele>1349</ele>
        <time>2019-06-26T09:31:32Z</time>
      </trkpt>
      <trkpt lat="46.75959" lon="6.4465">
        <ele>1349</ele>
        <time>2019-06-26T09:31:36Z</time>
      </trkpt>
      <trkpt lat="46.75962" lon="6.44655">
        <ele>1348</ele>
        <time>2019-06-26T09:31:40Z</time>
      </trkpt>
      <trkpt lat="46.75966" lon="6.44663">
        <ele>1349</ele>
        <time>2019-06-26T09:31:46Z</time>
      </trkpt>
      <trkpt lat="46.75965" lon="6.4467">
        <ele>1348</ele>
        <time>2019-06-26T09:31:54Z</time>
      </trkpt>
      <trkpt lat="46.75961" lon="6.44674">
        <ele>1347</ele>
        <time>2019-06-26T09:32:00Z</time>
      </trkpt>
      <trkpt lat="46.75955" lon="6.44674">
        <ele>1345</ele>
        <time>2019-06-26T09:32:09Z</time>
      </trkpt>
      <trkpt lat="46.75951" lon="6.44671">
        <ele>1344</ele>
        <time>2019-06-26T09:32:14Z</time>
      </trkpt>
      <trkpt lat="46.75944" lon="6.44671">
        <ele>1344</ele>
        <time>2019-06-26T09:32:27Z</time>
      </trkpt>
      <trkpt lat="46.75941" lon="6.44677">
        <ele>1344</ele>
        <time>2019-06-26T09:32:33Z</time>
      </trkpt>
      <trkpt lat="46.75932" lon="6.44686">
        <ele>1341</ele>
        <time>2019-06-26T09:32:43Z</time>
      </trkpt>
      <trkpt lat="46.75928" lon="6.44691">
        <ele>1341</ele>
        <time>2019-06-26T09:32:48Z</time>
      </trkpt>
      <trkpt lat="46.75924" lon="6.44696">
        <ele>1340</ele>
        <time>2019-06-26T09:32:53Z</time>
      </trkpt>
      <trkpt lat="46.75919" lon="6.4471">
        <ele>1338</ele>
        <time>2019-06-26T09:33:02Z</time>
      </trkpt>
      <trkpt lat="46.75921" lon="6.44716">
        <ele>1333</ele>
        <time>2019-06-26T09:33:07Z</time>
      </trkpt>
      <trkpt lat="46.7592" lon="6.44724">
        <ele>1330</ele>
        <time>2019-06-26T09:33:15Z</time>
      </trkpt>
      <trkpt lat="46.75911" lon="6.44739">
        <ele>1324</ele>
        <time>2019-06-26T09:33:45Z</time>
      </trkpt>
      <trkpt lat="46.75909" lon="6.44747">
        <ele>1323</ele>
        <time>2019-06-26T09:33:50Z</time>
      </trkpt>
      <trkpt lat="46.759" lon="6.44782">
        <ele>1319</ele>
        <time>2019-06-26T09:34:12Z</time>
      </trkpt>
      <trkpt lat="46.75899" lon="6.44788">
        <ele>1319</ele>
        <time>2019-06-26T09:34:16Z</time>
      </trkpt>
      <trkpt lat="46.75899" lon="6.44796">
        <ele>1319</ele>
        <time>2019-06-26T09:34:21Z</time>
      </trkpt>
      <trkpt lat="46.75902" lon="6.44801">
        <ele>1318</ele>
        <time>2019-06-26T09:34:26Z</time>
      </trkpt>
      <trkpt lat="46.75907" lon="6.44803">
        <ele>1317</ele>
        <time>2019-06-26T09:34:34Z</time>
      </trkpt>
      <trkpt lat="46.75916" lon="6.44816">
        <ele>1318</ele>
        <time>2019-06-26T09:34:48Z</time>
      </trkpt>
      <trkpt lat="46.75919" lon="6.44825">
        <ele>1318</ele>
        <time>2019-06-26T09:34:57Z</time>
      </trkpt>
      <trkpt lat="46.75923" lon="6.4483">
        <ele>1318</ele>
        <time>2019-06-26T09:35:02Z</time>
      </trkpt>
      <trkpt lat="46.75928" lon="6.44831">
        <ele>1319</ele>
        <time>2019-06-26T09:35:06Z</time>
      </trkpt>
      <trkpt lat="46.75933" lon="6.44831">
        <ele>1318</ele>
        <time>2019-06-26T09:35:10Z</time>
      </trkpt>
      <trkpt lat="46.75937" lon="6.44832">
        <ele>1319</ele>
        <time>2019-06-26T09:35:14Z</time>
      </trkpt>
      <trkpt lat="46.75947" lon="6.44837">
        <ele>1319</ele>
        <time>2019-06-26T09:35:22Z</time>
      </trkpt>
      <trkpt lat="46.75952" lon="6.44837">
        <ele>1319</ele>
        <time>2019-06-26T09:35:27Z</time>
      </trkpt>
      <trkpt lat="46.75959" lon="6.4484">
        <ele>1320</ele>
        <time>2019-06-26T09:35:34Z</time>
      </trkpt>
      <trkpt lat="46.75986" lon="6.44851">
        <ele>1319</ele>
        <time>2019-06-26T09:36:06Z</time>
      </trkpt>
      <trkpt lat="46.76005" lon="6.44857">
        <ele>1319</ele>
        <time>2019-06-26T09:36:24Z</time>
      </trkpt>
      <trkpt lat="46.76014" lon="6.44859">
        <ele>1321</ele>
        <time>2019-06-26T09:36:33Z</time>
      </trkpt>
      <trkpt lat="46.76033" lon="6.44865">
        <ele>1322</ele>
        <time>2019-06-26T09:36:50Z</time>
      </trkpt>
      <trkpt lat="46.76042" lon="6.44872">
        <ele>1322</ele>
        <time>2019-06-26T09:36:59Z</time>
      </trkpt>
      <trkpt lat="46.76056" lon="6.44886">
        <ele>1325</ele>
        <time>2019-06-26T09:37:19Z</time>
      </trkpt>
      <trkpt lat="46.76063" lon="6.44896">
        <ele>1325</ele>
        <time>2019-06-26T09:37:27Z</time>
      </trkpt>
      <trkpt lat="46.76075" lon="6.44907">
        <ele>1327</ele>
        <time>2019-06-26T09:37:41Z</time>
      </trkpt>
      <trkpt lat="46.76089" lon="6.44928">
        <ele>1328</ele>
        <time>2019-06-26T09:38:01Z</time>
      </trkpt>
      <trkpt lat="46.76108" lon="6.44958">
        <ele>1331</ele>
        <time>2019-06-26T09:38:24Z</time>
      </trkpt>
      <trkpt lat="46.76113" lon="6.44972">
        <ele>1331</ele>
        <time>2019-06-26T09:38:33Z</time>
      </trkpt>
      <trkpt lat="46.76116" lon="6.44985">
        <ele>1331</ele>
        <time>2019-06-26T09:38:40Z</time>
      </trkpt>
      <trkpt lat="46.76122" lon="6.44996">
        <ele>1332</ele>
        <time>2019-06-26T09:38:47Z</time>
      </trkpt>
      <trkpt lat="46.76125" lon="6.45009">
        <ele>1332</ele>
        <time>2019-06-26T09:38:54Z</time>
      </trkpt>
      <trkpt lat="46.7613" lon="6.45021">
        <ele>1331</ele>
        <time>2019-06-26T09:39:03Z</time>
      </trkpt>
      <trkpt lat="46.76143" lon="6.45076">
        <ele>1335</ele>
        <time>2019-06-26T09:39:36Z</time>
      </trkpt>
      <trkpt lat="46.76145" lon="6.45092">
        <ele>1336</ele>
        <time>2019-06-26T09:39:46Z</time>
      </trkpt>
      <trkpt lat="46.76142" lon="6.45121">
        <ele>1333</ele>
        <time>2019-06-26T09:40:19Z</time>
      </trkpt>
      <trkpt lat="46.76141" lon="6.45135">
        <ele>1334</ele>
        <time>2019-06-26T09:40:29Z</time>
      </trkpt>
      <trkpt lat="46.76142" lon="6.45148">
        <ele>1336</ele>
        <time>2019-06-26T09:40:36Z</time>
      </trkpt>
      <trkpt lat="46.76139" lon="6.45162">
        <ele>1334</ele>
        <time>2019-06-26T09:40:44Z</time>
      </trkpt>
      <trkpt lat="46.76135" lon="6.45175">
        <ele>1334</ele>
        <time>2019-06-26T09:40:52Z</time>
      </trkpt>
      <trkpt lat="46.76137" lon="6.45203">
        <ele>1334</ele>
        <time>2019-06-26T09:41:09Z</time>
      </trkpt>
      <trkpt lat="46.76136" lon="6.4523">
        <ele>1333</ele>
        <time>2019-06-26T09:41:27Z</time>
      </trkpt>
      <trkpt lat="46.76136" lon="6.45238">
        <ele>1334</ele>
        <time>2019-06-26T09:41:32Z</time>
      </trkpt>
      <trkpt lat="46.76139" lon="6.45262">
        <ele>1333</ele>
        <time>2019-06-26T09:41:46Z</time>
      </trkpt>
      <trkpt lat="46.76142" lon="6.45278">
        <ele>1334</ele>
        <time>2019-06-26T09:41:58Z</time>
      </trkpt>
      <trkpt lat="46.76141" lon="6.45285">
        <ele>1335</ele>
        <time>2019-06-26T09:42:02Z</time>
      </trkpt>
      <trkpt lat="46.7614" lon="6.45292">
        <ele>1335</ele>
        <time>2019-06-26T09:42:06Z</time>
      </trkpt>
      <trkpt lat="46.7614" lon="6.453">
        <ele>1337</ele>
        <time>2019-06-26T09:42:28Z</time>
      </trkpt>
      <trkpt lat="46.7614" lon="6.45307">
        <ele>1338</ele>
        <time>2019-06-26T09:42:33Z</time>
      </trkpt>
      <trkpt lat="46.76141" lon="6.45323">
        <ele>1337</ele>
        <time>2019-06-26T09:42:43Z</time>
      </trkpt>
      <trkpt lat="46.76144" lon="6.4533">
        <ele>1336</ele>
        <time>2019-06-26T09:42:48Z</time>
      </trkpt>
      <trkpt lat="46.76148" lon="6.45334">
        <ele>1337</ele>
        <time>2019-06-26T09:42:52Z</time>
      </trkpt>
      <trkpt lat="46.76152" lon="6.45335">
        <ele>1338</ele>
        <time>2019-06-26T09:42:57Z</time>
      </trkpt>
      <trkpt lat="46.76158" lon="6.45336">
        <ele>1338</ele>
        <time>2019-06-26T09:43:09Z</time>
      </trkpt>
      <trkpt lat="46.76165" lon="6.45337">
        <ele>1340</ele>
        <time>2019-06-26T09:43:20Z</time>
      </trkpt>
      <trkpt lat="46.76171" lon="6.4535">
        <ele>1340</ele>
        <time>2019-06-26T09:43:32Z</time>
      </trkpt>
      <trkpt lat="46.76183" lon="6.45364">
        <ele>1341</ele>
        <time>2019-06-26T09:43:56Z</time>
      </trkpt>
      <trkpt lat="46.76191" lon="6.45369">
        <ele>1341</ele>
        <time>2019-06-26T09:44:11Z</time>
      </trkpt>
      <trkpt lat="46.76207" lon="6.45376">
        <ele>1343</ele>
        <time>2019-06-26T09:44:27Z</time>
      </trkpt>
      <trkpt lat="46.76215" lon="6.45383">
        <ele>1344</ele>
        <time>2019-06-26T09:44:41Z</time>
      </trkpt>
      <trkpt lat="46.76224" lon="6.45389">
        <ele>1345</ele>
        <time>2019-06-26T09:44:57Z</time>
      </trkpt>
      <trkpt lat="46.76241" lon="6.45396">
        <ele>1348</ele>
        <time>2019-06-26T09:45:20Z</time>
      </trkpt>
      <trkpt lat="46.76251" lon="6.45403">
        <ele>1350</ele>
        <time>2019-06-26T09:45:34Z</time>
      </trkpt>
      <trkpt lat="46.76265" lon="6.45409">
        <ele>1354</ele>
        <time>2019-06-26T09:45:50Z</time>
      </trkpt>
      <trkpt lat="46.76272" lon="6.45419">
        <ele>1356</ele>
        <time>2019-06-26T09:46:04Z</time>
      </trkpt>
      <trkpt lat="46.76301" lon="6.45432">
        <ele>1360</ele>
        <time>2019-06-26T09:46:42Z</time>
      </trkpt>
      <trkpt lat="46.76312" lon="6.45443">
        <ele>1366</ele>
        <time>2019-06-26T09:47:09Z</time>
      </trkpt>
      <trkpt lat="46.76325" lon="6.45449">
        <ele>1372</ele>
        <time>2019-06-26T09:47:31Z</time>
      </trkpt>
      <trkpt lat="46.76344" lon="6.45463">
        <ele>1376</ele>
        <time>2019-06-26T09:47:57Z</time>
      </trkpt>
      <trkpt lat="46.76354" lon="6.45462">
        <ele>1380</ele>
        <time>2019-06-26T09:48:35Z</time>
      </trkpt>
      <trkpt lat="46.76369" lon="6.45477">
        <ele>1384</ele>
        <time>2019-06-26T09:49:17Z</time>
      </trkpt>
      <trkpt lat="46.7638" lon="6.45484">
        <ele>1383</ele>
        <time>2019-06-26T09:49:42Z</time>
      </trkpt>
      <trkpt lat="46.76386" lon="6.45495">
        <ele>1383</ele>
        <time>2019-06-26T09:50:00Z</time>
      </trkpt>
      <trkpt lat="46.76387" lon="6.45511">
        <ele>1388</ele>
        <time>2019-06-26T09:50:18Z</time>
      </trkpt>
      <trkpt lat="46.76394" lon="6.45523">
        <ele>1394</ele>
        <time>2019-06-26T09:50:41Z</time>
      </trkpt>
      <trkpt lat="46.76401" lon="6.45529">
        <ele>1399</ele>
        <time>2019-06-26T09:50:59Z</time>
      </trkpt>
      <trkpt lat="46.76408" lon="6.45542">
        <ele>1402</ele>
        <time>2019-06-26T09:51:22Z</time>
      </trkpt>
      <trkpt lat="46.76412" lon="6.45555">
        <ele>1405</ele>
        <time>2019-06-26T09:51:40Z</time>
      </trkpt>
      <trkpt lat="46.76416" lon="6.45558">
        <ele>1406</ele>
        <time>2019-06-26T09:55:36Z</time>
      </trkpt>
      <trkpt lat="46.76419" lon="6.45564">
        <ele>1401</ele>
        <time>2019-06-26T09:56:02Z</time>
      </trkpt>
      <trkpt lat="46.76416" lon="6.45571">
        <ele>1402</ele>
        <time>2019-06-26T09:56:14Z</time>
      </trkpt>
      <trkpt lat="46.76418" lon="6.45579">
        <ele>1407</ele>
        <time>2019-06-26T09:56:31Z</time>
      </trkpt>
      <trkpt lat="46.76422" lon="6.45586">
        <ele>1409</ele>
        <time>2019-06-26T09:56:45Z</time>
      </trkpt>
      <trkpt lat="46.76424" lon="6.45594">
        <ele>1409</ele>
        <time>2019-06-26T09:56:57Z</time>
      </trkpt>
      <trkpt lat="46.76429" lon="6.45597">
        <ele>1409</ele>
        <time>2019-06-26T09:57:04Z</time>
      </trkpt>
      <trkpt lat="46.76436" lon="6.45597">
        <ele>1408</ele>
        <time>2019-06-26T09:57:10Z</time>
      </trkpt>
      <trkpt lat="46.76444" lon="6.456">
        <ele>1407</ele>
        <time>2019-06-26T09:57:23Z</time>
      </trkpt>
      <trkpt lat="46.7645" lon="6.45606">
        <ele>1408</ele>
        <time>2019-06-26T09:57:35Z</time>
      </trkpt>
      <trkpt lat="46.76451" lon="6.45614">
        <ele>1411</ele>
        <time>2019-06-26T09:57:47Z</time>
      </trkpt>
      <trkpt lat="46.76454" lon="6.45621">
        <ele>1412</ele>
        <time>2019-06-26T09:57:59Z</time>
      </trkpt>
      <trkpt lat="46.76466" lon="6.45636">
        <ele>1416</ele>
        <time>2019-06-26T09:58:29Z</time>
      </trkpt>
      <trkpt lat="46.76473" lon="6.45646">
        <ele>1417</ele>
        <time>2019-06-26T09:58:47Z</time>
      </trkpt>
      <trkpt lat="46.76477" lon="6.45653">
        <ele>1420</ele>
        <time>2019-06-26T09:59:05Z</time>
      </trkpt>
      <trkpt lat="46.7648" lon="6.45658">
        <ele>1421</ele>
        <time>2019-06-26T09:59:17Z</time>
      </trkpt>
      <trkpt lat="46.76485" lon="6.45663">
        <ele>1422</ele>
        <time>2019-06-26T09:59:29Z</time>
      </trkpt>
      <trkpt lat="46.76486" lon="6.4567">
        <ele>1425</ele>
        <time>2019-06-26T09:59:41Z</time>
      </trkpt>
      <trkpt lat="46.76491" lon="6.45676">
        <ele>1429</ele>
        <time>2019-06-26T09:59:59Z</time>
      </trkpt>
      <trkpt lat="46.76497" lon="6.45681">
        <ele>1427</ele>
        <time>2019-06-26T10:00:11Z</time>
      </trkpt>
      <trkpt lat="46.76499" lon="6.45688">
        <ele>1429</ele>
        <time>2019-06-26T10:00:23Z</time>
      </trkpt>
      <trkpt lat="46.76489" lon="6.457">
        <ele>1442</ele>
        <time>2019-06-26T10:02:35Z</time>
      </trkpt>
      <trkpt lat="46.76476" lon="6.45715">
        <ele>1449</ele>
        <time>2019-06-26T10:02:59Z</time>
      </trkpt>
      <trkpt lat="46.76472" lon="6.45723">
        <ele>1450</ele>
        <time>2019-06-26T10:03:10Z</time>
      </trkpt>
      <trkpt lat="46.76471" lon="6.45731">
        <ele>1451</ele>
        <time>2019-06-26T10:03:22Z</time>
      </trkpt>
      <trkpt lat="46.76469" lon="6.45738">
        <ele>1452</ele>
        <time>2019-06-26T10:03:33Z</time>
      </trkpt>
      <trkpt lat="46.76471" lon="6.45755">
        <ele>1455</ele>
        <time>2019-06-26T10:03:57Z</time>
      </trkpt>
      <trkpt lat="46.76473" lon="6.45761">
        <ele>1457</ele>
        <time>2019-06-26T10:04:09Z</time>
      </trkpt>
      <trkpt lat="46.76475" lon="6.45769">
        <ele>1457</ele>
        <time>2019-06-26T10:04:21Z</time>
      </trkpt>
      <trkpt lat="46.76476" lon="6.45775">
        <ele>1458</ele>
        <time>2019-06-26T10:04:33Z</time>
      </trkpt>
      <trkpt lat="46.76478" lon="6.45783">
        <ele>1460</ele>
        <time>2019-06-26T10:04:45Z</time>
      </trkpt>
      <trkpt lat="46.76479" lon="6.45801">
        <ele>1464</ele>
        <time>2019-06-26T10:05:09Z</time>
      </trkpt>
      <trkpt lat="46.76478" lon="6.458">
        <ele>1469</ele>
        <time>2019-06-26T10:07:50Z</time>
      </trkpt>
      <trkpt lat="46.76474" lon="6.45812">
        <ele>1476</ele>
        <time>2019-06-26T10:09:14Z</time>
      </trkpt>
      <trkpt lat="46.76476" lon="6.45819">
        <ele>1477</ele>
        <time>2019-06-26T10:09:19Z</time>
      </trkpt>
      <trkpt lat="46.76476" lon="6.45827">
        <ele>1477</ele>
        <time>2019-06-26T10:09:27Z</time>
      </trkpt>
      <trkpt lat="46.7648" lon="6.45838">
        <ele>1478</ele>
        <time>2019-06-26T10:09:39Z</time>
      </trkpt>
      <trkpt lat="46.76484" lon="6.45842">
        <ele>1479</ele>
        <time>2019-06-26T10:09:44Z</time>
      </trkpt>
      <trkpt lat="46.76488" lon="6.45846">
        <ele>1480</ele>
        <time>2019-06-26T10:09:49Z</time>
      </trkpt>
      <trkpt lat="46.76492" lon="6.45852">
        <ele>1481</ele>
        <time>2019-06-26T10:09:56Z</time>
      </trkpt>
      <trkpt lat="46.76496" lon="6.45861">
        <ele>1482</ele>
        <time>2019-06-26T10:10:05Z</time>
      </trkpt>
      <trkpt lat="46.7651" lon="6.45875">
        <ele>1483</ele>
        <time>2019-06-26T10:10:29Z</time>
      </trkpt>
      <trkpt lat="46.76516" lon="6.45883">
        <ele>1485</ele>
        <time>2019-06-26T10:10:41Z</time>
      </trkpt>
      <trkpt lat="46.76519" lon="6.4589">
        <ele>1486</ele>
        <time>2019-06-26T10:10:53Z</time>
      </trkpt>
      <trkpt lat="46.76521" lon="6.45902">
        <ele>1487</ele>
        <time>2019-06-26T10:11:05Z</time>
      </trkpt>
      <trkpt lat="46.76523" lon="6.45913">
        <ele>1487</ele>
        <time>2019-06-26T10:11:17Z</time>
      </trkpt>
      <trkpt lat="46.76525" lon="6.45923">
        <ele>1488</ele>
        <time>2019-06-26T10:11:29Z</time>
      </trkpt>
      <trkpt lat="46.76529" lon="6.4593">
        <ele>1489</ele>
        <time>2019-06-26T10:11:41Z</time>
      </trkpt>
      <trkpt lat="46.7653" lon="6.4594">
        <ele>1491</ele>
        <time>2019-06-26T10:11:53Z</time>
      </trkpt>
      <trkpt lat="46.76535" lon="6.45946">
        <ele>1494</ele>
        <time>2019-06-26T10:12:05Z</time>
      </trkpt>
      <trkpt lat="46.7654" lon="6.45957">
        <ele>1494</ele>
        <time>2019-06-26T10:12:17Z</time>
      </trkpt>
      <trkpt lat="46.76544" lon="6.45962">
        <ele>1495</ele>
        <time>2019-06-26T10:12:29Z</time>
      </trkpt>
      <trkpt lat="46.76546" lon="6.45969">
        <ele>1496</ele>
        <time>2019-06-26T10:12:35Z</time>
      </trkpt>
      <trkpt lat="46.76546" lon="6.4598">
        <ele>1497</ele>
        <time>2019-06-26T10:12:44Z</time>
      </trkpt>
      <trkpt lat="46.76549" lon="6.45986">
        <ele>1498</ele>
        <time>2019-06-26T10:12:50Z</time>
      </trkpt>
      <trkpt lat="46.76552" lon="6.46005">
        <ele>1501</ele>
        <time>2019-06-26T10:13:15Z</time>
      </trkpt>
      <trkpt lat="46.76552" lon="6.46011">
        <ele>1501</ele>
        <time>2019-06-26T10:13:21Z</time>
      </trkpt>
      <trkpt lat="46.76552" lon="6.46019">
        <ele>1501</ele>
        <time>2019-06-26T10:13:39Z</time>
      </trkpt>
      <trkpt lat="46.76557" lon="6.46025">
        <ele>1498</ele>
        <time>2019-06-26T10:13:51Z</time>
      </trkpt>
      <trkpt lat="46.76561" lon="6.46043">
        <ele>1499</ele>
        <time>2019-06-26T10:14:08Z</time>
      </trkpt>
      <trkpt lat="46.76566" lon="6.46049">
        <ele>1499</ele>
        <time>2019-06-26T10:14:23Z</time>
      </trkpt>
      <trkpt lat="46.76588" lon="6.46071">
        <ele>1506</ele>
        <time>2019-06-26T10:15:04Z</time>
      </trkpt>
      <trkpt lat="46.76607" lon="6.46087">
        <ele>1511</ele>
        <time>2019-06-26T10:15:46Z</time>
      </trkpt>
      <trkpt lat="46.76614" lon="6.46093">
        <ele>1513</ele>
        <time>2019-06-26T10:15:58Z</time>
      </trkpt>
      <trkpt lat="46.7662" lon="6.46093">
        <ele>1513</ele>
        <time>2019-06-26T10:16:10Z</time>
      </trkpt>
      <trkpt lat="46.76626" lon="6.46098">
        <ele>1514</ele>
        <time>2019-06-26T10:16:22Z</time>
      </trkpt>
      <trkpt lat="46.76631" lon="6.46095">
        <ele>1514</ele>
        <time>2019-06-26T10:16:34Z</time>
      </trkpt>
      <trkpt lat="46.76637" lon="6.46103">
        <ele>1515</ele>
        <time>2019-06-26T10:16:46Z</time>
      </trkpt>
      <trkpt lat="46.76642" lon="6.46103">
        <ele>1517</ele>
        <time>2019-06-26T10:16:58Z</time>
      </trkpt>
      <trkpt lat="46.76648" lon="6.46101">
        <ele>1520</ele>
        <time>2019-06-26T10:17:22Z</time>
      </trkpt>
      <trkpt lat="46.76651" lon="6.46092">
        <ele>1522</ele>
        <time>2019-06-26T10:17:34Z</time>
      </trkpt>
      <trkpt lat="46.76657" lon="6.46091">
        <ele>1525</ele>
        <time>2019-06-26T10:18:04Z</time>
      </trkpt>
      <trkpt lat="46.76662" lon="6.46093">
        <ele>1524</ele>
        <time>2019-06-26T10:18:16Z</time>
      </trkpt>
      <trkpt lat="46.76666" lon="6.46089">
        <ele>1525</ele>
        <time>2019-06-26T10:18:28Z</time>
      </trkpt>
      <trkpt lat="46.76673" lon="6.4609">
        <ele>1527</ele>
        <time>2019-06-26T10:18:40Z</time>
      </trkpt>
      <trkpt lat="46.76677" lon="6.46089">
        <ele>1529</ele>
        <time>2019-06-26T10:19:04Z</time>
      </trkpt>
      <trkpt lat="46.76682" lon="6.46095">
        <ele>1530</ele>
        <time>2019-06-26T10:19:16Z</time>
      </trkpt>
      <trkpt lat="46.76689" lon="6.46097">
        <ele>1531</ele>
        <time>2019-06-26T10:19:28Z</time>
      </trkpt>
      <trkpt lat="46.76696" lon="6.46097">
        <ele>1533</ele>
        <time>2019-06-26T10:20:10Z</time>
      </trkpt>
      <trkpt lat="46.76701" lon="6.46105">
        <ele>1536</ele>
        <time>2019-06-26T10:20:22Z</time>
      </trkpt>
      <trkpt lat="46.76707" lon="6.46103">
        <ele>1538</ele>
        <time>2019-06-26T10:20:34Z</time>
      </trkpt>
      <trkpt lat="46.76709" lon="6.46092">
        <ele>1539</ele>
        <time>2019-06-26T10:20:46Z</time>
      </trkpt>
      <trkpt lat="46.7671" lon="6.46083">
        <ele>1540</ele>
        <time>2019-06-26T10:20:58Z</time>
      </trkpt>
      <trkpt lat="46.76711" lon="6.46074">
        <ele>1542</ele>
        <time>2019-06-26T10:21:10Z</time>
      </trkpt>
      <trkpt lat="46.76716" lon="6.46068">
        <ele>1542</ele>
        <time>2019-06-26T10:21:22Z</time>
      </trkpt>
      <trkpt lat="46.76724" lon="6.46069">
        <ele>1544</ele>
        <time>2019-06-26T10:21:34Z</time>
      </trkpt>
      <trkpt lat="46.76733" lon="6.46082">
        <ele>1551</ele>
        <time>2019-06-26T10:22:15Z</time>
      </trkpt>
      <trkpt lat="46.76738" lon="6.46091">
        <ele>1553</ele>
        <time>2019-06-26T10:22:27Z</time>
      </trkpt>
      <trkpt lat="46.76744" lon="6.46096">
        <ele>1553</ele>
        <time>2019-06-26T10:22:39Z</time>
      </trkpt>
      <trkpt lat="46.76749" lon="6.461">
        <ele>1553</ele>
        <time>2019-06-26T10:22:50Z</time>
      </trkpt>
      <trkpt lat="46.76753" lon="6.46108">
        <ele>1554</ele>
        <time>2019-06-26T10:23:02Z</time>
      </trkpt>
      <trkpt lat="46.7676" lon="6.46114">
        <ele>1554</ele>
        <time>2019-06-26T10:23:32Z</time>
      </trkpt>
      <trkpt lat="46.76766" lon="6.46123">
        <ele>1559</ele>
        <time>2019-06-26T10:23:44Z</time>
      </trkpt>
      <trkpt lat="46.76769" lon="6.46117">
        <ele>1558</ele>
        <time>2019-06-26T10:24:08Z</time>
      </trkpt>
      <trkpt lat="46.76774" lon="6.46115">
        <ele>1557</ele>
        <time>2019-06-26T10:26:38Z</time>
      </trkpt>
      <trkpt lat="46.7677" lon="6.46118">
        <ele>1554</ele>
        <time>2019-06-26T10:30:24Z</time>
      </trkpt>
      <trkpt lat="46.76774" lon="6.4613">
        <ele>1558</ele>
        <time>2019-06-26T10:32:31Z</time>
      </trkpt>
      <trkpt lat="46.76782" lon="6.46132">
        <ele>1556</ele>
        <time>2019-06-26T10:32:42Z</time>
      </trkpt>
      <trkpt lat="46.76784" lon="6.46139">
        <ele>1555</ele>
        <time>2019-06-26T10:32:49Z</time>
      </trkpt>
      <trkpt lat="46.76788" lon="6.46146">
        <ele>1555</ele>
        <time>2019-06-26T10:32:55Z</time>
      </trkpt>
      <trkpt lat="46.7679" lon="6.46151">
        <ele>1557</ele>
        <time>2019-06-26T10:32:59Z</time>
      </trkpt>
      <trkpt lat="46.76794" lon="6.46157">
        <ele>1556</ele>
        <time>2019-06-26T10:33:04Z</time>
      </trkpt>
      <trkpt lat="46.76798" lon="6.46165">
        <ele>1556</ele>
        <time>2019-06-26T10:33:11Z</time>
      </trkpt>
      <trkpt lat="46.76801" lon="6.4617">
        <ele>1556</ele>
        <time>2019-06-26T10:33:15Z</time>
      </trkpt>
      <trkpt lat="46.76809" lon="6.46181">
        <ele>1556</ele>
        <time>2019-06-26T10:33:25Z</time>
      </trkpt>
      <trkpt lat="46.76814" lon="6.46186">
        <ele>1555</ele>
        <time>2019-06-26T10:33:30Z</time>
      </trkpt>
      <trkpt lat="46.76818" lon="6.46189">
        <ele>1556</ele>
        <time>2019-06-26T10:33:35Z</time>
      </trkpt>
      <trkpt lat="46.76827" lon="6.46195">
        <ele>1556</ele>
        <time>2019-06-26T10:33:45Z</time>
      </trkpt>
      <trkpt lat="46.76831" lon="6.46195">
        <ele>1556</ele>
        <time>2019-06-26T10:33:50Z</time>
      </trkpt>
      <trkpt lat="46.76837" lon="6.46199">
        <ele>1557</ele>
        <time>2019-06-26T10:33:57Z</time>
      </trkpt>
      <trkpt lat="46.76846" lon="6.46213">
        <ele>1558</ele>
        <time>2019-06-26T10:34:11Z</time>
      </trkpt>
      <trkpt lat="46.76852" lon="6.4622">
        <ele>1558</ele>
        <time>2019-06-26T10:34:20Z</time>
      </trkpt>
      <trkpt lat="46.76859" lon="6.4623">
        <ele>1557</ele>
        <time>2019-06-26T10:34:30Z</time>
      </trkpt>
      <trkpt lat="46.76866" lon="6.4624">
        <ele>1557</ele>
        <time>2019-06-26T10:34:39Z</time>
      </trkpt>
      <trkpt lat="46.76869" lon="6.46244">
        <ele>1556</ele>
        <time>2019-06-26T10:34:43Z</time>
      </trkpt>
      <trkpt lat="46.76874" lon="6.46248">
        <ele>1556</ele>
        <time>2019-06-26T10:34:47Z</time>
      </trkpt>
      <trkpt lat="46.76882" lon="6.46255">
        <ele>1556</ele>
        <time>2019-06-26T10:34:56Z</time>
      </trkpt>
      <trkpt lat="46.76887" lon="6.46261">
        <ele>1556</ele>
        <time>2019-06-26T10:35:01Z</time>
      </trkpt>
      <trkpt lat="46.76891" lon="6.46264">
        <ele>1555</ele>
        <time>2019-06-26T10:35:06Z</time>
      </trkpt>
      <trkpt lat="46.76895" lon="6.46268">
        <ele>1555</ele>
        <time>2019-06-26T10:35:11Z</time>
      </trkpt>
      <trkpt lat="46.76902" lon="6.46272">
        <ele>1554</ele>
        <time>2019-06-26T10:35:19Z</time>
      </trkpt>
      <trkpt lat="46.76907" lon="6.46275">
        <ele>1554</ele>
        <time>2019-06-26T10:35:27Z</time>
      </trkpt>
      <trkpt lat="46.76913" lon="6.4628">
        <ele>1553</ele>
        <time>2019-06-26T10:35:39Z</time>
      </trkpt>
      <trkpt lat="46.76922" lon="6.46285">
        <ele>1551</ele>
        <time>2019-06-26T10:35:51Z</time>
      </trkpt>
      <trkpt lat="46.76926" lon="6.46289">
        <ele>1550</ele>
        <time>2019-06-26T10:35:56Z</time>
      </trkpt>
      <trkpt lat="46.76929" lon="6.46295">
        <ele>1550</ele>
        <time>2019-06-26T10:36:00Z</time>
      </trkpt>
      <trkpt lat="46.76937" lon="6.46304">
        <ele>1549</ele>
        <time>2019-06-26T10:36:09Z</time>
      </trkpt>
      <trkpt lat="46.76942" lon="6.46313">
        <ele>1549</ele>
        <time>2019-06-26T10:36:17Z</time>
      </trkpt>
      <trkpt lat="46.76945" lon="6.46319">
        <ele>1548</ele>
        <time>2019-06-26T10:36:22Z</time>
      </trkpt>
      <trkpt lat="46.76949" lon="6.46324">
        <ele>1547</ele>
        <time>2019-06-26T10:36:26Z</time>
      </trkpt>
      <trkpt lat="46.76953" lon="6.46329">
        <ele>1547</ele>
        <time>2019-06-26T10:36:30Z</time>
      </trkpt>
      <trkpt lat="46.76958" lon="6.46332">
        <ele>1546</ele>
        <time>2019-06-26T10:36:34Z</time>
      </trkpt>
      <trkpt lat="46.76977" lon="6.4634">
        <ele>1544</ele>
        <time>2019-06-26T10:36:52Z</time>
      </trkpt>
      <trkpt lat="46.76982" lon="6.46342">
        <ele>1544</ele>
        <time>2019-06-26T10:36:56Z</time>
      </trkpt>
      <trkpt lat="46.76998" lon="6.46347">
        <ele>1544</ele>
        <time>2019-06-26T10:37:11Z</time>
      </trkpt>
      <trkpt lat="46.77011" lon="6.46355">
        <ele>1544</ele>
        <time>2019-06-26T10:37:23Z</time>
      </trkpt>
      <trkpt lat="46.77015" lon="6.46359">
        <ele>1544</ele>
        <time>2019-06-26T10:37:27Z</time>
      </trkpt>
      <trkpt lat="46.77019" lon="6.46363">
        <ele>1544</ele>
        <time>2019-06-26T10:37:31Z</time>
      </trkpt>
      <trkpt lat="46.77032" lon="6.46375">
        <ele>1544</ele>
        <time>2019-06-26T10:37:45Z</time>
      </trkpt>
      <trkpt lat="46.77035" lon="6.4638">
        <ele>1544</ele>
        <time>2019-06-26T10:37:50Z</time>
      </trkpt>
      <trkpt lat="46.7704" lon="6.46388">
        <ele>1546</ele>
        <time>2019-06-26T10:37:58Z</time>
      </trkpt>
      <trkpt lat="46.77047" lon="6.46388">
        <ele>1545</ele>
        <time>2019-06-26T10:38:05Z</time>
      </trkpt>
      <trkpt lat="46.77066" lon="6.46395">
        <ele>1548</ele>
        <time>2019-06-26T10:38:37Z</time>
      </trkpt>
      <trkpt lat="46.77072" lon="6.46403">
        <ele>1549</ele>
        <time>2019-06-26T10:38:49Z</time>
      </trkpt>
      <trkpt lat="46.77078" lon="6.46411">
        <ele>1550</ele>
        <time>2019-06-26T10:39:01Z</time>
      </trkpt>
      <trkpt lat="46.77091" lon="6.46423">
        <ele>1554</ele>
        <time>2019-06-26T10:39:21Z</time>
      </trkpt>
      <trkpt lat="46.77104" lon="6.4643">
        <ele>1556</ele>
        <time>2019-06-26T10:39:39Z</time>
      </trkpt>
      <trkpt lat="46.77118" lon="6.46446">
        <ele>1561</ele>
        <time>2019-06-26T10:40:03Z</time>
      </trkpt>
      <trkpt lat="46.77123" lon="6.46448">
        <ele>1561</ele>
        <time>2019-06-26T10:40:09Z</time>
      </trkpt>
      <trkpt lat="46.77127" lon="6.46452">
        <ele>1561</ele>
        <time>2019-06-26T10:40:15Z</time>
      </trkpt>
      <trkpt lat="46.7713" lon="6.46457">
        <ele>1561</ele>
        <time>2019-06-26T10:40:20Z</time>
      </trkpt>
      <trkpt lat="46.77135" lon="6.46462">
        <ele>1562</ele>
        <time>2019-06-26T10:40:28Z</time>
      </trkpt>
      <trkpt lat="46.7714" lon="6.46464">
        <ele>1562</ele>
        <time>2019-06-26T10:40:34Z</time>
      </trkpt>
      <trkpt lat="46.77144" lon="6.46469">
        <ele>1563</ele>
        <time>2019-06-26T10:40:40Z</time>
      </trkpt>
      <trkpt lat="46.77154" lon="6.46479">
        <ele>1565</ele>
        <time>2019-06-26T10:40:53Z</time>
      </trkpt>
      <trkpt lat="46.77171" lon="6.46504">
        <ele>1568</ele>
        <time>2019-06-26T10:41:21Z</time>
      </trkpt>
      <trkpt lat="46.77181" lon="6.46519">
        <ele>1567</ele>
        <time>2019-06-26T10:41:37Z</time>
      </trkpt>
      <trkpt lat="46.77187" lon="6.4653">
        <ele>1569</ele>
        <time>2019-06-26T10:41:49Z</time>
      </trkpt>
      <trkpt lat="46.77189" lon="6.4654">
        <ele>1571</ele>
        <time>2019-06-26T10:41:57Z</time>
      </trkpt>
      <trkpt lat="46.77191" lon="6.46546">
        <ele>1571</ele>
        <time>2019-06-26T10:42:02Z</time>
      </trkpt>
      <trkpt lat="46.77197" lon="6.46551">
        <ele>1572</ele>
        <time>2019-06-26T10:42:10Z</time>
      </trkpt>
      <trkpt lat="46.77201" lon="6.46556">
        <ele>1573</ele>
        <time>2019-06-26T10:42:17Z</time>
      </trkpt>
      <trkpt lat="46.77216" lon="6.46569">
        <ele>1573</ele>
        <time>2019-06-26T10:42:39Z</time>
      </trkpt>
      <trkpt lat="46.77223" lon="6.46577">
        <ele>1574</ele>
        <time>2019-06-26T10:42:51Z</time>
      </trkpt>
      <trkpt lat="46.7723" lon="6.46582">
        <ele>1574</ele>
        <time>2019-06-26T10:43:03Z</time>
      </trkpt>
      <trkpt lat="46.77241" lon="6.466">
        <ele>1576</ele>
        <time>2019-06-26T10:43:27Z</time>
      </trkpt>
      <trkpt lat="46.77244" lon="6.46607">
        <ele>1580</ele>
        <time>2019-06-26T10:43:39Z</time>
      </trkpt>
      <trkpt lat="46.77245" lon="6.46623">
        <ele>1587</ele>
        <time>2019-06-26T10:44:14Z</time>
      </trkpt>
      <trkpt lat="46.7724" lon="6.4662">
        <ele>1593</ele>
        <time>2019-06-26T10:45:02Z</time>
      </trkpt>
      <trkpt lat="46.77232" lon="6.46559">
        <ele>1582</ele>
        <time>2019-06-26T10:57:43Z</time>
      </trkpt>
      <trkpt lat="46.77229" lon="6.46553">
        <ele>1581</ele>
        <time>2019-06-26T10:57:48Z</time>
      </trkpt>
      <trkpt lat="46.77227" lon="6.46546">
        <ele>1581</ele>
        <time>2019-06-26T10:57:52Z</time>
      </trkpt>
      <trkpt lat="46.77225" lon="6.46539">
        <ele>1579</ele>
        <time>2019-06-26T10:57:56Z</time>
      </trkpt>
      <trkpt lat="46.77223" lon="6.46529">
        <ele>1579</ele>
        <time>2019-06-26T10:58:03Z</time>
      </trkpt>
      <trkpt lat="46.77221" lon="6.46521">
        <ele>1577</ele>
        <time>2019-06-26T10:58:08Z</time>
      </trkpt>
      <trkpt lat="46.77219" lon="6.46515">
        <ele>1577</ele>
        <time>2019-06-26T10:58:12Z</time>
      </trkpt>
      <trkpt lat="46.77214" lon="6.46502">
        <ele>1575</ele>
        <time>2019-06-26T10:58:22Z</time>
      </trkpt>
      <trkpt lat="46.77205" lon="6.46486">
        <ele>1574</ele>
        <time>2019-06-26T10:58:35Z</time>
      </trkpt>
      <trkpt lat="46.77202" lon="6.4648">
        <ele>1574</ele>
        <time>2019-06-26T10:58:39Z</time>
      </trkpt>
      <trkpt lat="46.77195" lon="6.46459">
        <ele>1573</ele>
        <time>2019-06-26T10:58:54Z</time>
      </trkpt>
      <trkpt lat="46.77191" lon="6.46443">
        <ele>1571</ele>
        <time>2019-06-26T10:59:06Z</time>
      </trkpt>
      <trkpt lat="46.77186" lon="6.4643">
        <ele>1568</ele>
        <time>2019-06-26T10:59:16Z</time>
      </trkpt>
      <trkpt lat="46.77183" lon="6.46424">
        <ele>1568</ele>
        <time>2019-06-26T10:59:21Z</time>
      </trkpt>
      <trkpt lat="46.77172" lon="6.46403">
        <ele>1565</ele>
        <time>2019-06-26T10:59:37Z</time>
      </trkpt>
      <trkpt lat="46.77161" lon="6.46378">
        <ele>1562</ele>
        <time>2019-06-26T11:00:00Z</time>
      </trkpt>
      <trkpt lat="46.7715" lon="6.46363">
        <ele>1558</ele>
        <time>2019-06-26T11:00:15Z</time>
      </trkpt>
      <trkpt lat="46.77143" lon="6.46351">
        <ele>1555</ele>
        <time>2019-06-26T11:00:28Z</time>
      </trkpt>
      <trkpt lat="46.77139" lon="6.46348">
        <ele>1553</ele>
        <time>2019-06-26T11:00:33Z</time>
      </trkpt>
      <trkpt lat="46.77135" lon="6.46341">
        <ele>1552</ele>
        <time>2019-06-26T11:00:40Z</time>
      </trkpt>
      <trkpt lat="46.77133" lon="6.46335">
        <ele>1552</ele>
        <time>2019-06-26T11:00:45Z</time>
      </trkpt>
      <trkpt lat="46.77127" lon="6.46325">
        <ele>1551</ele>
        <time>2019-06-26T11:00:54Z</time>
      </trkpt>
      <trkpt lat="46.77105" lon="6.46313">
        <ele>1544</ele>
        <time>2019-06-26T11:01:30Z</time>
      </trkpt>
      <trkpt lat="46.771" lon="6.46312">
        <ele>1544</ele>
        <time>2019-06-26T11:01:35Z</time>
      </trkpt>
      <trkpt lat="46.77095" lon="6.46314">
        <ele>1543</ele>
        <time>2019-06-26T11:01:40Z</time>
      </trkpt>
      <trkpt lat="46.7709" lon="6.46313">
        <ele>1541</ele>
        <time>2019-06-26T11:01:45Z</time>
      </trkpt>
      <trkpt lat="46.77079" lon="6.46307">
        <ele>1540</ele>
        <time>2019-06-26T11:01:57Z</time>
      </trkpt>
      <trkpt lat="46.77074" lon="6.46304">
        <ele>1540</ele>
        <time>2019-06-26T11:02:02Z</time>
      </trkpt>
      <trkpt lat="46.7707" lon="6.463">
        <ele>1540</ele>
        <time>2019-06-26T11:02:06Z</time>
      </trkpt>
      <trkpt lat="46.77065" lon="6.46297">
        <ele>1540</ele>
        <time>2019-06-26T11:02:11Z</time>
      </trkpt>
      <trkpt lat="46.7706" lon="6.46293">
        <ele>1539</ele>
        <time>2019-06-26T11:02:15Z</time>
      </trkpt>
      <trkpt lat="46.77055" lon="6.46291">
        <ele>1539</ele>
        <time>2019-06-26T11:02:20Z</time>
      </trkpt>
      <trkpt lat="46.77051" lon="6.46288">
        <ele>1540</ele>
        <time>2019-06-26T11:02:24Z</time>
      </trkpt>
      <trkpt lat="46.77046" lon="6.46284">
        <ele>1539</ele>
        <time>2019-06-26T11:02:29Z</time>
      </trkpt>
      <trkpt lat="46.77041" lon="6.4628">
        <ele>1540</ele>
        <time>2019-06-26T11:02:34Z</time>
      </trkpt>
      <trkpt lat="46.77036" lon="6.46279">
        <ele>1539</ele>
        <time>2019-06-26T11:02:39Z</time>
      </trkpt>
      <trkpt lat="46.77029" lon="6.46274">
        <ele>1539</ele>
        <time>2019-06-26T11:02:48Z</time>
      </trkpt>
      <trkpt lat="46.77023" lon="6.46271">
        <ele>1538</ele>
        <time>2019-06-26T11:02:55Z</time>
      </trkpt>
      <trkpt lat="46.77019" lon="6.46269">
        <ele>1537</ele>
        <time>2019-06-26T11:03:00Z</time>
      </trkpt>
      <trkpt lat="46.77009" lon="6.46261">
        <ele>1532</ele>
        <time>2019-06-26T11:03:14Z</time>
      </trkpt>
      <trkpt lat="46.77005" lon="6.46259">
        <ele>1532</ele>
        <time>2019-06-26T11:03:19Z</time>
      </trkpt>
      <trkpt lat="46.76999" lon="6.46254">
        <ele>1532</ele>
        <time>2019-06-26T11:03:27Z</time>
      </trkpt>
      <trkpt lat="46.76995" lon="6.46252">
        <ele>1531</ele>
        <time>2019-06-26T11:03:33Z</time>
      </trkpt>
      <trkpt lat="46.7699" lon="6.4625">
        <ele>1531</ele>
        <time>2019-06-26T11:03:39Z</time>
      </trkpt>
      <trkpt lat="46.76986" lon="6.46249">
        <ele>1532</ele>
        <time>2019-06-26T11:03:57Z</time>
      </trkpt>
      <trkpt lat="46.76985" lon="6.46241">
        <ele>1529</ele>
        <time>2019-06-26T11:04:20Z</time>
      </trkpt>
      <trkpt lat="46.7698" lon="6.46238">
        <ele>1526</ele>
        <time>2019-06-26T11:04:25Z</time>
      </trkpt>
      <trkpt lat="46.76975" lon="6.46232">
        <ele>1526</ele>
        <time>2019-06-26T11:04:32Z</time>
      </trkpt>
      <trkpt lat="46.76972" lon="6.46224">
        <ele>1525</ele>
        <time>2019-06-26T11:04:46Z</time>
      </trkpt>
      <trkpt lat="46.7697" lon="6.46216">
        <ele>1523</ele>
        <time>2019-06-26T11:04:58Z</time>
      </trkpt>
      <trkpt lat="46.7697" lon="6.46205">
        <ele>1521</ele>
        <time>2019-06-26T11:05:16Z</time>
      </trkpt>
      <trkpt lat="46.76966" lon="6.46196">
        <ele>1522</ele>
        <time>2019-06-26T11:05:28Z</time>
      </trkpt>
      <trkpt lat="46.76967" lon="6.46183">
        <ele>1522</ele>
        <time>2019-06-26T11:05:51Z</time>
      </trkpt>
      <trkpt lat="46.76966" lon="6.46163">
        <ele>1519</ele>
        <time>2019-06-26T11:06:21Z</time>
      </trkpt>
      <trkpt lat="46.76963" lon="6.46151">
        <ele>1518</ele>
        <time>2019-06-26T11:06:39Z</time>
      </trkpt>
      <trkpt lat="46.7698" lon="6.46153">
        <ele>1512</ele>
        <time>2019-06-26T11:07:27Z</time>
      </trkpt>
      <trkpt lat="46.76987" lon="6.46162">
        <ele>1512</ele>
        <time>2019-06-26T11:07:42Z</time>
      </trkpt>
      <trkpt lat="46.76998" lon="6.46159">
        <ele>1506</ele>
        <time>2019-06-26T11:08:12Z</time>
      </trkpt>
      <trkpt lat="46.77019" lon="6.46161">
        <ele>1503</ele>
        <time>2019-06-26T11:08:49Z</time>
      </trkpt>
      <trkpt lat="46.7703" lon="6.4616">
        <ele>1502</ele>
        <time>2019-06-26T11:09:13Z</time>
      </trkpt>
      <trkpt lat="46.77039" lon="6.46162">
        <ele>1491</ele>
        <time>2019-06-26T11:12:18Z</time>
      </trkpt>
      <trkpt lat="46.77033" lon="6.46144">
        <ele>1491</ele>
        <time>2019-06-26T11:12:33Z</time>
      </trkpt>
      <trkpt lat="46.77035" lon="6.46151">
        <ele>1496</ele>
        <time>2019-06-26T11:57:21Z</time>
      </trkpt>
      <trkpt lat="46.77072" lon="6.46139">
        <ele>1482</ele>
        <time>2019-06-26T12:09:07Z</time>
      </trkpt>
      <trkpt lat="46.77079" lon="6.46149">
        <ele>1480</ele>
        <time>2019-06-26T12:09:27Z</time>
      </trkpt>
      <trkpt lat="46.771" lon="6.46159">
        <ele>1476</ele>
        <time>2019-06-26T12:09:44Z</time>
      </trkpt>
      <trkpt lat="46.77108" lon="6.46164">
        <ele>1477</ele>
        <time>2019-06-26T12:09:49Z</time>
      </trkpt>
      <trkpt lat="46.77121" lon="6.46163">
        <ele>1476</ele>
        <time>2019-06-26T12:10:28Z</time>
      </trkpt>
      <trkpt lat="46.77131" lon="6.46169">
        <ele>1472</ele>
        <time>2019-06-26T12:10:46Z</time>
      </trkpt>
      <trkpt lat="46.77144" lon="6.4618">
        <ele>1470</ele>
        <time>2019-06-26T12:11:01Z</time>
      </trkpt>
      <trkpt lat="46.77157" lon="6.46181">
        <ele>1461</ele>
        <time>2019-06-26T12:11:49Z</time>
      </trkpt>
      <trkpt lat="46.77169" lon="6.46178">
        <ele>1458</ele>
        <time>2019-06-26T12:12:18Z</time>
      </trkpt>
      <trkpt lat="46.77185" lon="6.46167">
        <ele>1457</ele>
        <time>2019-06-26T12:12:39Z</time>
      </trkpt>
      <trkpt lat="46.77213" lon="6.4616">
        <ele>1454</ele>
        <time>2019-06-26T12:13:24Z</time>
      </trkpt>
      <trkpt lat="46.77222" lon="6.46161">
        <ele>1444</ele>
        <time>2019-06-26T12:13:55Z</time>
      </trkpt>
      <trkpt lat="46.77231" lon="6.46162">
        <ele>1439</ele>
        <time>2019-06-26T12:14:13Z</time>
      </trkpt>
      <trkpt lat="46.77243" lon="6.46171">
        <ele>1436</ele>
        <time>2019-06-26T12:14:47Z</time>
      </trkpt>
      <trkpt lat="46.77265" lon="6.46176">
        <ele>1434</ele>
        <time>2019-06-26T12:15:09Z</time>
      </trkpt>
      <trkpt lat="46.77279" lon="6.46171">
        <ele>1434</ele>
        <time>2019-06-26T12:15:24Z</time>
      </trkpt>
      <trkpt lat="46.77291" lon="6.46179">
        <ele>1432</ele>
        <time>2019-06-26T12:15:40Z</time>
      </trkpt>
      <trkpt lat="46.77301" lon="6.46186">
        <ele>1432</ele>
        <time>2019-06-26T12:15:52Z</time>
      </trkpt>
      <trkpt lat="46.77308" lon="6.46196">
        <ele>1432</ele>
        <time>2019-06-26T12:16:01Z</time>
      </trkpt>
      <trkpt lat="46.77314" lon="6.46205">
        <ele>1433</ele>
        <time>2019-06-26T12:16:10Z</time>
      </trkpt>
      <trkpt lat="46.7732" lon="6.46215">
        <ele>1428</ele>
        <time>2019-06-26T12:16:25Z</time>
      </trkpt>
      <trkpt lat="46.7733" lon="6.46211">
        <ele>1425</ele>
        <time>2019-06-26T12:16:41Z</time>
      </trkpt>
      <trkpt lat="46.77346" lon="6.46215">
        <ele>1414</ele>
        <time>2019-06-26T12:17:20Z</time>
      </trkpt>
      <trkpt lat="46.77356" lon="6.46219">
        <ele>1413</ele>
        <time>2019-06-26T12:17:26Z</time>
      </trkpt>
      <trkpt lat="46.77364" lon="6.46226">
        <ele>1413</ele>
        <time>2019-06-26T12:17:35Z</time>
      </trkpt>
      <trkpt lat="46.77373" lon="6.46236">
        <ele>1412</ele>
        <time>2019-06-26T12:17:46Z</time>
      </trkpt>
      <trkpt lat="46.77382" lon="6.4624">
        <ele>1410</ele>
        <time>2019-06-26T12:17:55Z</time>
      </trkpt>
      <trkpt lat="46.77397" lon="6.46254">
        <ele>1404</ele>
        <time>2019-06-26T12:18:16Z</time>
      </trkpt>
      <trkpt lat="46.77406" lon="6.46259">
        <ele>1402</ele>
        <time>2019-06-26T12:18:27Z</time>
      </trkpt>
      <trkpt lat="46.77414" lon="6.46271">
        <ele>1396</ele>
        <time>2019-06-26T12:18:43Z</time>
      </trkpt>
      <trkpt lat="46.7742" lon="6.46283">
        <ele>1394</ele>
        <time>2019-06-26T12:18:51Z</time>
      </trkpt>
      <trkpt lat="46.77431" lon="6.46288">
        <ele>1391</ele>
        <time>2019-06-26T12:19:03Z</time>
      </trkpt>
      <trkpt lat="46.77437" lon="6.46298">
        <ele>1391</ele>
        <time>2019-06-26T12:19:12Z</time>
      </trkpt>
      <trkpt lat="46.77455" lon="6.46335">
        <ele>1388</ele>
        <time>2019-06-26T12:19:38Z</time>
      </trkpt>
      <trkpt lat="46.77464" lon="6.46344">
        <ele>1387</ele>
        <time>2019-06-26T12:19:50Z</time>
      </trkpt>
      <trkpt lat="46.77471" lon="6.46354">
        <ele>1386</ele>
        <time>2019-06-26T12:19:58Z</time>
      </trkpt>
      <trkpt lat="46.77478" lon="6.46364">
        <ele>1385</ele>
        <time>2019-06-26T12:20:05Z</time>
      </trkpt>
      <trkpt lat="46.77497" lon="6.46376">
        <ele>1382</ele>
        <time>2019-06-26T12:20:27Z</time>
      </trkpt>
      <trkpt lat="46.77504" lon="6.46385">
        <ele>1381</ele>
        <time>2019-06-26T12:20:34Z</time>
      </trkpt>
      <trkpt lat="46.77526" lon="6.46433">
        <ele>1381</ele>
        <time>2019-06-26T12:21:09Z</time>
      </trkpt>
      <trkpt lat="46.77531" lon="6.46445">
        <ele>1381</ele>
        <time>2019-06-26T12:21:17Z</time>
      </trkpt>
      <trkpt lat="46.77554" lon="6.46468">
        <ele>1381</ele>
        <time>2019-06-26T12:21:43Z</time>
      </trkpt>
      <trkpt lat="46.77559" lon="6.4648">
        <ele>1382</ele>
        <time>2019-06-26T12:21:51Z</time>
      </trkpt>
      <trkpt lat="46.77566" lon="6.4649">
        <ele>1381</ele>
        <time>2019-06-26T12:21:59Z</time>
      </trkpt>
      <trkpt lat="46.77572" lon="6.46499">
        <ele>1381</ele>
        <time>2019-06-26T12:22:08Z</time>
      </trkpt>
      <trkpt lat="46.77588" lon="6.46534">
        <ele>1381</ele>
        <time>2019-06-26T12:22:37Z</time>
      </trkpt>
      <trkpt lat="46.77593" lon="6.46545">
        <ele>1382</ele>
        <time>2019-06-26T12:22:46Z</time>
      </trkpt>
      <trkpt lat="46.77599" lon="6.46559">
        <ele>1380</ele>
        <time>2019-06-26T12:23:01Z</time>
      </trkpt>
      <trkpt lat="46.77606" lon="6.46577">
        <ele>1381</ele>
        <time>2019-06-26T12:23:35Z</time>
      </trkpt>
      <trkpt lat="46.77614" lon="6.46587">
        <ele>1379</ele>
        <time>2019-06-26T12:23:45Z</time>
      </trkpt>
      <trkpt lat="46.7762" lon="6.46597">
        <ele>1379</ele>
        <time>2019-06-26T12:23:52Z</time>
      </trkpt>
      <trkpt lat="46.77635" lon="6.46615">
        <ele>1377</ele>
        <time>2019-06-26T12:24:09Z</time>
      </trkpt>
      <trkpt lat="46.77648" lon="6.46636">
        <ele>1377</ele>
        <time>2019-06-26T12:24:26Z</time>
      </trkpt>
      <trkpt lat="46.77653" lon="6.46646">
        <ele>1376</ele>
        <time>2019-06-26T12:24:33Z</time>
      </trkpt>
      <trkpt lat="46.77678" lon="6.46673">
        <ele>1375</ele>
        <time>2019-06-26T12:25:03Z</time>
      </trkpt>
      <trkpt lat="46.77681" lon="6.46687">
        <ele>1375</ele>
        <time>2019-06-26T12:25:09Z</time>
      </trkpt>
      <trkpt lat="46.77697" lon="6.46702">
        <ele>1375</ele>
        <time>2019-06-26T12:25:24Z</time>
      </trkpt>
      <trkpt lat="46.77704" lon="6.46713">
        <ele>1374</ele>
        <time>2019-06-26T12:25:33Z</time>
      </trkpt>
      <trkpt lat="46.77718" lon="6.46731">
        <ele>1371</ele>
        <time>2019-06-26T12:25:52Z</time>
      </trkpt>
      <trkpt lat="46.77731" lon="6.46741">
        <ele>1368</ele>
        <time>2019-06-26T12:26:18Z</time>
      </trkpt>
      <trkpt lat="46.77748" lon="6.46758">
        <ele>1370</ele>
        <time>2019-06-26T12:26:39Z</time>
      </trkpt>
      <trkpt lat="46.77757" lon="6.46765">
        <ele>1371</ele>
        <time>2019-06-26T12:26:48Z</time>
      </trkpt>
      <trkpt lat="46.77764" lon="6.46775">
        <ele>1371</ele>
        <time>2019-06-26T12:26:57Z</time>
      </trkpt>
      <trkpt lat="46.77779" lon="6.4679">
        <ele>1369</ele>
        <time>2019-06-26T12:27:23Z</time>
      </trkpt>
      <trkpt lat="46.77785" lon="6.468">
        <ele>1367</ele>
        <time>2019-06-26T12:27:31Z</time>
      </trkpt>
      <trkpt lat="46.77801" lon="6.46815">
        <ele>1366</ele>
        <time>2019-06-26T12:27:49Z</time>
      </trkpt>
      <trkpt lat="46.77818" lon="6.46822">
        <ele>1364</ele>
        <time>2019-06-26T12:28:07Z</time>
      </trkpt>
      <trkpt lat="46.77824" lon="6.4683">
        <ele>1363</ele>
        <time>2019-06-26T12:28:15Z</time>
      </trkpt>
      <trkpt lat="46.77833" lon="6.46839">
        <ele>1364</ele>
        <time>2019-06-26T12:28:24Z</time>
      </trkpt>
      <trkpt lat="46.77841" lon="6.46846">
        <ele>1363</ele>
        <time>2019-06-26T12:28:33Z</time>
      </trkpt>
      <trkpt lat="46.77847" lon="6.46835">
        <ele>1361</ele>
        <time>2019-06-26T12:28:41Z</time>
      </trkpt>
      <trkpt lat="46.77851" lon="6.46823">
        <ele>1359</ele>
        <time>2019-06-26T12:28:50Z</time>
      </trkpt>
      <trkpt lat="46.77851" lon="6.46808">
        <ele>1357</ele>
        <time>2019-06-26T12:28:59Z</time>
      </trkpt>
      <trkpt lat="46.77847" lon="6.46796">
        <ele>1355</ele>
        <time>2019-06-26T12:29:07Z</time>
      </trkpt>
      <trkpt lat="46.77833" lon="6.4676">
        <ele>1354</ele>
        <time>2019-06-26T12:29:31Z</time>
      </trkpt>
      <trkpt lat="46.77821" lon="6.46739">
        <ele>1352</ele>
        <time>2019-06-26T12:29:46Z</time>
      </trkpt>
      <trkpt lat="46.77792" lon="6.46684">
        <ele>1351</ele>
        <time>2019-06-26T12:30:24Z</time>
      </trkpt>
      <trkpt lat="46.77786" lon="6.46673">
        <ele>1349</ele>
        <time>2019-06-26T12:30:33Z</time>
      </trkpt>
      <trkpt lat="46.77782" lon="6.46659">
        <ele>1349</ele>
        <time>2019-06-26T12:30:40Z</time>
      </trkpt>
      <trkpt lat="46.77778" lon="6.46653">
        <ele>1350</ele>
        <time>2019-06-26T12:30:44Z</time>
      </trkpt>
      <trkpt lat="46.77771" lon="6.46641">
        <ele>1348</ele>
        <time>2019-06-26T12:30:52Z</time>
      </trkpt>
      <trkpt lat="46.77768" lon="6.46635">
        <ele>1349</ele>
        <time>2019-06-26T12:30:56Z</time>
      </trkpt>
      <trkpt lat="46.7776" lon="6.46617">
        <ele>1348</ele>
        <time>2019-06-26T12:31:08Z</time>
      </trkpt>
      <trkpt lat="46.77756" lon="6.46612">
        <ele>1347</ele>
        <time>2019-06-26T12:31:13Z</time>
      </trkpt>
      <trkpt lat="46.77752" lon="6.46606">
        <ele>1347</ele>
        <time>2019-06-26T12:31:18Z</time>
      </trkpt>
      <trkpt lat="46.77749" lon="6.466">
        <ele>1347</ele>
        <time>2019-06-26T12:31:22Z</time>
      </trkpt>
      <trkpt lat="46.77745" lon="6.46587">
        <ele>1348</ele>
        <time>2019-06-26T12:31:30Z</time>
      </trkpt>
      <trkpt lat="46.77742" lon="6.46583">
        <ele>1347</ele>
        <time>2019-06-26T12:31:34Z</time>
      </trkpt>
      <trkpt lat="46.77738" lon="6.46576">
        <ele>1347</ele>
        <time>2019-06-26T12:31:39Z</time>
      </trkpt>
      <trkpt lat="46.7773" lon="6.46569">
        <ele>1345</ele>
        <time>2019-06-26T12:31:48Z</time>
      </trkpt>
      <trkpt lat="46.77719" lon="6.46547">
        <ele>1343</ele>
        <time>2019-06-26T12:32:03Z</time>
      </trkpt>
      <trkpt lat="46.77701" lon="6.46499">
        <ele>1343</ele>
        <time>2019-06-26T12:32:38Z</time>
      </trkpt>
      <trkpt lat="46.77694" lon="6.46488">
        <ele>1343</ele>
        <time>2019-06-26T12:32:46Z</time>
      </trkpt>
      <trkpt lat="46.77688" lon="6.46479">
        <ele>1342</ele>
        <time>2019-06-26T12:32:54Z</time>
      </trkpt>
      <trkpt lat="46.77669" lon="6.46438">
        <ele>1340</ele>
        <time>2019-06-26T12:33:20Z</time>
      </trkpt>
      <trkpt lat="46.77666" lon="6.46432">
        <ele>1341</ele>
        <time>2019-06-26T12:33:24Z</time>
      </trkpt>
      <trkpt lat="46.77662" lon="6.46428">
        <ele>1341</ele>
        <time>2019-06-26T12:33:28Z</time>
      </trkpt>
      <trkpt lat="46.77659" lon="6.46422">
        <ele>1340</ele>
        <time>2019-06-26T12:33:32Z</time>
      </trkpt>
      <trkpt lat="46.77652" lon="6.46411">
        <ele>1338</ele>
        <time>2019-06-26T12:33:40Z</time>
      </trkpt>
      <trkpt lat="46.77647" lon="6.46399">
        <ele>1338</ele>
        <time>2019-06-26T12:33:48Z</time>
      </trkpt>
      <trkpt lat="46.77641" lon="6.46387">
        <ele>1337</ele>
        <time>2019-06-26T12:33:57Z</time>
      </trkpt>
      <trkpt lat="46.77638" lon="6.46381">
        <ele>1338</ele>
        <time>2019-06-26T12:34:01Z</time>
      </trkpt>
      <trkpt lat="46.77635" lon="6.46375">
        <ele>1338</ele>
        <time>2019-06-26T12:34:05Z</time>
      </trkpt>
      <trkpt lat="46.77632" lon="6.4637">
        <ele>1338</ele>
        <time>2019-06-26T12:34:09Z</time>
      </trkpt>
      <trkpt lat="46.77625" lon="6.46361">
        <ele>1337</ele>
        <time>2019-06-26T12:34:17Z</time>
      </trkpt>
      <trkpt lat="46.77623" lon="6.46355">
        <ele>1337</ele>
        <time>2019-06-26T12:34:21Z</time>
      </trkpt>
      <trkpt lat="46.7762" lon="6.46348">
        <ele>1337</ele>
        <time>2019-06-26T12:34:25Z</time>
      </trkpt>
      <trkpt lat="46.77617" lon="6.46342">
        <ele>1337</ele>
        <time>2019-06-26T12:34:29Z</time>
      </trkpt>
      <trkpt lat="46.77614" lon="6.46336">
        <ele>1337</ele>
        <time>2019-06-26T12:34:33Z</time>
      </trkpt>
      <trkpt lat="46.77611" lon="6.46329">
        <ele>1337</ele>
        <time>2019-06-26T12:34:37Z</time>
      </trkpt>
      <trkpt lat="46.77609" lon="6.46323">
        <ele>1337</ele>
        <time>2019-06-26T12:34:41Z</time>
      </trkpt>
      <trkpt lat="46.77606" lon="6.46317">
        <ele>1337</ele>
        <time>2019-06-26T12:34:45Z</time>
      </trkpt>
      <trkpt lat="46.77604" lon="6.46309">
        <ele>1338</ele>
        <time>2019-06-26T12:34:49Z</time>
      </trkpt>
      <trkpt lat="46.77601" lon="6.46304">
        <ele>1337</ele>
        <time>2019-06-26T12:34:54Z</time>
      </trkpt>
      <trkpt lat="46.77597" lon="6.46299">
        <ele>1336</ele>
        <time>2019-06-26T12:34:59Z</time>
      </trkpt>
      <trkpt lat="46.77593" lon="6.46293">
        <ele>1337</ele>
        <time>2019-06-26T12:35:04Z</time>
      </trkpt>
      <trkpt lat="46.77591" lon="6.46287">
        <ele>1336</ele>
        <time>2019-06-26T12:35:08Z</time>
      </trkpt>
      <trkpt lat="46.77577" lon="6.46256">
        <ele>1331</ele>
        <time>2019-06-26T12:35:29Z</time>
      </trkpt>
      <trkpt lat="46.77566" lon="6.46233">
        <ele>1331</ele>
        <time>2019-06-26T12:35:44Z</time>
      </trkpt>
      <trkpt lat="46.7756" lon="6.46222">
        <ele>1331</ele>
        <time>2019-06-26T12:35:52Z</time>
      </trkpt>
      <trkpt lat="46.77556" lon="6.4621">
        <ele>1331</ele>
        <time>2019-06-26T12:35:59Z</time>
      </trkpt>
      <trkpt lat="46.77543" lon="6.46173">
        <ele>1329</ele>
        <time>2019-06-26T12:36:22Z</time>
      </trkpt>
      <trkpt lat="46.77538" lon="6.46163">
        <ele>1327</ele>
        <time>2019-06-26T12:36:31Z</time>
      </trkpt>
      <trkpt lat="46.77531" lon="6.46153">
        <ele>1326</ele>
        <time>2019-06-26T12:36:39Z</time>
      </trkpt>
      <trkpt lat="46.77515" lon="6.46115">
        <ele>1325</ele>
        <time>2019-06-26T12:37:02Z</time>
      </trkpt>
      <trkpt lat="46.77512" lon="6.46109">
        <ele>1324</ele>
        <time>2019-06-26T12:37:06Z</time>
      </trkpt>
      <trkpt lat="46.77506" lon="6.46097">
        <ele>1323</ele>
        <time>2019-06-26T12:37:15Z</time>
      </trkpt>
      <trkpt lat="46.77502" lon="6.46091">
        <ele>1322</ele>
        <time>2019-06-26T12:37:19Z</time>
      </trkpt>
      <trkpt lat="46.77497" lon="6.46078">
        <ele>1322</ele>
        <time>2019-06-26T12:37:27Z</time>
      </trkpt>
      <trkpt lat="46.77493" lon="6.46073">
        <ele>1321</ele>
        <time>2019-06-26T12:37:31Z</time>
      </trkpt>
      <trkpt lat="46.7749" lon="6.46067">
        <ele>1320</ele>
        <time>2019-06-26T12:37:35Z</time>
      </trkpt>
      <trkpt lat="46.77483" lon="6.46057">
        <ele>1319</ele>
        <time>2019-06-26T12:37:44Z</time>
      </trkpt>
      <trkpt lat="46.77481" lon="6.4605">
        <ele>1318</ele>
        <time>2019-06-26T12:37:47Z</time>
      </trkpt>
      <trkpt lat="46.7747" lon="6.46018">
        <ele>1319</ele>
        <time>2019-06-26T12:38:07Z</time>
      </trkpt>
      <trkpt lat="46.77464" lon="6.46006">
        <ele>1318</ele>
        <time>2019-06-26T12:38:15Z</time>
      </trkpt>
      <trkpt lat="46.7746" lon="6.45994">
        <ele>1317</ele>
        <time>2019-06-26T12:38:23Z</time>
      </trkpt>
      <trkpt lat="46.77455" lon="6.45983">
        <ele>1315</ele>
        <time>2019-06-26T12:38:30Z</time>
      </trkpt>
      <trkpt lat="46.7745" lon="6.4597">
        <ele>1316</ele>
        <time>2019-06-26T12:38:37Z</time>
      </trkpt>
      <trkpt lat="46.77443" lon="6.45942">
        <ele>1313</ele>
        <time>2019-06-26T12:38:53Z</time>
      </trkpt>
      <trkpt lat="46.77439" lon="6.45929">
        <ele>1313</ele>
        <time>2019-06-26T12:39:02Z</time>
      </trkpt>
      <trkpt lat="46.77438" lon="6.45915">
        <ele>1314</ele>
        <time>2019-06-26T12:39:11Z</time>
      </trkpt>
      <trkpt lat="46.77435" lon="6.45893">
        <ele>1313</ele>
        <time>2019-06-26T12:39:29Z</time>
      </trkpt>
      <trkpt lat="46.77431" lon="6.45881">
        <ele>1312</ele>
        <time>2019-06-26T12:39:37Z</time>
      </trkpt>
      <trkpt lat="46.77429" lon="6.45867">
        <ele>1311</ele>
        <time>2019-06-26T12:39:45Z</time>
      </trkpt>
      <trkpt lat="46.77427" lon="6.45853">
        <ele>1310</ele>
        <time>2019-06-26T12:39:54Z</time>
      </trkpt>
      <trkpt lat="46.77426" lon="6.4584">
        <ele>1309</ele>
        <time>2019-06-26T12:40:01Z</time>
      </trkpt>
      <trkpt lat="46.77425" lon="6.45825">
        <ele>1308</ele>
        <time>2019-06-26T12:40:10Z</time>
      </trkpt>
      <trkpt lat="46.77423" lon="6.45813">
        <ele>1308</ele>
        <time>2019-06-26T12:40:18Z</time>
      </trkpt>
      <trkpt lat="46.77422" lon="6.45798">
        <ele>1307</ele>
        <time>2019-06-26T12:40:27Z</time>
      </trkpt>
      <trkpt lat="46.77419" lon="6.45785">
        <ele>1307</ele>
        <time>2019-06-26T12:40:35Z</time>
      </trkpt>
      <trkpt lat="46.77402" lon="6.45767">
        <ele>1303</ele>
        <time>2019-06-26T12:41:00Z</time>
      </trkpt>
      <trkpt lat="46.77397" lon="6.45767">
        <ele>1303</ele>
        <time>2019-06-26T12:41:04Z</time>
      </trkpt>
      <trkpt lat="46.77383" lon="6.45766">
        <ele>1302</ele>
        <time>2019-06-26T12:41:18Z</time>
      </trkpt>
      <trkpt lat="46.77374" lon="6.45762">
        <ele>1303</ele>
        <time>2019-06-26T12:41:26Z</time>
      </trkpt>
      <trkpt lat="46.77369" lon="6.45759">
        <ele>1303</ele>
        <time>2019-06-26T12:41:30Z</time>
      </trkpt>
      <trkpt lat="46.77365" lon="6.45756">
        <ele>1303</ele>
        <time>2019-06-26T12:41:34Z</time>
      </trkpt>
      <trkpt lat="46.7736" lon="6.45753">
        <ele>1302</ele>
        <time>2019-06-26T12:41:38Z</time>
      </trkpt>
      <trkpt lat="46.77356" lon="6.4575">
        <ele>1303</ele>
        <time>2019-06-26T12:41:42Z</time>
      </trkpt>
      <trkpt lat="46.77352" lon="6.45746">
        <ele>1302</ele>
        <time>2019-06-26T12:41:46Z</time>
      </trkpt>
      <trkpt lat="46.77349" lon="6.45741">
        <ele>1302</ele>
        <time>2019-06-26T12:41:50Z</time>
      </trkpt>
      <trkpt lat="46.77346" lon="6.45734">
        <ele>1301</ele>
        <time>2019-06-26T12:41:55Z</time>
      </trkpt>
      <trkpt lat="46.77313" lon="6.45691">
        <ele>1295</ele>
        <time>2019-06-26T12:42:33Z</time>
      </trkpt>
      <trkpt lat="46.77306" lon="6.45681">
        <ele>1294</ele>
        <time>2019-06-26T12:42:41Z</time>
      </trkpt>
      <trkpt lat="46.77296" lon="6.45669">
        <ele>1293</ele>
        <time>2019-06-26T12:42:53Z</time>
      </trkpt>
      <trkpt lat="46.77289" lon="6.4566">
        <ele>1294</ele>
        <time>2019-06-26T12:43:01Z</time>
      </trkpt>
      <trkpt lat="46.77273" lon="6.45644">
        <ele>1291</ele>
        <time>2019-06-26T12:43:18Z</time>
      </trkpt>
      <trkpt lat="46.77264" lon="6.45641">
        <ele>1290</ele>
        <time>2019-06-26T12:43:25Z</time>
      </trkpt>
      <trkpt lat="46.77256" lon="6.45636">
        <ele>1287</ele>
        <time>2019-06-26T12:43:34Z</time>
      </trkpt>
      <trkpt lat="46.77246" lon="6.4564">
        <ele>1284</ele>
        <time>2019-06-26T12:44:12Z</time>
      </trkpt>
      <trkpt lat="46.77236" lon="6.4564">
        <ele>1281</ele>
        <time>2019-06-26T12:44:29Z</time>
      </trkpt>
      <trkpt lat="46.77216" lon="6.45637">
        <ele>1279</ele>
        <time>2019-06-26T12:44:47Z</time>
      </trkpt>
      <trkpt lat="46.77207" lon="6.45631">
        <ele>1278</ele>
        <time>2019-06-26T12:44:56Z</time>
      </trkpt>
      <trkpt lat="46.77198" lon="6.45633">
        <ele>1276</ele>
        <time>2019-06-26T12:45:05Z</time>
      </trkpt>
      <trkpt lat="46.77201" lon="6.45618">
        <ele>1274</ele>
        <time>2019-06-26T12:45:19Z</time>
      </trkpt>
      <trkpt lat="46.77199" lon="6.45604">
        <ele>1274</ele>
        <time>2019-06-26T12:45:28Z</time>
      </trkpt>
      <trkpt lat="46.77188" lon="6.45572">
        <ele>1272</ele>
        <time>2019-06-26T12:45:54Z</time>
      </trkpt>
      <trkpt lat="46.77182" lon="6.45561">
        <ele>1271</ele>
        <time>2019-06-26T12:46:04Z</time>
      </trkpt>
      <trkpt lat="46.77176" lon="6.4555">
        <ele>1269</ele>
        <time>2019-06-26T12:46:11Z</time>
      </trkpt>
      <trkpt lat="46.77172" lon="6.45538">
        <ele>1268</ele>
        <time>2019-06-26T12:46:18Z</time>
      </trkpt>
      <trkpt lat="46.77164" lon="6.45529">
        <ele>1264</ele>
        <time>2019-06-26T12:46:26Z</time>
      </trkpt>
      <trkpt lat="46.77162" lon="6.45514">
        <ele>1264</ele>
        <time>2019-06-26T12:46:40Z</time>
      </trkpt>
      <trkpt lat="46.77164" lon="6.45492">
        <ele>1261</ele>
        <time>2019-06-26T12:46:56Z</time>
      </trkpt>
      <trkpt lat="46.77163" lon="6.45478">
        <ele>1262</ele>
        <time>2019-06-26T12:47:10Z</time>
      </trkpt>
      <trkpt lat="46.77178" lon="6.45471">
        <ele>1260</ele>
        <time>2019-06-26T12:47:31Z</time>
      </trkpt>
      <trkpt lat="46.77185" lon="6.45462">
        <ele>1260</ele>
        <time>2019-06-26T12:47:39Z</time>
      </trkpt>
      <trkpt lat="46.77191" lon="6.45451">
        <ele>1260</ele>
        <time>2019-06-26T12:47:47Z</time>
      </trkpt>
      <trkpt lat="46.77199" lon="6.45444">
        <ele>1258</ele>
        <time>2019-06-26T12:47:55Z</time>
      </trkpt>
      <trkpt lat="46.77209" lon="6.45443">
        <ele>1258</ele>
        <time>2019-06-26T12:48:04Z</time>
      </trkpt>
      <trkpt lat="46.77218" lon="6.45442">
        <ele>1256</ele>
        <time>2019-06-26T12:48:12Z</time>
      </trkpt>
      <trkpt lat="46.77227" lon="6.45439">
        <ele>1257</ele>
        <time>2019-06-26T12:48:20Z</time>
      </trkpt>
      <trkpt lat="46.77237" lon="6.45436">
        <ele>1255</ele>
        <time>2019-06-26T12:48:29Z</time>
      </trkpt>
      <trkpt lat="46.77246" lon="6.45436">
        <ele>1254</ele>
        <time>2019-06-26T12:48:38Z</time>
      </trkpt>
      <trkpt lat="46.77255" lon="6.45434">
        <ele>1253</ele>
        <time>2019-06-26T12:48:54Z</time>
      </trkpt>
      <trkpt lat="46.77264" lon="6.45427">
        <ele>1254</ele>
        <time>2019-06-26T12:49:44Z</time>
      </trkpt>
      <trkpt lat="46.77256" lon="6.45418">
        <ele>1244</ele>
        <time>2019-06-26T12:51:03Z</time>
      </trkpt>
      <trkpt lat="46.77274" lon="6.45418">
        <ele>1256</ele>
        <time>2019-06-26T12:52:57Z</time>
      </trkpt>
      <trkpt lat="46.77283" lon="6.4542">
        <ele>1252</ele>
        <time>2019-06-26T12:53:06Z</time>
      </trkpt>
      <trkpt lat="46.77292" lon="6.45413">
        <ele>1249</ele>
        <time>2019-06-26T12:53:14Z</time>
      </trkpt>
      <trkpt lat="46.77301" lon="6.45413">
        <ele>1247</ele>
        <time>2019-06-26T12:53:23Z</time>
      </trkpt>
      <trkpt lat="46.77312" lon="6.45411">
        <ele>1247</ele>
        <time>2019-06-26T12:53:38Z</time>
      </trkpt>
      <trkpt lat="46.77324" lon="6.454">
        <ele>1244</ele>
        <time>2019-06-26T12:53:53Z</time>
      </trkpt>
      <trkpt lat="46.7734" lon="6.45382">
        <ele>1242</ele>
        <time>2019-06-26T12:54:09Z</time>
      </trkpt>
      <trkpt lat="46.77348" lon="6.45376">
        <ele>1243</ele>
        <time>2019-06-26T12:54:14Z</time>
      </trkpt>
      <trkpt lat="46.77352" lon="6.45365">
        <ele>1240</ele>
        <time>2019-06-26T12:54:24Z</time>
      </trkpt>
      <trkpt lat="46.77365" lon="6.45355">
        <ele>1243</ele>
        <time>2019-06-26T12:54:45Z</time>
      </trkpt>
      <trkpt lat="46.77378" lon="6.45355">
        <ele>1242</ele>
        <time>2019-06-26T12:55:04Z</time>
      </trkpt>
      <trkpt lat="46.77388" lon="6.45347">
        <ele>1240</ele>
        <time>2019-06-26T12:55:18Z</time>
      </trkpt>
      <trkpt lat="46.77395" lon="6.45338">
        <ele>1239</ele>
        <time>2019-06-26T12:55:28Z</time>
      </trkpt>
      <trkpt lat="46.77403" lon="6.45324">
        <ele>1235</ele>
        <time>2019-06-26T12:55:58Z</time>
      </trkpt>
      <trkpt lat="46.77408" lon="6.45303">
        <ele>1232</ele>
        <time>2019-06-26T12:56:36Z</time>
      </trkpt>
      <trkpt lat="46.77409" lon="6.4529">
        <ele>1229</ele>
        <time>2019-06-26T12:56:48Z</time>
      </trkpt>
      <trkpt lat="46.77403" lon="6.45273">
        <ele>1226</ele>
        <time>2019-06-26T12:57:08Z</time>
      </trkpt>
      <trkpt lat="46.7741" lon="6.45263">
        <ele>1226</ele>
        <time>2019-06-26T12:57:17Z</time>
      </trkpt>
      <trkpt lat="46.77415" lon="6.45253">
        <ele>1227</ele>
        <time>2019-06-26T12:57:27Z</time>
      </trkpt>
      <trkpt lat="46.77412" lon="6.45233">
        <ele>1225</ele>
        <time>2019-06-26T12:57:50Z</time>
      </trkpt>
      <trkpt lat="46.77421" lon="6.45232">
        <ele>1228</ele>
        <time>2019-06-26T12:58:10Z</time>
      </trkpt>
      <trkpt lat="46.77426" lon="6.45217">
        <ele>1229</ele>
        <time>2019-06-26T12:58:34Z</time>
      </trkpt>
      <trkpt lat="46.77437" lon="6.45211">
        <ele>1228</ele>
        <time>2019-06-26T12:59:09Z</time>
      </trkpt>
      <trkpt lat="46.77436" lon="6.452">
        <ele>1221</ele>
        <time>2019-06-26T13:00:04Z</time>
      </trkpt>
      <trkpt lat="46.77423" lon="6.45197">
        <ele>1216</ele>
        <time>2019-06-26T13:00:38Z</time>
      </trkpt>
      <trkpt lat="46.77418" lon="6.45211">
        <ele>1216</ele>
        <time>2019-06-26T13:00:53Z</time>
      </trkpt>
      <trkpt lat="46.77408" lon="6.45207">
        <ele>1216</ele>
        <time>2019-06-26T13:00:57Z</time>
      </trkpt>
      <trkpt lat="46.77427" lon="6.45201">
        <ele>1213</ele>
        <time>2019-06-26T13:01:59Z</time>
      </trkpt>
      <trkpt lat="46.77436" lon="6.45201">
        <ele>1215</ele>
        <time>2019-06-26T13:02:06Z</time>
      </trkpt>
      <trkpt lat="46.77445" lon="6.45197">
        <ele>1215</ele>
        <time>2019-06-26T13:02:21Z</time>
      </trkpt>
      <trkpt lat="46.77457" lon="6.45182">
        <ele>1213</ele>
        <time>2019-06-26T13:02:41Z</time>
      </trkpt>
      <trkpt lat="46.7746" lon="6.45168">
        <ele>1213</ele>
        <time>2019-06-26T13:02:46Z</time>
      </trkpt>
      <trkpt lat="46.77459" lon="6.45154">
        <ele>1214</ele>
        <time>2019-06-26T13:02:53Z</time>
      </trkpt>
      <trkpt lat="46.7746" lon="6.45124">
        <ele>1212</ele>
        <time>2019-06-26T13:03:16Z</time>
      </trkpt>
      <trkpt lat="46.77464" lon="6.45109">
        <ele>1208</ele>
        <time>2019-06-26T13:03:34Z</time>
      </trkpt>
      <trkpt lat="46.77468" lon="6.45093">
        <ele>1207</ele>
        <time>2019-06-26T13:03:48Z</time>
      </trkpt>
      <trkpt lat="46.77475" lon="6.45084">
        <ele>1207</ele>
        <time>2019-06-26T13:03:57Z</time>
      </trkpt>
      <trkpt lat="46.77476" lon="6.45071">
        <ele>1206</ele>
        <time>2019-06-26T13:04:07Z</time>
      </trkpt>
      <trkpt lat="46.77481" lon="6.45055">
        <ele>1202</ele>
        <time>2019-06-26T13:04:16Z</time>
      </trkpt>
      <trkpt lat="46.77491" lon="6.45033">
        <ele>1203</ele>
        <time>2019-06-26T13:04:32Z</time>
      </trkpt>
      <trkpt lat="46.775" lon="6.45004">
        <ele>1201</ele>
        <time>2019-06-26T13:04:52Z</time>
      </trkpt>
      <trkpt lat="46.77503" lon="6.44991">
        <ele>1201</ele>
        <time>2019-06-26T13:05:01Z</time>
      </trkpt>
      <trkpt lat="46.77509" lon="6.4498">
        <ele>1199</ele>
        <time>2019-06-26T13:05:09Z</time>
      </trkpt>
      <trkpt lat="46.77512" lon="6.44953">
        <ele>1197</ele>
        <time>2019-06-26T13:05:24Z</time>
      </trkpt>
      <trkpt lat="46.77509" lon="6.44924">
        <ele>1192</ele>
        <time>2019-06-26T13:05:41Z</time>
      </trkpt>
      <trkpt lat="46.77504" lon="6.44895">
        <ele>1191</ele>
        <time>2019-06-26T13:05:55Z</time>
      </trkpt>
      <trkpt lat="46.77498" lon="6.4487">
        <ele>1190</ele>
        <time>2019-06-26T13:06:16Z</time>
      </trkpt>
      <trkpt lat="46.77488" lon="6.44835">
        <ele>1184</ele>
        <time>2019-06-26T13:06:59Z</time>
      </trkpt>
      <trkpt lat="46.77483" lon="6.44808">
        <ele>1181</ele>
        <time>2019-06-26T13:07:17Z</time>
      </trkpt>
      <trkpt lat="46.77478" lon="6.44797">
        <ele>1177</ele>
        <time>2019-06-26T13:07:32Z</time>
      </trkpt>
      <trkpt lat="46.77474" lon="6.4478">
        <ele>1174</ele>
        <time>2019-06-26T13:07:48Z</time>
      </trkpt>
      <trkpt lat="46.77469" lon="6.44754">
        <ele>1174</ele>
        <time>2019-06-26T13:08:03Z</time>
      </trkpt>
      <trkpt lat="46.77468" lon="6.44739">
        <ele>1173</ele>
        <time>2019-06-26T13:08:11Z</time>
      </trkpt>
      <trkpt lat="46.77469" lon="6.4472">
        <ele>1172</ele>
        <time>2019-06-26T13:08:27Z</time>
      </trkpt>
      <trkpt lat="46.77464" lon="6.44708">
        <ele>1168</ele>
        <time>2019-06-26T13:08:42Z</time>
      </trkpt>
      <trkpt lat="46.77465" lon="6.44688">
        <ele>1168</ele>
        <time>2019-06-26T13:08:57Z</time>
      </trkpt>
      <trkpt lat="46.77463" lon="6.44672">
        <ele>1166</ele>
        <time>2019-06-26T13:09:08Z</time>
      </trkpt>
      <trkpt lat="46.77463" lon="6.44644">
        <ele>1160</ele>
        <time>2019-06-26T13:09:25Z</time>
      </trkpt>
      <trkpt lat="46.77461" lon="6.4463">
        <ele>1158</ele>
        <time>2019-06-26T13:09:34Z</time>
      </trkpt>
      <trkpt lat="46.77462" lon="6.44576">
        <ele>1151</ele>
        <time>2019-06-26T13:10:10Z</time>
      </trkpt>
      <trkpt lat="46.77464" lon="6.44562">
        <ele>1149</ele>
        <time>2019-06-26T13:10:19Z</time>
      </trkpt>
      <trkpt lat="46.77452" lon="6.44517">
        <ele>1141</ele>
        <time>2019-06-26T13:10:50Z</time>
      </trkpt>
      <trkpt lat="46.77449" lon="6.44456">
        <ele>1136</ele>
        <time>2019-06-26T13:11:28Z</time>
      </trkpt>
      <trkpt lat="46.77446" lon="6.44443">
        <ele>1133</ele>
        <time>2019-06-26T13:11:37Z</time>
      </trkpt>
      <trkpt lat="46.77447" lon="6.44429">
        <ele>1131</ele>
        <time>2019-06-26T13:11:45Z</time>
      </trkpt>
      <trkpt lat="46.77448" lon="6.44415">
        <ele>1131</ele>
        <time>2019-06-26T13:11:54Z</time>
      </trkpt>
      <trkpt lat="46.77447" lon="6.444">
        <ele>1129</ele>
        <time>2019-06-26T13:12:02Z</time>
      </trkpt>
      <trkpt lat="46.77443" lon="6.44386">
        <ele>1125</ele>
        <time>2019-06-26T13:12:11Z</time>
      </trkpt>
      <trkpt lat="46.77438" lon="6.4438">
        <ele>1124</ele>
        <time>2019-06-26T13:12:19Z</time>
      </trkpt>
      <trkpt lat="46.77435" lon="6.44375">
        <ele>1124</ele>
        <time>2019-06-26T13:12:23Z</time>
      </trkpt>
      <trkpt lat="46.77422" lon="6.44356">
        <ele>1121</ele>
        <time>2019-06-26T13:12:37Z</time>
      </trkpt>
      <trkpt lat="46.77419" lon="6.4435">
        <ele>1121</ele>
        <time>2019-06-26T13:12:41Z</time>
      </trkpt>
      <trkpt lat="46.77416" lon="6.44344">
        <ele>1122</ele>
        <time>2019-06-26T13:12:45Z</time>
      </trkpt>
      <trkpt lat="46.77412" lon="6.44339">
        <ele>1120</ele>
        <time>2019-06-26T13:12:49Z</time>
      </trkpt>
      <trkpt lat="46.77407" lon="6.44334">
        <ele>1120</ele>
        <time>2019-06-26T13:12:56Z</time>
      </trkpt>
      <trkpt lat="46.77402" lon="6.44331">
        <ele>1120</ele>
        <time>2019-06-26T13:13:01Z</time>
      </trkpt>
      <trkpt lat="46.77389" lon="6.44318">
        <ele>1116</ele>
        <time>2019-06-26T13:13:44Z</time>
      </trkpt>
      <trkpt lat="46.77382" lon="6.44309">
        <ele>1114</ele>
        <time>2019-06-26T13:13:52Z</time>
      </trkpt>
      <trkpt lat="46.77377" lon="6.44298">
        <ele>1113</ele>
        <time>2019-06-26T13:13:59Z</time>
      </trkpt>
      <trkpt lat="46.77372" lon="6.44291">
        <ele>1114</ele>
        <time>2019-06-26T13:14:04Z</time>
      </trkpt>
      <trkpt lat="46.77369" lon="6.44285">
        <ele>1114</ele>
        <time>2019-06-26T13:14:08Z</time>
      </trkpt>
      <trkpt lat="46.77366" lon="6.4428">
        <ele>1112</ele>
        <time>2019-06-26T13:14:13Z</time>
      </trkpt>
      <trkpt lat="46.77363" lon="6.4427">
        <ele>1112</ele>
        <time>2019-06-26T13:14:20Z</time>
      </trkpt>
      <trkpt lat="46.77356" lon="6.4426">
        <ele>1110</ele>
        <time>2019-06-26T13:14:28Z</time>
      </trkpt>
      <trkpt lat="46.77352" lon="6.44255">
        <ele>1110</ele>
        <time>2019-06-26T13:14:32Z</time>
      </trkpt>
      <trkpt lat="46.77348" lon="6.44248">
        <ele>1109</ele>
        <time>2019-06-26T13:14:36Z</time>
      </trkpt>
      <trkpt lat="46.77346" lon="6.44241">
        <ele>1109</ele>
        <time>2019-06-26T13:14:40Z</time>
      </trkpt>
      <trkpt lat="46.77344" lon="6.44236">
        <ele>1109</ele>
        <time>2019-06-26T13:14:44Z</time>
      </trkpt>
      <trkpt lat="46.77338" lon="6.44223">
        <ele>1108</ele>
        <time>2019-06-26T13:14:53Z</time>
      </trkpt>
      <trkpt lat="46.77332" lon="6.44211">
        <ele>1108</ele>
        <time>2019-06-26T13:15:01Z</time>
      </trkpt>
      <trkpt lat="46.77329" lon="6.44205">
        <ele>1108</ele>
        <time>2019-06-26T13:15:05Z</time>
      </trkpt>
      <trkpt lat="46.77326" lon="6.442">
        <ele>1108</ele>
        <time>2019-06-26T13:15:09Z</time>
      </trkpt>
      <trkpt lat="46.77312" lon="6.44178">
        <ele>1106</ele>
        <time>2019-06-26T13:15:26Z</time>
      </trkpt>
      <trkpt lat="46.7731" lon="6.44172">
        <ele>1107</ele>
        <time>2019-06-26T13:15:30Z</time>
      </trkpt>
      <trkpt lat="46.773" lon="6.44154">
        <ele>1106</ele>
        <time>2019-06-26T13:15:43Z</time>
      </trkpt>
      <trkpt lat="46.77294" lon="6.44142">
        <ele>1106</ele>
        <time>2019-06-26T13:15:51Z</time>
      </trkpt>
      <trkpt lat="46.77291" lon="6.44136">
        <ele>1106</ele>
        <time>2019-06-26T13:15:55Z</time>
      </trkpt>
      <trkpt lat="46.77288" lon="6.4413">
        <ele>1106</ele>
        <time>2019-06-26T13:15:59Z</time>
      </trkpt>
      <trkpt lat="46.77283" lon="6.44127">
        <ele>1106</ele>
        <time>2019-06-26T13:16:03Z</time>
      </trkpt>
      <trkpt lat="46.7728" lon="6.44122">
        <ele>1106</ele>
        <time>2019-06-26T13:16:07Z</time>
      </trkpt>
      <trkpt lat="46.77269" lon="6.44108">
        <ele>1106</ele>
        <time>2019-06-26T13:16:18Z</time>
      </trkpt>
      <trkpt lat="46.77261" lon="6.44099">
        <ele>1105</ele>
        <time>2019-06-26T13:16:26Z</time>
      </trkpt>
      <trkpt lat="46.77247" lon="6.4408">
        <ele>1106</ele>
        <time>2019-06-26T13:16:42Z</time>
      </trkpt>
      <trkpt lat="46.7724" lon="6.44072">
        <ele>1104</ele>
        <time>2019-06-26T13:16:50Z</time>
      </trkpt>
      <trkpt lat="46.77236" lon="6.44068">
        <ele>1104</ele>
        <time>2019-06-26T13:16:54Z</time>
      </trkpt>
      <trkpt lat="46.77231" lon="6.44062">
        <ele>1103</ele>
        <time>2019-06-26T13:17:04Z</time>
      </trkpt>
      <trkpt lat="46.77221" lon="6.44044">
        <ele>1101</ele>
        <time>2019-06-26T13:17:16Z</time>
      </trkpt>
      <trkpt lat="46.77218" lon="6.44037">
        <ele>1101</ele>
        <time>2019-06-26T13:17:20Z</time>
      </trkpt>
      <trkpt lat="46.772" lon="6.44009">
        <ele>1097</ele>
        <time>2019-06-26T13:17:44Z</time>
      </trkpt>
      <trkpt lat="46.77192" lon="6.44002">
        <ele>1097</ele>
        <time>2019-06-26T13:17:53Z</time>
      </trkpt>
      <trkpt lat="46.77188" lon="6.43997">
        <ele>1096</ele>
        <time>2019-06-26T13:17:58Z</time>
      </trkpt>
      <trkpt lat="46.77183" lon="6.43992">
        <ele>1097</ele>
        <time>2019-06-26T13:18:03Z</time>
      </trkpt>
      <trkpt lat="46.77167" lon="6.43974">
        <ele>1096</ele>
        <time>2019-06-26T13:18:19Z</time>
      </trkpt>
      <trkpt lat="46.77164" lon="6.43969">
        <ele>1096</ele>
        <time>2019-06-26T13:18:23Z</time>
      </trkpt>
      <trkpt lat="46.7716" lon="6.43964">
        <ele>1096</ele>
        <time>2019-06-26T13:18:27Z</time>
      </trkpt>
      <trkpt lat="46.77151" lon="6.43956">
        <ele>1095</ele>
        <time>2019-06-26T13:18:36Z</time>
      </trkpt>
      <trkpt lat="46.77138" lon="6.43943">
        <ele>1096</ele>
        <time>2019-06-26T13:18:47Z</time>
      </trkpt>
      <trkpt lat="46.77134" lon="6.43941">
        <ele>1095</ele>
        <time>2019-06-26T13:18:51Z</time>
      </trkpt>
      <trkpt lat="46.77124" lon="6.43941">
        <ele>1095</ele>
        <time>2019-06-26T13:18:59Z</time>
      </trkpt>
      <trkpt lat="46.77119" lon="6.43943">
        <ele>1095</ele>
        <time>2019-06-26T13:19:03Z</time>
      </trkpt>
      <trkpt lat="46.77114" lon="6.43944">
        <ele>1094</ele>
        <time>2019-06-26T13:19:07Z</time>
      </trkpt>
      <trkpt lat="46.77109" lon="6.43944">
        <ele>1095</ele>
        <time>2019-06-26T13:19:11Z</time>
      </trkpt>
      <trkpt lat="46.77105" lon="6.4394">
        <ele>1095</ele>
        <time>2019-06-26T13:19:15Z</time>
      </trkpt>
      <trkpt lat="46.77102" lon="6.43935">
        <ele>1095</ele>
        <time>2019-06-26T13:19:19Z</time>
      </trkpt>
      <trkpt lat="46.771" lon="6.43928">
        <ele>1094</ele>
        <time>2019-06-26T13:19:24Z</time>
      </trkpt>
      <trkpt lat="46.77096" lon="6.43898">
        <ele>1093</ele>
        <time>2019-06-26T13:19:41Z</time>
      </trkpt>
      <trkpt lat="46.77093" lon="6.43876">
        <ele>1090</ele>
        <time>2019-06-26T13:19:55Z</time>
      </trkpt>
      <trkpt lat="46.77091" lon="6.43869">
        <ele>1089</ele>
        <time>2019-06-26T13:19:59Z</time>
      </trkpt>
      <trkpt lat="46.77089" lon="6.43862">
        <ele>1089</ele>
        <time>2019-06-26T13:20:03Z</time>
      </trkpt>
      <trkpt lat="46.77088" lon="6.43855">
        <ele>1089</ele>
        <time>2019-06-26T13:20:07Z</time>
      </trkpt>
      <trkpt lat="46.77086" lon="6.43849">
        <ele>1089</ele>
        <time>2019-06-26T13:20:11Z</time>
      </trkpt>
      <trkpt lat="46.77079" lon="6.43828">
        <ele>1087</ele>
        <time>2019-06-26T13:20:23Z</time>
      </trkpt>
      <trkpt lat="46.77077" lon="6.43821">
        <ele>1087</ele>
        <time>2019-06-26T13:20:27Z</time>
      </trkpt>
      <trkpt lat="46.77074" lon="6.43815">
        <ele>1087</ele>
        <time>2019-06-26T13:20:31Z</time>
      </trkpt>
      <trkpt lat="46.77071" lon="6.43809">
        <ele>1087</ele>
        <time>2019-06-26T13:20:35Z</time>
      </trkpt>
      <trkpt lat="46.77068" lon="6.43803">
        <ele>1087</ele>
        <time>2019-06-26T13:20:39Z</time>
      </trkpt>
      <trkpt lat="46.77065" lon="6.43796">
        <ele>1086</ele>
        <time>2019-06-26T13:20:43Z</time>
      </trkpt>
      <trkpt lat="46.77062" lon="6.43791">
        <ele>1087</ele>
        <time>2019-06-26T13:20:46Z</time>
      </trkpt>
      <trkpt lat="46.77057" lon="6.4378">
        <ele>1086</ele>
        <time>2019-06-26T13:20:53Z</time>
      </trkpt>
      <trkpt lat="46.77051" lon="6.43767">
        <ele>1085</ele>
        <time>2019-06-26T13:21:02Z</time>
      </trkpt>
      <trkpt lat="46.77049" lon="6.43761">
        <ele>1085</ele>
        <time>2019-06-26T13:21:06Z</time>
      </trkpt>
      <trkpt lat="46.77042" lon="6.43713">
        <ele>1079</ele>
        <time>2019-06-26T13:21:38Z</time>
      </trkpt>
      <trkpt lat="46.77041" lon="6.43655">
        <ele>1075</ele>
        <time>2019-06-26T13:22:11Z</time>
      </trkpt>
      <trkpt lat="46.7704" lon="6.43648">
        <ele>1075</ele>
        <time>2019-06-26T13:22:15Z</time>
      </trkpt>
      <trkpt lat="46.77035" lon="6.43627">
        <ele>1072</ele>
        <time>2019-06-26T13:22:28Z</time>
      </trkpt>
      <trkpt lat="46.77032" lon="6.43621">
        <ele>1072</ele>
        <time>2019-06-26T13:22:32Z</time>
      </trkpt>
      <trkpt lat="46.77027" lon="6.43601">
        <ele>1069</ele>
        <time>2019-06-26T13:22:45Z</time>
      </trkpt>
      <trkpt lat="46.77026" lon="6.43594">
        <ele>1069</ele>
        <time>2019-06-26T13:22:49Z</time>
      </trkpt>
      <trkpt lat="46.77024" lon="6.43579">
        <ele>1069</ele>
        <time>2019-06-26T13:22:57Z</time>
      </trkpt>
      <trkpt lat="46.77024" lon="6.43571">
        <ele>1068</ele>
        <time>2019-06-26T13:23:01Z</time>
      </trkpt>
      <trkpt lat="46.77026" lon="6.43556">
        <ele>1067</ele>
        <time>2019-06-26T13:23:09Z</time>
      </trkpt>
      <trkpt lat="46.77026" lon="6.43549">
        <ele>1066</ele>
        <time>2019-06-26T13:23:14Z</time>
      </trkpt>
      <trkpt lat="46.77025" lon="6.43541">
        <ele>1066</ele>
        <time>2019-06-26T13:23:18Z</time>
      </trkpt>
      <trkpt lat="46.77025" lon="6.43534">
        <ele>1066</ele>
        <time>2019-06-26T13:23:22Z</time>
      </trkpt>
      <trkpt lat="46.77024" lon="6.43527">
        <ele>1064</ele>
        <time>2019-06-26T13:23:26Z</time>
      </trkpt>
      <trkpt lat="46.77023" lon="6.4352">
        <ele>1064</ele>
        <time>2019-06-26T13:23:30Z</time>
      </trkpt>
      <trkpt lat="46.77019" lon="6.43507">
        <ele>1062</ele>
        <time>2019-06-26T13:23:38Z</time>
      </trkpt>
      <trkpt lat="46.77015" lon="6.43483">
        <ele>1063</ele>
        <time>2019-06-26T13:23:50Z</time>
      </trkpt>
      <trkpt lat="46.77015" lon="6.43476">
        <ele>1063</ele>
        <time>2019-06-26T13:23:54Z</time>
      </trkpt>
      <trkpt lat="46.77015" lon="6.43469">
        <ele>1062</ele>
        <time>2019-06-26T13:23:58Z</time>
      </trkpt>
      <trkpt lat="46.77014" lon="6.43462">
        <ele>1062</ele>
        <time>2019-06-26T13:24:02Z</time>
      </trkpt>
      <trkpt lat="46.77015" lon="6.43454">
        <ele>1063</ele>
        <time>2019-06-26T13:24:07Z</time>
      </trkpt>
      <trkpt lat="46.77014" lon="6.4344">
        <ele>1063</ele>
        <time>2019-06-26T13:24:15Z</time>
      </trkpt>
      <trkpt lat="46.77013" lon="6.43433">
        <ele>1063</ele>
        <time>2019-06-26T13:24:19Z</time>
      </trkpt>
      <trkpt lat="46.77011" lon="6.43417">
        <ele>1063</ele>
        <time>2019-06-26T13:24:27Z</time>
      </trkpt>
      <trkpt lat="46.77009" lon="6.4341">
        <ele>1063</ele>
        <time>2019-06-26T13:24:31Z</time>
      </trkpt>
      <trkpt lat="46.77005" lon="6.43388">
        <ele>1065</ele>
        <time>2019-06-26T13:24:43Z</time>
      </trkpt>
      <trkpt lat="46.77003" lon="6.43381">
        <ele>1064</ele>
        <time>2019-06-26T13:24:47Z</time>
      </trkpt>
      <trkpt lat="46.77001" lon="6.43374">
        <ele>1065</ele>
        <time>2019-06-26T13:24:51Z</time>
      </trkpt>
      <trkpt lat="46.76996" lon="6.43352">
        <ele>1063</ele>
        <time>2019-06-26T13:25:04Z</time>
      </trkpt>
      <trkpt lat="46.76994" lon="6.43346">
        <ele>1063</ele>
        <time>2019-06-26T13:25:08Z</time>
      </trkpt>
      <trkpt lat="46.76991" lon="6.4334">
        <ele>1064</ele>
        <time>2019-06-26T13:25:12Z</time>
      </trkpt>
      <trkpt lat="46.76989" lon="6.43334">
        <ele>1064</ele>
        <time>2019-06-26T13:25:15Z</time>
      </trkpt>
      <trkpt lat="46.76987" lon="6.43328">
        <ele>1064</ele>
        <time>2019-06-26T13:25:20Z</time>
      </trkpt>
      <trkpt lat="46.76985" lon="6.43318">
        <ele>1062</ele>
        <time>2019-06-26T13:25:38Z</time>
      </trkpt>
      <trkpt lat="46.76983" lon="6.43311">
        <ele>1062</ele>
        <time>2019-06-26T13:25:43Z</time>
      </trkpt>
      <trkpt lat="46.7698" lon="6.43305">
        <ele>1061</ele>
        <time>2019-06-26T13:25:47Z</time>
      </trkpt>
      <trkpt lat="46.76977" lon="6.43299">
        <ele>1061</ele>
        <time>2019-06-26T13:25:50Z</time>
      </trkpt>
      <trkpt lat="46.76974" lon="6.43293">
        <ele>1061</ele>
        <time>2019-06-26T13:25:55Z</time>
      </trkpt>
      <trkpt lat="46.76971" lon="6.43287">
        <ele>1061</ele>
        <time>2019-06-26T13:25:59Z</time>
      </trkpt>
      <trkpt lat="46.76968" lon="6.43273">
        <ele>1062</ele>
        <time>2019-06-26T13:26:07Z</time>
      </trkpt>
      <trkpt lat="46.76963" lon="6.4326">
        <ele>1062</ele>
        <time>2019-06-26T13:26:14Z</time>
      </trkpt>
      <trkpt lat="46.7696" lon="6.43253">
        <ele>1062</ele>
        <time>2019-06-26T13:26:18Z</time>
      </trkpt>
      <trkpt lat="46.76955" lon="6.43242">
        <ele>1063</ele>
        <time>2019-06-26T13:26:26Z</time>
      </trkpt>
      <trkpt lat="46.76952" lon="6.43234">
        <ele>1064</ele>
        <time>2019-06-26T13:26:30Z</time>
      </trkpt>
      <trkpt lat="46.76949" lon="6.43228">
        <ele>1064</ele>
        <time>2019-06-26T13:26:34Z</time>
      </trkpt>
      <trkpt lat="46.76931" lon="6.43191">
        <ele>1066</ele>
        <time>2019-06-26T13:26:57Z</time>
      </trkpt>
      <trkpt lat="46.76928" lon="6.43184">
        <ele>1066</ele>
        <time>2019-06-26T13:27:01Z</time>
      </trkpt>
      <trkpt lat="46.76919" lon="6.43167">
        <ele>1067</ele>
        <time>2019-06-26T13:27:13Z</time>
      </trkpt>
      <trkpt lat="46.76916" lon="6.43162">
        <ele>1067</ele>
        <time>2019-06-26T13:27:17Z</time>
      </trkpt>
      <trkpt lat="46.76913" lon="6.43156">
        <ele>1067</ele>
        <time>2019-06-26T13:27:21Z</time>
      </trkpt>
      <trkpt lat="46.76906" lon="6.43144">
        <ele>1067</ele>
        <time>2019-06-26T13:27:29Z</time>
      </trkpt>
      <trkpt lat="46.76902" lon="6.43139">
        <ele>1066</ele>
        <time>2019-06-26T13:27:33Z</time>
      </trkpt>
      <trkpt lat="46.76899" lon="6.43134">
        <ele>1067</ele>
        <time>2019-06-26T13:27:37Z</time>
      </trkpt>
      <trkpt lat="46.76896" lon="6.43127">
        <ele>1067</ele>
        <time>2019-06-26T13:27:41Z</time>
      </trkpt>
      <trkpt lat="46.76893" lon="6.43121">
        <ele>1067</ele>
        <time>2019-06-26T13:27:45Z</time>
      </trkpt>
      <trkpt lat="46.76889" lon="6.43115">
        <ele>1067</ele>
        <time>2019-06-26T13:27:49Z</time>
      </trkpt>
      <trkpt lat="46.76884" lon="6.4311">
        <ele>1065</ele>
        <time>2019-06-26T13:27:56Z</time>
      </trkpt>
      <trkpt lat="46.76866" lon="6.43079">
        <ele>1067</ele>
        <time>2019-06-26T13:28:17Z</time>
      </trkpt>
      <trkpt lat="46.76862" lon="6.43074">
        <ele>1067</ele>
        <time>2019-06-26T13:28:21Z</time>
      </trkpt>
      <trkpt lat="46.76856" lon="6.43062">
        <ele>1067</ele>
        <time>2019-06-26T13:28:28Z</time>
      </trkpt>
      <trkpt lat="46.76853" lon="6.43055">
        <ele>1067</ele>
        <time>2019-06-26T13:28:32Z</time>
      </trkpt>
      <trkpt lat="46.7685" lon="6.43049">
        <ele>1068</ele>
        <time>2019-06-26T13:28:36Z</time>
      </trkpt>
      <trkpt lat="46.76844" lon="6.43038">
        <ele>1067</ele>
        <time>2019-06-26T13:28:44Z</time>
      </trkpt>
      <trkpt lat="46.76841" lon="6.43032">
        <ele>1068</ele>
        <time>2019-06-26T13:28:48Z</time>
      </trkpt>
      <trkpt lat="46.76838" lon="6.43026">
        <ele>1068</ele>
        <time>2019-06-26T13:28:52Z</time>
      </trkpt>
      <trkpt lat="46.76831" lon="6.43015">
        <ele>1068</ele>
        <time>2019-06-26T13:29:01Z</time>
      </trkpt>
      <trkpt lat="46.76811" lon="6.42979">
        <ele>1069</ele>
        <time>2019-06-26T13:38:19Z</time>
      </trkpt>
      <trkpt lat="46.76809" lon="6.42972">
        <ele>1069</ele>
        <time>2019-06-26T13:38:22Z</time>
      </trkpt>
      <trkpt lat="46.76806" lon="6.42965">
        <ele>1069</ele>
        <time>2019-06-26T13:38:26Z</time>
      </trkpt>
      <trkpt lat="46.76804" lon="6.42959">
        <ele>1070</ele>
        <time>2019-06-26T13:38:30Z</time>
      </trkpt>
      <trkpt lat="46.76799" lon="6.42944">
        <ele>1070</ele>
        <time>2019-06-26T13:38:38Z</time>
      </trkpt>
      <trkpt lat="46.76795" lon="6.42931">
        <ele>1070</ele>
        <time>2019-06-26T13:38:46Z</time>
      </trkpt>
      <trkpt lat="46.76793" lon="6.42924">
        <ele>1069</ele>
        <time>2019-06-26T13:38:50Z</time>
      </trkpt>
      <trkpt lat="46.76788" lon="6.42911">
        <ele>1069</ele>
        <time>2019-06-26T13:38:59Z</time>
      </trkpt>
      <trkpt lat="46.76782" lon="6.42898">
        <ele>1068</ele>
        <time>2019-06-26T13:39:07Z</time>
      </trkpt>
      <trkpt lat="46.76772" lon="6.42881">
        <ele>1070</ele>
        <time>2019-06-26T13:39:19Z</time>
      </trkpt>
      <trkpt lat="46.76768" lon="6.42876">
        <ele>1070</ele>
        <time>2019-06-26T13:39:23Z</time>
      </trkpt>
      <trkpt lat="46.76758" lon="6.4286">
        <ele>1072</ele>
        <time>2019-06-26T13:39:35Z</time>
      </trkpt>
      <trkpt lat="46.76754" lon="6.42852">
        <ele>1072</ele>
        <time>2019-06-26T13:39:39Z</time>
      </trkpt>
      <trkpt lat="46.76752" lon="6.42846">
        <ele>1072</ele>
        <time>2019-06-26T13:39:43Z</time>
      </trkpt>
      <trkpt lat="46.76744" lon="6.42835">
        <ele>1074</ele>
        <time>2019-06-26T13:39:51Z</time>
      </trkpt>
      <trkpt lat="46.76741" lon="6.42831">
        <ele>1073</ele>
        <time>2019-06-26T13:39:55Z</time>
      </trkpt>
      <trkpt lat="46.76738" lon="6.42825">
        <ele>1074</ele>
        <time>2019-06-26T13:39:59Z</time>
      </trkpt>
      <trkpt lat="46.76732" lon="6.42812">
        <ele>1074</ele>
        <time>2019-06-26T13:40:07Z</time>
      </trkpt>
      <trkpt lat="46.76728" lon="6.42807">
        <ele>1073</ele>
        <time>2019-06-26T13:40:12Z</time>
      </trkpt>
      <trkpt lat="46.76725" lon="6.42802">
        <ele>1073</ele>
        <time>2019-06-26T13:40:16Z</time>
      </trkpt>
      <trkpt lat="46.76719" lon="6.42791">
        <ele>1073</ele>
        <time>2019-06-26T13:40:25Z</time>
      </trkpt>
      <trkpt lat="46.76711" lon="6.42779">
        <ele>1072</ele>
        <time>2019-06-26T13:40:35Z</time>
      </trkpt>
      <trkpt lat="46.76699" lon="6.42765">
        <ele>1072</ele>
        <time>2019-06-26T13:40:47Z</time>
      </trkpt>
      <trkpt lat="46.76695" lon="6.42761">
        <ele>1073</ele>
        <time>2019-06-26T13:40:51Z</time>
      </trkpt>
      <trkpt lat="46.7669" lon="6.42756">
        <ele>1074</ele>
        <time>2019-06-26T13:40:55Z</time>
      </trkpt>
      <trkpt lat="46.76686" lon="6.42751">
        <ele>1073</ele>
        <time>2019-06-26T13:40:59Z</time>
      </trkpt>
      <trkpt lat="46.76678" lon="6.42742">
        <ele>1074</ele>
        <time>2019-06-26T13:41:07Z</time>
      </trkpt>
      <trkpt lat="46.76675" lon="6.42737">
        <ele>1073</ele>
        <time>2019-06-26T13:41:11Z</time>
      </trkpt>
      <trkpt lat="46.76671" lon="6.42732">
        <ele>1074</ele>
        <time>2019-06-26T13:41:15Z</time>
      </trkpt>
      <trkpt lat="46.76668" lon="6.42726">
        <ele>1074</ele>
        <time>2019-06-26T13:41:19Z</time>
      </trkpt>
      <trkpt lat="46.7665" lon="6.42688">
        <ele>1076</ele>
        <time>2019-06-26T13:41:43Z</time>
      </trkpt>
      <trkpt lat="46.76647" lon="6.42682">
        <ele>1075</ele>
        <time>2019-06-26T13:41:47Z</time>
      </trkpt>
      <trkpt lat="46.76641" lon="6.4267">
        <ele>1075</ele>
        <time>2019-06-26T13:41:56Z</time>
      </trkpt>
      <trkpt lat="46.76638" lon="6.42663">
        <ele>1077</ele>
        <time>2019-06-26T13:42:00Z</time>
      </trkpt>
      <trkpt lat="46.76631" lon="6.42652">
        <ele>1077</ele>
        <time>2019-06-26T13:42:08Z</time>
      </trkpt>
      <trkpt lat="46.76624" lon="6.42642">
        <ele>1077</ele>
        <time>2019-06-26T13:42:16Z</time>
      </trkpt>
      <trkpt lat="46.76621" lon="6.42637">
        <ele>1077</ele>
        <time>2019-06-26T13:42:20Z</time>
      </trkpt>
      <trkpt lat="46.76619" lon="6.4263">
        <ele>1076</ele>
        <time>2019-06-26T13:42:24Z</time>
      </trkpt>
      <trkpt lat="46.76617" lon="6.42624">
        <ele>1077</ele>
        <time>2019-06-26T13:42:28Z</time>
      </trkpt>
      <trkpt lat="46.76615" lon="6.42618">
        <ele>1077</ele>
        <time>2019-06-26T13:42:32Z</time>
      </trkpt>
      <trkpt lat="46.76609" lon="6.42605">
        <ele>1079</ele>
        <time>2019-06-26T13:42:40Z</time>
      </trkpt>
      <trkpt lat="46.76606" lon="6.42598">
        <ele>1078</ele>
        <time>2019-06-26T13:42:44Z</time>
      </trkpt>
      <trkpt lat="46.76604" lon="6.42592">
        <ele>1078</ele>
        <time>2019-06-26T13:42:48Z</time>
      </trkpt>
      <trkpt lat="46.76598" lon="6.42579">
        <ele>1078</ele>
        <time>2019-06-26T13:42:56Z</time>
      </trkpt>
      <trkpt lat="46.76593" lon="6.42566">
        <ele>1078</ele>
        <time>2019-06-26T13:43:03Z</time>
      </trkpt>
      <trkpt lat="46.7659" lon="6.4256">
        <ele>1078</ele>
        <time>2019-06-26T13:43:07Z</time>
      </trkpt>
      <trkpt lat="46.76588" lon="6.42553">
        <ele>1078</ele>
        <time>2019-06-26T13:43:11Z</time>
      </trkpt>
      <trkpt lat="46.76579" lon="6.42533">
        <ele>1078</ele>
        <time>2019-06-26T13:43:23Z</time>
      </trkpt>
      <trkpt lat="46.76573" lon="6.42521">
        <ele>1078</ele>
        <time>2019-06-26T13:43:31Z</time>
      </trkpt>
      <trkpt lat="46.76571" lon="6.42514">
        <ele>1079</ele>
        <time>2019-06-26T13:43:35Z</time>
      </trkpt>
      <trkpt lat="46.76568" lon="6.42507">
        <ele>1078</ele>
        <time>2019-06-26T13:43:39Z</time>
      </trkpt>
      <trkpt lat="46.76566" lon="6.42499">
        <ele>1079</ele>
        <time>2019-06-26T13:43:43Z</time>
      </trkpt>
      <trkpt lat="46.76564" lon="6.42492">
        <ele>1077</ele>
        <time>2019-06-26T13:43:47Z</time>
      </trkpt>
      <trkpt lat="46.7656" lon="6.42478">
        <ele>1078</ele>
        <time>2019-06-26T13:43:55Z</time>
      </trkpt>
      <trkpt lat="46.76558" lon="6.42472">
        <ele>1077</ele>
        <time>2019-06-26T13:43:59Z</time>
      </trkpt>
      <trkpt lat="46.76555" lon="6.42465">
        <ele>1078</ele>
        <time>2019-06-26T13:44:04Z</time>
      </trkpt>
      <trkpt lat="46.76553" lon="6.42459">
        <ele>1078</ele>
        <time>2019-06-26T13:44:07Z</time>
      </trkpt>
      <trkpt lat="46.7655" lon="6.42445">
        <ele>1078</ele>
        <time>2019-06-26T13:44:14Z</time>
      </trkpt>
      <trkpt lat="46.76545" lon="6.42432">
        <ele>1078</ele>
        <time>2019-06-26T13:44:22Z</time>
      </trkpt>
      <trkpt lat="46.76541" lon="6.42417">
        <ele>1078</ele>
        <time>2019-06-26T13:44:30Z</time>
      </trkpt>
      <trkpt lat="46.76534" lon="6.42397">
        <ele>1079</ele>
        <time>2019-06-26T13:44:40Z</time>
      </trkpt>
      <trkpt lat="46.76533" lon="6.4239">
        <ele>1079</ele>
        <time>2019-06-26T13:44:44Z</time>
      </trkpt>
      <trkpt lat="46.76531" lon="6.42384">
        <ele>1078</ele>
        <time>2019-06-26T13:44:48Z</time>
      </trkpt>
      <trkpt lat="46.76526" lon="6.42361">
        <ele>1079</ele>
        <time>2019-06-26T13:45:00Z</time>
      </trkpt>
      <trkpt lat="46.76523" lon="6.42346">
        <ele>1079</ele>
        <time>2019-06-26T13:45:08Z</time>
      </trkpt>
      <trkpt lat="46.76518" lon="6.42315">
        <ele>1080</ele>
        <time>2019-06-26T13:45:24Z</time>
      </trkpt>
      <trkpt lat="46.76516" lon="6.42308">
        <ele>1079</ele>
        <time>2019-06-26T13:45:28Z</time>
      </trkpt>
      <trkpt lat="46.76514" lon="6.42302">
        <ele>1080</ele>
        <time>2019-06-26T13:45:32Z</time>
      </trkpt>
      <trkpt lat="46.76513" lon="6.42295">
        <ele>1080</ele>
        <time>2019-06-26T13:45:36Z</time>
      </trkpt>
      <trkpt lat="46.76511" lon="6.42288">
        <ele>1080</ele>
        <time>2019-06-26T13:45:40Z</time>
      </trkpt>
      <trkpt lat="46.76506" lon="6.42267">
        <ele>1079</ele>
        <time>2019-06-26T13:45:52Z</time>
      </trkpt>
      <trkpt lat="46.76495" lon="6.4224">
        <ele>1079</ele>
        <time>2019-06-26T13:46:06Z</time>
      </trkpt>
      <trkpt lat="46.76494" lon="6.42234">
        <ele>1079</ele>
        <time>2019-06-26T13:46:09Z</time>
      </trkpt>
      <trkpt lat="46.76493" lon="6.42226">
        <ele>1078</ele>
        <time>2019-06-26T13:46:13Z</time>
      </trkpt>
      <trkpt lat="46.76498" lon="6.42198">
        <ele>1077</ele>
        <time>2019-06-26T13:46:30Z</time>
      </trkpt>
      <trkpt lat="46.76506" lon="6.42171">
        <ele>1073</ele>
        <time>2019-06-26T13:46:46Z</time>
      </trkpt>
      <trkpt lat="46.76508" lon="6.42163">
        <ele>1073</ele>
        <time>2019-06-26T13:46:50Z</time>
      </trkpt>
      <trkpt lat="46.76504" lon="6.42148">
        <ele>1069</ele>
        <time>2019-06-26T13:46:58Z</time>
      </trkpt>
      <trkpt lat="46.765" lon="6.42132">
        <ele>1069</ele>
        <time>2019-06-26T13:47:06Z</time>
      </trkpt>
      <trkpt lat="46.76498" lon="6.42125">
        <ele>1069</ele>
        <time>2019-06-26T13:47:10Z</time>
      </trkpt>
      <trkpt lat="46.76486" lon="6.42072">
        <ele>1065</ele>
        <time>2019-06-26T13:47:38Z</time>
      </trkpt>
      <trkpt lat="46.76485" lon="6.42065">
        <ele>1065</ele>
        <time>2019-06-26T13:47:42Z</time>
      </trkpt>
      <trkpt lat="46.76483" lon="6.42058">
        <ele>1064</ele>
        <time>2019-06-26T13:47:46Z</time>
      </trkpt>
      <trkpt lat="46.76478" lon="6.42037">
        <ele>1063</ele>
        <time>2019-06-26T13:47:58Z</time>
      </trkpt>
      <trkpt lat="46.76475" lon="6.42021">
        <ele>1062</ele>
        <time>2019-06-26T13:48:06Z</time>
      </trkpt>
      <trkpt lat="46.76473" lon="6.42014">
        <ele>1061</ele>
        <time>2019-06-26T13:48:10Z</time>
      </trkpt>
      <trkpt lat="46.76471" lon="6.42007">
        <ele>1062</ele>
        <time>2019-06-26T13:48:14Z</time>
      </trkpt>
      <trkpt lat="46.7647" lon="6.42">
        <ele>1061</ele>
        <time>2019-06-26T13:48:17Z</time>
      </trkpt>
      <trkpt lat="46.76468" lon="6.41993">
        <ele>1061</ele>
        <time>2019-06-26T13:48:21Z</time>
      </trkpt>
      <trkpt lat="46.76464" lon="6.41978">
        <ele>1061</ele>
        <time>2019-06-26T13:48:29Z</time>
      </trkpt>
      <trkpt lat="46.76459" lon="6.41964">
        <ele>1062</ele>
        <time>2019-06-26T13:48:37Z</time>
      </trkpt>
      <trkpt lat="46.76455" lon="6.41957">
        <ele>1061</ele>
        <time>2019-06-26T13:48:41Z</time>
      </trkpt>
      <trkpt lat="46.76453" lon="6.4195">
        <ele>1061</ele>
        <time>2019-06-26T13:48:45Z</time>
      </trkpt>
      <trkpt lat="46.7645" lon="6.41944">
        <ele>1061</ele>
        <time>2019-06-26T13:48:49Z</time>
      </trkpt>
      <trkpt lat="46.76441" lon="6.41924">
        <ele>1060</ele>
        <time>2019-06-26T13:49:00Z</time>
      </trkpt>
      <trkpt lat="46.76432" lon="6.41907">
        <ele>1056</ele>
        <time>2019-06-26T13:49:13Z</time>
      </trkpt>
      <trkpt lat="46.76429" lon="6.41901">
        <ele>1056</ele>
        <time>2019-06-26T13:49:17Z</time>
      </trkpt>
      <trkpt lat="46.76423" lon="6.41888">
        <ele>1055</ele>
        <time>2019-06-26T13:49:25Z</time>
      </trkpt>
      <trkpt lat="46.76416" lon="6.41866">
        <ele>1055</ele>
        <time>2019-06-26T13:49:37Z</time>
      </trkpt>
      <trkpt lat="46.76414" lon="6.41859">
        <ele>1055</ele>
        <time>2019-06-26T13:49:41Z</time>
      </trkpt>
      <trkpt lat="46.76406" lon="6.41837">
        <ele>1057</ele>
        <time>2019-06-26T13:49:53Z</time>
      </trkpt>
      <trkpt lat="46.76405" lon="6.41831">
        <ele>1057</ele>
        <time>2019-06-26T13:49:56Z</time>
      </trkpt>
      <trkpt lat="46.76403" lon="6.41823">
        <ele>1057</ele>
        <time>2019-06-26T13:50:00Z</time>
      </trkpt>
      <trkpt lat="46.76399" lon="6.4181">
        <ele>1056</ele>
        <time>2019-06-26T13:50:08Z</time>
      </trkpt>
      <trkpt lat="46.76389" lon="6.41781">
        <ele>1057</ele>
        <time>2019-06-26T13:50:23Z</time>
      </trkpt>
      <trkpt lat="46.76387" lon="6.41776">
        <ele>1057</ele>
        <time>2019-06-26T13:50:26Z</time>
      </trkpt>
      <trkpt lat="46.76383" lon="6.41762">
        <ele>1058</ele>
        <time>2019-06-26T13:50:33Z</time>
      </trkpt>
      <trkpt lat="46.76378" lon="6.41749">
        <ele>1057</ele>
        <time>2019-06-26T13:50:41Z</time>
      </trkpt>
      <trkpt lat="46.76376" lon="6.41743">
        <ele>1057</ele>
        <time>2019-06-26T13:50:45Z</time>
      </trkpt>
      <trkpt lat="46.76372" lon="6.4173">
        <ele>1055</ele>
        <time>2019-06-26T13:50:53Z</time>
      </trkpt>
      <trkpt lat="46.7637" lon="6.41723">
        <ele>1055</ele>
        <time>2019-06-26T13:50:57Z</time>
      </trkpt>
      <trkpt lat="46.76368" lon="6.41716">
        <ele>1055</ele>
        <time>2019-06-26T13:51:01Z</time>
      </trkpt>
      <trkpt lat="46.76366" lon="6.41709">
        <ele>1055</ele>
        <time>2019-06-26T13:51:05Z</time>
      </trkpt>
      <trkpt lat="46.76364" lon="6.41703">
        <ele>1055</ele>
        <time>2019-06-26T13:51:09Z</time>
      </trkpt>
      <trkpt lat="46.76362" lon="6.41696">
        <ele>1055</ele>
        <time>2019-06-26T13:51:13Z</time>
      </trkpt>
      <trkpt lat="46.76359" lon="6.41681">
        <ele>1055</ele>
        <time>2019-06-26T13:51:20Z</time>
      </trkpt>
      <trkpt lat="46.76357" lon="6.41675">
        <ele>1054</ele>
        <time>2019-06-26T13:51:24Z</time>
      </trkpt>
      <trkpt lat="46.76354" lon="6.4166">
        <ele>1055</ele>
        <time>2019-06-26T13:51:32Z</time>
      </trkpt>
      <trkpt lat="46.76352" lon="6.41652">
        <ele>1055</ele>
        <time>2019-06-26T13:51:36Z</time>
      </trkpt>
      <trkpt lat="46.76348" lon="6.41639">
        <ele>1053</ele>
        <time>2019-06-26T13:51:44Z</time>
      </trkpt>
      <trkpt lat="46.76346" lon="6.41632">
        <ele>1054</ele>
        <time>2019-06-26T13:51:48Z</time>
      </trkpt>
      <trkpt lat="46.76345" lon="6.41618">
        <ele>1053</ele>
        <time>2019-06-26T13:51:56Z</time>
      </trkpt>
      <trkpt lat="46.76345" lon="6.41611">
        <ele>1052</ele>
        <time>2019-06-26T13:52:00Z</time>
      </trkpt>
      <trkpt lat="46.76342" lon="6.41604">
        <ele>1052</ele>
        <time>2019-06-26T13:52:04Z</time>
      </trkpt>
      <trkpt lat="46.7634" lon="6.41597">
        <ele>1052</ele>
        <time>2019-06-26T13:52:08Z</time>
      </trkpt>
      <trkpt lat="46.7634" lon="6.4159">
        <ele>1052</ele>
        <time>2019-06-26T13:52:12Z</time>
      </trkpt>
      <trkpt lat="46.76337" lon="6.41583">
        <ele>1051</ele>
        <time>2019-06-26T13:52:15Z</time>
      </trkpt>
      <trkpt lat="46.76336" lon="6.41577">
        <ele>1051</ele>
        <time>2019-06-26T13:52:18Z</time>
      </trkpt>
      <trkpt lat="46.76333" lon="6.4157">
        <ele>1051</ele>
        <time>2019-06-26T13:52:22Z</time>
      </trkpt>
      <trkpt lat="46.7633" lon="6.41563">
        <ele>1052</ele>
        <time>2019-06-26T13:52:26Z</time>
      </trkpt>
      <trkpt lat="46.76325" lon="6.41546">
        <ele>1051</ele>
        <time>2019-06-26T13:52:36Z</time>
      </trkpt>
      <trkpt lat="46.76323" lon="6.41539">
        <ele>1051</ele>
        <time>2019-06-26T13:52:40Z</time>
      </trkpt>
      <trkpt lat="46.76321" lon="6.41532">
        <ele>1050</ele>
        <time>2019-06-26T13:52:44Z</time>
      </trkpt>
      <trkpt lat="46.7632" lon="6.41525">
        <ele>1051</ele>
        <time>2019-06-26T13:52:47Z</time>
      </trkpt>
      <trkpt lat="46.76318" lon="6.41518">
        <ele>1051</ele>
        <time>2019-06-26T13:52:51Z</time>
      </trkpt>
      <trkpt lat="46.76314" lon="6.41504">
        <ele>1051</ele>
        <time>2019-06-26T13:52:59Z</time>
      </trkpt>
      <trkpt lat="46.76313" lon="6.41497">
        <ele>1051</ele>
        <time>2019-06-26T13:53:03Z</time>
      </trkpt>
      <trkpt lat="46.76311" lon="6.4149">
        <ele>1051</ele>
        <time>2019-06-26T13:53:07Z</time>
      </trkpt>
      <trkpt lat="46.7631" lon="6.41483">
        <ele>1051</ele>
        <time>2019-06-26T13:53:11Z</time>
      </trkpt>
      <trkpt lat="46.76309" lon="6.41476">
        <ele>1051</ele>
        <time>2019-06-26T13:53:15Z</time>
      </trkpt>
      <trkpt lat="46.76306" lon="6.4146">
        <ele>1050</ele>
        <time>2019-06-26T13:53:24Z</time>
      </trkpt>
      <trkpt lat="46.76305" lon="6.41453">
        <ele>1050</ele>
        <time>2019-06-26T13:53:28Z</time>
      </trkpt>
      <trkpt lat="46.76304" lon="6.41446">
        <ele>1050</ele>
        <time>2019-06-26T13:53:32Z</time>
      </trkpt>
      <trkpt lat="46.763" lon="6.41426">
        <ele>1048</ele>
        <time>2019-06-26T13:53:45Z</time>
      </trkpt>
      <trkpt lat="46.76298" lon="6.41419">
        <ele>1049</ele>
        <time>2019-06-26T13:53:49Z</time>
      </trkpt>
      <trkpt lat="46.76295" lon="6.41412">
        <ele>1049</ele>
        <time>2019-06-26T13:53:53Z</time>
      </trkpt>
      <trkpt lat="46.7629" lon="6.41398">
        <ele>1050</ele>
        <time>2019-06-26T13:54:01Z</time>
      </trkpt>
      <trkpt lat="46.76288" lon="6.41391">
        <ele>1051</ele>
        <time>2019-06-26T13:54:04Z</time>
      </trkpt>
      <trkpt lat="46.76287" lon="6.41384">
        <ele>1051</ele>
        <time>2019-06-26T13:54:08Z</time>
      </trkpt>
      <trkpt lat="46.76285" lon="6.41377">
        <ele>1051</ele>
        <time>2019-06-26T13:54:12Z</time>
      </trkpt>
      <trkpt lat="46.76285" lon="6.41362">
        <ele>1051</ele>
        <time>2019-06-26T13:54:20Z</time>
      </trkpt>
      <trkpt lat="46.76286" lon="6.41355">
        <ele>1051</ele>
        <time>2019-06-26T13:54:23Z</time>
      </trkpt>
      <trkpt lat="46.76288" lon="6.41348">
        <ele>1052</ele>
        <time>2019-06-26T13:54:27Z</time>
      </trkpt>
      <trkpt lat="46.76294" lon="6.41334">
        <ele>1053</ele>
        <time>2019-06-26T13:54:35Z</time>
      </trkpt>
      <trkpt lat="46.76297" lon="6.41329">
        <ele>1052</ele>
        <time>2019-06-26T13:54:39Z</time>
      </trkpt>
      <trkpt lat="46.76303" lon="6.41317">
        <ele>1053</ele>
        <time>2019-06-26T13:54:48Z</time>
      </trkpt>
      <trkpt lat="46.76307" lon="6.41309">
        <ele>1052</ele>
        <time>2019-06-26T13:54:54Z</time>
      </trkpt>
      <trkpt lat="46.7631" lon="6.41303">
        <ele>1053</ele>
        <time>2019-06-26T13:54:58Z</time>
      </trkpt>
      <trkpt lat="46.76313" lon="6.41296">
        <ele>1053</ele>
        <time>2019-06-26T13:55:02Z</time>
      </trkpt>
      <trkpt lat="46.76318" lon="6.41283">
        <ele>1056</ele>
        <time>2019-06-26T13:55:10Z</time>
      </trkpt>
      <trkpt lat="46.76319" lon="6.41275">
        <ele>1056</ele>
        <time>2019-06-26T13:55:14Z</time>
      </trkpt>
      <trkpt lat="46.76321" lon="6.41268">
        <ele>1057</ele>
        <time>2019-06-26T13:55:18Z</time>
      </trkpt>
      <trkpt lat="46.76323" lon="6.41261">
        <ele>1057</ele>
        <time>2019-06-26T13:55:21Z</time>
      </trkpt>
      <trkpt lat="46.76324" lon="6.41254">
        <ele>1058</ele>
        <time>2019-06-26T13:55:25Z</time>
      </trkpt>
      <trkpt lat="46.76325" lon="6.41239">
        <ele>1056</ele>
        <time>2019-06-26T13:55:34Z</time>
      </trkpt>
      <trkpt lat="46.76327" lon="6.41233">
        <ele>1056</ele>
        <time>2019-06-26T13:55:38Z</time>
      </trkpt>
      <trkpt lat="46.76327" lon="6.41227">
        <ele>1056</ele>
        <time>2019-06-26T13:55:42Z</time>
      </trkpt>
      <trkpt lat="46.76326" lon="6.41205">
        <ele>1057</ele>
        <time>2019-06-26T13:55:54Z</time>
      </trkpt>
      <trkpt lat="46.76328" lon="6.41191">
        <ele>1057</ele>
        <time>2019-06-26T13:56:02Z</time>
      </trkpt>
      <trkpt lat="46.76327" lon="6.41184">
        <ele>1057</ele>
        <time>2019-06-26T13:56:07Z</time>
      </trkpt>
      <trkpt lat="46.76327" lon="6.41176">
        <ele>1056</ele>
        <time>2019-06-26T13:56:12Z</time>
      </trkpt>
      <trkpt lat="46.76325" lon="6.41164">
        <ele>1055</ele>
        <time>2019-06-26T13:56:29Z</time>
      </trkpt>
      <trkpt lat="46.76307" lon="6.41111">
        <ele>1064</ele>
        <time>2019-06-26T13:57:00Z</time>
      </trkpt>
      <trkpt lat="46.76301" lon="6.41096">
        <ele>1065</ele>
        <time>2019-06-26T13:57:11Z</time>
      </trkpt>
      <trkpt lat="46.76293" lon="6.41077">
        <ele>1066</ele>
        <time>2019-06-26T13:57:23Z</time>
      </trkpt>
      <trkpt lat="46.7629" lon="6.41071">
        <ele>1065</ele>
        <time>2019-06-26T13:57:28Z</time>
      </trkpt>
      <trkpt lat="46.76288" lon="6.41065">
        <ele>1065</ele>
        <time>2019-06-26T13:57:32Z</time>
      </trkpt>
      <trkpt lat="46.76286" lon="6.41057">
        <ele>1065</ele>
        <time>2019-06-26T13:57:37Z</time>
      </trkpt>
      <trkpt lat="46.76285" lon="6.4105">
        <ele>1065</ele>
        <time>2019-06-26T13:57:42Z</time>
      </trkpt>
      <trkpt lat="46.76284" lon="6.41043">
        <ele>1064</ele>
        <time>2019-06-26T13:57:46Z</time>
      </trkpt>
      <trkpt lat="46.76285" lon="6.41021">
        <ele>1066</ele>
        <time>2019-06-26T13:58:00Z</time>
      </trkpt>
      <trkpt lat="46.76288" lon="6.41006">
        <ele>1067</ele>
        <time>2019-06-26T13:58:10Z</time>
      </trkpt>
      <trkpt lat="46.76289" lon="6.41">
        <ele>1068</ele>
        <time>2019-06-26T13:58:14Z</time>
      </trkpt>
      <trkpt lat="46.76289" lon="6.40992">
        <ele>1068</ele>
        <time>2019-06-26T13:58:18Z</time>
      </trkpt>
      <trkpt lat="46.76292" lon="6.40977">
        <ele>1070</ele>
        <time>2019-06-26T13:58:26Z</time>
      </trkpt>
      <trkpt lat="46.76291" lon="6.4097">
        <ele>1070</ele>
        <time>2019-06-26T13:58:30Z</time>
      </trkpt>
      <trkpt lat="46.76288" lon="6.40964">
        <ele>1069</ele>
        <time>2019-06-26T13:58:34Z</time>
      </trkpt>
      <trkpt lat="46.76285" lon="6.40958">
        <ele>1070</ele>
        <time>2019-06-26T13:58:39Z</time>
      </trkpt>
      <trkpt lat="46.76279" lon="6.40955">
        <ele>1070</ele>
        <time>2019-06-26T13:59:11Z</time>
      </trkpt>
      <trkpt lat="46.76273" lon="6.40944">
        <ele>1069</ele>
        <time>2019-06-26T13:59:18Z</time>
      </trkpt>
      <trkpt lat="46.76262" lon="6.40934">
        <ele>1070</ele>
        <time>2019-06-26T13:59:30Z</time>
      </trkpt>
      <trkpt lat="46.76258" lon="6.4093">
        <ele>1072</ele>
        <time>2019-06-26T13:59:35Z</time>
      </trkpt>
      <trkpt lat="46.76255" lon="6.40925">
        <ele>1073</ele>
        <time>2019-06-26T13:59:39Z</time>
      </trkpt>
      <trkpt lat="46.76252" lon="6.40918">
        <ele>1073</ele>
        <time>2019-06-26T13:59:44Z</time>
      </trkpt>
      <trkpt lat="46.76248" lon="6.40905">
        <ele>1073</ele>
        <time>2019-06-26T13:59:54Z</time>
      </trkpt>
      <trkpt lat="46.76247" lon="6.40898">
        <ele>1073</ele>
        <time>2019-06-26T13:59:59Z</time>
      </trkpt>
      <trkpt lat="46.76247" lon="6.40891">
        <ele>1073</ele>
        <time>2019-06-26T14:00:04Z</time>
      </trkpt>
      <trkpt lat="46.76248" lon="6.4088">
        <ele>1073</ele>
        <time>2019-06-26T14:00:13Z</time>
      </trkpt>
      <trkpt lat="46.76245" lon="6.40872">
        <ele>1073</ele>
        <time>2019-06-26T14:00:23Z</time>
      </trkpt>
      <trkpt lat="46.76246" lon="6.40874">
        <ele>1072</ele>
        <time>2019-06-26T14:03:28Z</time>
      </trkpt>
      <trkpt lat="46.76246" lon="6.40869">
        <ele>1073</ele>
        <time>2019-06-26T14:07:05Z</time>
      </trkpt>
    </trkseg>
  </trk>
</gpx>